<?xml version="1.0" encoding="UTF-8" standalone="no" ?>
<gpx xmlns="http://www.topografix.com/GPX/1/1" xmlns:xsi="http://www.w3.org/2001/XMLSchema-instance" xsi:schemaLocation="http://www.topografix.com/GPX/1/1 http://www.topografix.com/GPX/1/1/gpx.xsd" version="1.1" creator="VisuGPX - https://www.visugpx.com">
  <metadata>
    <name>9 mars 2021Depart Bezerac</name>
    <desc><![CDATA[Depart Clermont l'Hérault, L'Ariole, Col de Portes, Crêtes de Lousse,Vielh Arièges, Lacan et retour.]]></desc>
  </metadata>
  <trk>
    <name><![CDATA[9 mars 2021]]></name>
    <trkseg>
      <trkpt lat="43.62687" lon="3.42093">
        <ele>145</ele>
        <time>2021-03-09T08:10:29Z</time>
      </trkpt>
      <trkpt lat="43.62687" lon="3.42093">
        <ele>145</ele>
        <time>2021-03-09T08:10:30Z</time>
      </trkpt>
      <trkpt lat="43.62687" lon="3.42093">
        <ele>133</ele>
        <time>2021-03-09T08:11:22Z</time>
      </trkpt>
      <trkpt lat="43.6269" lon="3.42091">
        <ele>127</ele>
        <time>2021-03-09T08:11:31Z</time>
      </trkpt>
      <trkpt lat="43.62693" lon="3.4209">
        <ele>125</ele>
        <time>2021-03-09T08:11:34Z</time>
      </trkpt>
      <trkpt lat="43.62695" lon="3.42085">
        <ele>121</ele>
        <time>2021-03-09T08:12:15Z</time>
      </trkpt>
      <trkpt lat="43.62699" lon="3.42075">
        <ele>120</ele>
        <time>2021-03-09T08:12:20Z</time>
      </trkpt>
      <trkpt lat="43.62703" lon="3.42064">
        <ele>120</ele>
        <time>2021-03-09T08:12:24Z</time>
      </trkpt>
      <trkpt lat="43.62715" lon="3.42033">
        <ele>124</ele>
        <time>2021-03-09T08:12:36Z</time>
      </trkpt>
      <trkpt lat="43.62719" lon="3.42022">
        <ele>125</ele>
        <time>2021-03-09T08:12:40Z</time>
      </trkpt>
      <trkpt lat="43.62725" lon="3.41992">
        <ele>128</ele>
        <time>2021-03-09T08:12:49Z</time>
      </trkpt>
      <trkpt lat="43.62731" lon="3.41949">
        <ele>128</ele>
        <time>2021-03-09T08:13:01Z</time>
      </trkpt>
      <trkpt lat="43.62763" lon="3.41873">
        <ele>130</ele>
        <time>2021-03-09T08:13:25Z</time>
      </trkpt>
      <trkpt lat="43.62774" lon="3.41864">
        <ele>131</ele>
        <time>2021-03-09T08:13:30Z</time>
      </trkpt>
      <trkpt lat="43.62798" lon="3.41847">
        <ele>133</ele>
        <time>2021-03-09T08:13:39Z</time>
      </trkpt>
      <trkpt lat="43.62806" lon="3.41836">
        <ele>133</ele>
        <time>2021-03-09T08:13:43Z</time>
      </trkpt>
      <trkpt lat="43.62849" lon="3.41746">
        <ele>136</ele>
        <time>2021-03-09T08:14:13Z</time>
      </trkpt>
      <trkpt lat="43.62863" lon="3.41722">
        <ele>139</ele>
        <time>2021-03-09T08:14:21Z</time>
      </trkpt>
      <trkpt lat="43.62881" lon="3.41644">
        <ele>146</ele>
        <time>2021-03-09T08:14:45Z</time>
      </trkpt>
      <trkpt lat="43.62883" lon="3.4164">
        <ele>147</ele>
        <time>2021-03-09T08:14:47Z</time>
      </trkpt>
      <trkpt lat="43.62888" lon="3.41631">
        <ele>148</ele>
        <time>2021-03-09T08:14:51Z</time>
      </trkpt>
      <trkpt lat="43.62892" lon="3.41622">
        <ele>148</ele>
        <time>2021-03-09T08:14:55Z</time>
      </trkpt>
      <trkpt lat="43.62955" lon="3.41568">
        <ele>151</ele>
        <time>2021-03-09T08:15:25Z</time>
      </trkpt>
      <trkpt lat="43.62981" lon="3.41534">
        <ele>152</ele>
        <time>2021-03-09T08:15:39Z</time>
      </trkpt>
      <trkpt lat="43.63012" lon="3.41479">
        <ele>155</ele>
        <time>2021-03-09T08:15:59Z</time>
      </trkpt>
      <trkpt lat="43.63027" lon="3.41461">
        <ele>157</ele>
        <time>2021-03-09T08:16:07Z</time>
      </trkpt>
      <trkpt lat="43.63071" lon="3.41377">
        <ele>160</ele>
        <time>2021-03-09T08:16:38Z</time>
      </trkpt>
      <trkpt lat="43.63092" lon="3.4133">
        <ele>163</ele>
        <time>2021-03-09T08:16:58Z</time>
      </trkpt>
      <trkpt lat="43.63097" lon="3.4131">
        <ele>166</ele>
        <time>2021-03-09T08:17:05Z</time>
      </trkpt>
      <trkpt lat="43.63103" lon="3.413">
        <ele>166</ele>
        <time>2021-03-09T08:17:09Z</time>
      </trkpt>
      <trkpt lat="43.63106" lon="3.41291">
        <ele>168</ele>
        <time>2021-03-09T08:17:15Z</time>
      </trkpt>
      <trkpt lat="43.63106" lon="3.41277">
        <ele>174</ele>
        <time>2021-03-09T08:17:27Z</time>
      </trkpt>
      <trkpt lat="43.63108" lon="3.41274">
        <ele>175</ele>
        <time>2021-03-09T08:17:30Z</time>
      </trkpt>
      <trkpt lat="43.63111" lon="3.41271">
        <ele>177</ele>
        <time>2021-03-09T08:17:35Z</time>
      </trkpt>
      <trkpt lat="43.63115" lon="3.41271">
        <ele>177</ele>
        <time>2021-03-09T08:17:37Z</time>
      </trkpt>
      <trkpt lat="43.63118" lon="3.4127">
        <ele>178</ele>
        <time>2021-03-09T08:17:39Z</time>
      </trkpt>
      <trkpt lat="43.63119" lon="3.41267">
        <ele>178</ele>
        <time>2021-03-09T08:17:47Z</time>
      </trkpt>
      <trkpt lat="43.63117" lon="3.41263">
        <ele>179</ele>
        <time>2021-03-09T08:17:54Z</time>
      </trkpt>
      <trkpt lat="43.63114" lon="3.41261">
        <ele>180</ele>
        <time>2021-03-09T08:18:00Z</time>
      </trkpt>
      <trkpt lat="43.63104" lon="3.41248">
        <ele>181</ele>
        <time>2021-03-09T08:18:08Z</time>
      </trkpt>
      <trkpt lat="43.63088" lon="3.4122">
        <ele>187</ele>
        <time>2021-03-09T08:18:38Z</time>
      </trkpt>
      <trkpt lat="43.63079" lon="3.41209">
        <ele>193</ele>
        <time>2021-03-09T08:18:54Z</time>
      </trkpt>
      <trkpt lat="43.63078" lon="3.41206">
        <ele>192</ele>
        <time>2021-03-09T08:19:00Z</time>
      </trkpt>
      <trkpt lat="43.63079" lon="3.41202">
        <ele>192</ele>
        <time>2021-03-09T08:19:03Z</time>
      </trkpt>
      <trkpt lat="43.63079" lon="3.41198">
        <ele>191</ele>
        <time>2021-03-09T08:19:13Z</time>
      </trkpt>
      <trkpt lat="43.63075" lon="3.41191">
        <ele>191</ele>
        <time>2021-03-09T08:19:16Z</time>
      </trkpt>
      <trkpt lat="43.63075" lon="3.41187">
        <ele>191</ele>
        <time>2021-03-09T08:19:18Z</time>
      </trkpt>
      <trkpt lat="43.63075" lon="3.41183">
        <ele>191</ele>
        <time>2021-03-09T08:19:21Z</time>
      </trkpt>
      <trkpt lat="43.63077" lon="3.4118">
        <ele>191</ele>
        <time>2021-03-09T08:19:29Z</time>
      </trkpt>
      <trkpt lat="43.63078" lon="3.41176">
        <ele>194</ele>
        <time>2021-03-09T08:19:34Z</time>
      </trkpt>
      <trkpt lat="43.63079" lon="3.41168">
        <ele>198</ele>
        <time>2021-03-09T08:19:43Z</time>
      </trkpt>
      <trkpt lat="43.63078" lon="3.41164">
        <ele>198</ele>
        <time>2021-03-09T08:19:48Z</time>
      </trkpt>
      <trkpt lat="43.63076" lon="3.41162">
        <ele>200</ele>
        <time>2021-03-09T08:20:01Z</time>
      </trkpt>
      <trkpt lat="43.63073" lon="3.41148">
        <ele>202</ele>
        <time>2021-03-09T08:20:08Z</time>
      </trkpt>
      <trkpt lat="43.63072" lon="3.41145">
        <ele>203</ele>
        <time>2021-03-09T08:20:10Z</time>
      </trkpt>
      <trkpt lat="43.63071" lon="3.41141">
        <ele>203</ele>
        <time>2021-03-09T08:20:12Z</time>
      </trkpt>
      <trkpt lat="43.6307" lon="3.41138">
        <ele>204</ele>
        <time>2021-03-09T08:20:14Z</time>
      </trkpt>
      <trkpt lat="43.63061" lon="3.41106">
        <ele>209</ele>
        <time>2021-03-09T08:20:29Z</time>
      </trkpt>
      <trkpt lat="43.63061" lon="3.411">
        <ele>210</ele>
        <time>2021-03-09T08:20:31Z</time>
      </trkpt>
      <trkpt lat="43.63061" lon="3.41095">
        <ele>212</ele>
        <time>2021-03-09T08:20:33Z</time>
      </trkpt>
      <trkpt lat="43.63061" lon="3.41091">
        <ele>212</ele>
        <time>2021-03-09T08:20:35Z</time>
      </trkpt>
      <trkpt lat="43.6306" lon="3.41086">
        <ele>213</ele>
        <time>2021-03-09T08:20:37Z</time>
      </trkpt>
      <trkpt lat="43.63059" lon="3.41082">
        <ele>214</ele>
        <time>2021-03-09T08:20:39Z</time>
      </trkpt>
      <trkpt lat="43.6306" lon="3.41076">
        <ele>215</ele>
        <time>2021-03-09T08:20:54Z</time>
      </trkpt>
      <trkpt lat="43.63061" lon="3.41069">
        <ele>215</ele>
        <time>2021-03-09T08:20:57Z</time>
      </trkpt>
      <trkpt lat="43.63061" lon="3.41063">
        <ele>215</ele>
        <time>2021-03-09T08:20:59Z</time>
      </trkpt>
      <trkpt lat="43.63062" lon="3.41057">
        <ele>215</ele>
        <time>2021-03-09T08:21:01Z</time>
      </trkpt>
      <trkpt lat="43.63071" lon="3.41">
        <ele>217</ele>
        <time>2021-03-09T08:21:21Z</time>
      </trkpt>
      <trkpt lat="43.63077" lon="3.40979">
        <ele>222</ele>
        <time>2021-03-09T08:21:29Z</time>
      </trkpt>
      <trkpt lat="43.63078" lon="3.40973">
        <ele>224</ele>
        <time>2021-03-09T08:21:31Z</time>
      </trkpt>
      <trkpt lat="43.63078" lon="3.40967">
        <ele>225</ele>
        <time>2021-03-09T08:21:33Z</time>
      </trkpt>
      <trkpt lat="43.63078" lon="3.40956">
        <ele>226</ele>
        <time>2021-03-09T08:21:37Z</time>
      </trkpt>
      <trkpt lat="43.63077" lon="3.40951">
        <ele>226</ele>
        <time>2021-03-09T08:21:39Z</time>
      </trkpt>
      <trkpt lat="43.6307" lon="3.40925">
        <ele>236</ele>
        <time>2021-03-09T08:23:41Z</time>
      </trkpt>
      <trkpt lat="43.63068" lon="3.40913">
        <ele>238</ele>
        <time>2021-03-09T08:23:46Z</time>
      </trkpt>
      <trkpt lat="43.63066" lon="3.40908">
        <ele>240</ele>
        <time>2021-03-09T08:23:48Z</time>
      </trkpt>
      <trkpt lat="43.63059" lon="3.40893">
        <ele>240</ele>
        <time>2021-03-09T08:23:54Z</time>
      </trkpt>
      <trkpt lat="43.63056" lon="3.40886">
        <ele>241</ele>
        <time>2021-03-09T08:23:57Z</time>
      </trkpt>
      <trkpt lat="43.63053" lon="3.40877">
        <ele>240</ele>
        <time>2021-03-09T08:24:01Z</time>
      </trkpt>
      <trkpt lat="43.63053" lon="3.40865">
        <ele>240</ele>
        <time>2021-03-09T08:24:05Z</time>
      </trkpt>
      <trkpt lat="43.63059" lon="3.40822">
        <ele>238</ele>
        <time>2021-03-09T08:24:19Z</time>
      </trkpt>
      <trkpt lat="43.63059" lon="3.40817">
        <ele>239</ele>
        <time>2021-03-09T08:24:21Z</time>
      </trkpt>
      <trkpt lat="43.6306" lon="3.40811">
        <ele>241</ele>
        <time>2021-03-09T08:24:23Z</time>
      </trkpt>
      <trkpt lat="43.63073" lon="3.40795">
        <ele>242</ele>
        <time>2021-03-09T08:24:31Z</time>
      </trkpt>
      <trkpt lat="43.63076" lon="3.40792">
        <ele>242</ele>
        <time>2021-03-09T08:24:33Z</time>
      </trkpt>
      <trkpt lat="43.63089" lon="3.40787">
        <ele>245</ele>
        <time>2021-03-09T08:24:40Z</time>
      </trkpt>
      <trkpt lat="43.63093" lon="3.40788">
        <ele>247</ele>
        <time>2021-03-09T08:24:42Z</time>
      </trkpt>
      <trkpt lat="43.63097" lon="3.4079">
        <ele>248</ele>
        <time>2021-03-09T08:24:44Z</time>
      </trkpt>
      <trkpt lat="43.63136" lon="3.40846">
        <ele>253</ele>
        <time>2021-03-09T08:25:06Z</time>
      </trkpt>
      <trkpt lat="43.63155" lon="3.40867">
        <ele>256</ele>
        <time>2021-03-09T08:25:14Z</time>
      </trkpt>
      <trkpt lat="43.63161" lon="3.4087">
        <ele>258</ele>
        <time>2021-03-09T08:25:16Z</time>
      </trkpt>
      <trkpt lat="43.6317" lon="3.40869">
        <ele>260</ele>
        <time>2021-03-09T08:25:20Z</time>
      </trkpt>
      <trkpt lat="43.63221" lon="3.40848">
        <ele>260</ele>
        <time>2021-03-09T08:25:36Z</time>
      </trkpt>
      <trkpt lat="43.63233" lon="3.40851">
        <ele>259</ele>
        <time>2021-03-09T08:25:40Z</time>
      </trkpt>
      <trkpt lat="43.63282" lon="3.40883">
        <ele>260</ele>
        <time>2021-03-09T08:25:55Z</time>
      </trkpt>
      <trkpt lat="43.63295" lon="3.40887">
        <ele>259</ele>
        <time>2021-03-09T08:25:58Z</time>
      </trkpt>
      <trkpt lat="43.63335" lon="3.40872">
        <ele>258</ele>
        <time>2021-03-09T08:26:07Z</time>
      </trkpt>
      <trkpt lat="43.63376" lon="3.40854">
        <ele>257</ele>
        <time>2021-03-09T08:26:18Z</time>
      </trkpt>
      <trkpt lat="43.63379" lon="3.40851">
        <ele>257</ele>
        <time>2021-03-09T08:26:20Z</time>
      </trkpt>
      <trkpt lat="43.63382" lon="3.40847">
        <ele>257</ele>
        <time>2021-03-09T08:26:22Z</time>
      </trkpt>
      <trkpt lat="43.63391" lon="3.40844">
        <ele>256</ele>
        <time>2021-03-09T08:26:25Z</time>
      </trkpt>
      <trkpt lat="43.63408" lon="3.40824">
        <ele>250</ele>
        <time>2021-03-09T08:26:31Z</time>
      </trkpt>
      <trkpt lat="43.63412" lon="3.40819">
        <ele>248</ele>
        <time>2021-03-09T08:26:33Z</time>
      </trkpt>
      <trkpt lat="43.6342" lon="3.40819">
        <ele>246</ele>
        <time>2021-03-09T08:26:35Z</time>
      </trkpt>
      <trkpt lat="43.6343" lon="3.40824">
        <ele>244</ele>
        <time>2021-03-09T08:26:37Z</time>
      </trkpt>
      <trkpt lat="43.63435" lon="3.40826">
        <ele>243</ele>
        <time>2021-03-09T08:26:38Z</time>
      </trkpt>
      <trkpt lat="43.63444" lon="3.40829">
        <ele>242</ele>
        <time>2021-03-09T08:26:40Z</time>
      </trkpt>
      <trkpt lat="43.63531" lon="3.40759">
        <ele>239</ele>
        <time>2021-03-09T08:26:57Z</time>
      </trkpt>
      <trkpt lat="43.63537" lon="3.40752">
        <ele>240</ele>
        <time>2021-03-09T08:26:59Z</time>
      </trkpt>
      <trkpt lat="43.63538" lon="3.40748">
        <ele>240</ele>
        <time>2021-03-09T08:27:00Z</time>
      </trkpt>
      <trkpt lat="43.63538" lon="3.40729">
        <ele>241</ele>
        <time>2021-03-09T08:27:05Z</time>
      </trkpt>
      <trkpt lat="43.63539" lon="3.40697">
        <ele>244</ele>
        <time>2021-03-09T08:27:12Z</time>
      </trkpt>
      <trkpt lat="43.63542" lon="3.40687">
        <ele>244</ele>
        <time>2021-03-09T08:27:14Z</time>
      </trkpt>
      <trkpt lat="43.63547" lon="3.40678">
        <ele>244</ele>
        <time>2021-03-09T08:27:16Z</time>
      </trkpt>
      <trkpt lat="43.63552" lon="3.40658">
        <ele>241</ele>
        <time>2021-03-09T08:27:20Z</time>
      </trkpt>
      <trkpt lat="43.63554" lon="3.40655">
        <ele>240</ele>
        <time>2021-03-09T08:27:21Z</time>
      </trkpt>
      <trkpt lat="43.63558" lon="3.40652">
        <ele>239</ele>
        <time>2021-03-09T08:27:23Z</time>
      </trkpt>
      <trkpt lat="43.63561" lon="3.40652">
        <ele>239</ele>
        <time>2021-03-09T08:27:24Z</time>
      </trkpt>
      <trkpt lat="43.63568" lon="3.40659">
        <ele>238</ele>
        <time>2021-03-09T08:27:26Z</time>
      </trkpt>
      <trkpt lat="43.63573" lon="3.40661">
        <ele>238</ele>
        <time>2021-03-09T08:27:27Z</time>
      </trkpt>
      <trkpt lat="43.63578" lon="3.40661">
        <ele>238</ele>
        <time>2021-03-09T08:27:28Z</time>
      </trkpt>
      <trkpt lat="43.63585" lon="3.40657">
        <ele>238</ele>
        <time>2021-03-09T08:27:29Z</time>
      </trkpt>
      <trkpt lat="43.63616" lon="3.40618">
        <ele>235</ele>
        <time>2021-03-09T08:27:35Z</time>
      </trkpt>
      <trkpt lat="43.63636" lon="3.40582">
        <ele>229</ele>
        <time>2021-03-09T08:27:39Z</time>
      </trkpt>
      <trkpt lat="43.63675" lon="3.40433">
        <ele>217</ele>
        <time>2021-03-09T08:27:55Z</time>
      </trkpt>
      <trkpt lat="43.6368" lon="3.4042">
        <ele>215</ele>
        <time>2021-03-09T08:27:58Z</time>
      </trkpt>
      <trkpt lat="43.63684" lon="3.40411">
        <ele>214</ele>
        <time>2021-03-09T08:28:00Z</time>
      </trkpt>
      <trkpt lat="43.63684" lon="3.40406">
        <ele>214</ele>
        <time>2021-03-09T08:28:01Z</time>
      </trkpt>
      <trkpt lat="43.63681" lon="3.40394">
        <ele>215</ele>
        <time>2021-03-09T08:28:04Z</time>
      </trkpt>
      <trkpt lat="43.63674" lon="3.40381">
        <ele>216</ele>
        <time>2021-03-09T08:28:08Z</time>
      </trkpt>
      <trkpt lat="43.63672" lon="3.40367">
        <ele>214</ele>
        <time>2021-03-09T08:28:12Z</time>
      </trkpt>
      <trkpt lat="43.63671" lon="3.40362">
        <ele>213</ele>
        <time>2021-03-09T08:28:13Z</time>
      </trkpt>
      <trkpt lat="43.63658" lon="3.40331">
        <ele>211</ele>
        <time>2021-03-09T08:28:20Z</time>
      </trkpt>
      <trkpt lat="43.63651" lon="3.40308">
        <ele>211</ele>
        <time>2021-03-09T08:28:24Z</time>
      </trkpt>
      <trkpt lat="43.63642" lon="3.40291">
        <ele>212</ele>
        <time>2021-03-09T08:28:27Z</time>
      </trkpt>
      <trkpt lat="43.63641" lon="3.40285">
        <ele>211</ele>
        <time>2021-03-09T08:28:28Z</time>
      </trkpt>
      <trkpt lat="43.6363" lon="3.40254">
        <ele>208</ele>
        <time>2021-03-09T08:28:34Z</time>
      </trkpt>
      <trkpt lat="43.63631" lon="3.40247">
        <ele>207</ele>
        <time>2021-03-09T08:28:35Z</time>
      </trkpt>
      <trkpt lat="43.63627" lon="3.4022">
        <ele>207</ele>
        <time>2021-03-09T08:28:40Z</time>
      </trkpt>
      <trkpt lat="43.63628" lon="3.40213">
        <ele>208</ele>
        <time>2021-03-09T08:28:42Z</time>
      </trkpt>
      <trkpt lat="43.63633" lon="3.4021">
        <ele>208</ele>
        <time>2021-03-09T08:28:44Z</time>
      </trkpt>
      <trkpt lat="43.63636" lon="3.4021">
        <ele>209</ele>
        <time>2021-03-09T08:28:45Z</time>
      </trkpt>
      <trkpt lat="43.63639" lon="3.40211">
        <ele>209</ele>
        <time>2021-03-09T08:28:46Z</time>
      </trkpt>
      <trkpt lat="43.63644" lon="3.40212">
        <ele>210</ele>
        <time>2021-03-09T08:28:48Z</time>
      </trkpt>
      <trkpt lat="43.63647" lon="3.40212">
        <ele>211</ele>
        <time>2021-03-09T08:28:50Z</time>
      </trkpt>
      <trkpt lat="43.63664" lon="3.40195">
        <ele>210</ele>
        <time>2021-03-09T08:28:56Z</time>
      </trkpt>
      <trkpt lat="43.63672" lon="3.40181">
        <ele>209</ele>
        <time>2021-03-09T08:28:59Z</time>
      </trkpt>
      <trkpt lat="43.63676" lon="3.40166">
        <ele>209</ele>
        <time>2021-03-09T08:29:01Z</time>
      </trkpt>
      <trkpt lat="43.63682" lon="3.40155">
        <ele>209</ele>
        <time>2021-03-09T08:29:03Z</time>
      </trkpt>
      <trkpt lat="43.63738" lon="3.40091">
        <ele>206</ele>
        <time>2021-03-09T08:29:16Z</time>
      </trkpt>
      <trkpt lat="43.63746" lon="3.40078">
        <ele>205</ele>
        <time>2021-03-09T08:29:19Z</time>
      </trkpt>
      <trkpt lat="43.63753" lon="3.40065">
        <ele>205</ele>
        <time>2021-03-09T08:29:22Z</time>
      </trkpt>
      <trkpt lat="43.63753" lon="3.40059">
        <ele>204</ele>
        <time>2021-03-09T08:29:23Z</time>
      </trkpt>
      <trkpt lat="43.63754" lon="3.40052">
        <ele>203</ele>
        <time>2021-03-09T08:29:24Z</time>
      </trkpt>
      <trkpt lat="43.63753" lon="3.40045">
        <ele>201</ele>
        <time>2021-03-09T08:29:25Z</time>
      </trkpt>
      <trkpt lat="43.63744" lon="3.40027">
        <ele>200</ele>
        <time>2021-03-09T08:29:28Z</time>
      </trkpt>
      <trkpt lat="43.63743" lon="3.40021">
        <ele>201</ele>
        <time>2021-03-09T08:29:29Z</time>
      </trkpt>
      <trkpt lat="43.63743" lon="3.40015">
        <ele>201</ele>
        <time>2021-03-09T08:29:30Z</time>
      </trkpt>
      <trkpt lat="43.63745" lon="3.39993">
        <ele>202</ele>
        <time>2021-03-09T08:29:34Z</time>
      </trkpt>
      <trkpt lat="43.6374" lon="3.39965">
        <ele>200</ele>
        <time>2021-03-09T08:29:39Z</time>
      </trkpt>
      <trkpt lat="43.6374" lon="3.39957">
        <ele>198</ele>
        <time>2021-03-09T08:29:41Z</time>
      </trkpt>
      <trkpt lat="43.63742" lon="3.39951">
        <ele>198</ele>
        <time>2021-03-09T08:29:43Z</time>
      </trkpt>
      <trkpt lat="43.63753" lon="3.39949">
        <ele>199</ele>
        <time>2021-03-09T08:29:47Z</time>
      </trkpt>
      <trkpt lat="43.63764" lon="3.39951">
        <ele>197</ele>
        <time>2021-03-09T08:29:49Z</time>
      </trkpt>
      <trkpt lat="43.63778" lon="3.39963">
        <ele>193</ele>
        <time>2021-03-09T08:29:52Z</time>
      </trkpt>
      <trkpt lat="43.63787" lon="3.39968">
        <ele>192</ele>
        <time>2021-03-09T08:29:54Z</time>
      </trkpt>
      <trkpt lat="43.63791" lon="3.39969">
        <ele>191</ele>
        <time>2021-03-09T08:29:55Z</time>
      </trkpt>
      <trkpt lat="43.63837" lon="3.39945">
        <ele>193</ele>
        <time>2021-03-09T08:30:04Z</time>
      </trkpt>
      <trkpt lat="43.63854" lon="3.39932">
        <ele>192</ele>
        <time>2021-03-09T08:30:07Z</time>
      </trkpt>
      <trkpt lat="43.63863" lon="3.39921">
        <ele>189</ele>
        <time>2021-03-09T08:30:09Z</time>
      </trkpt>
      <trkpt lat="43.6387" lon="3.39901">
        <ele>188</ele>
        <time>2021-03-09T08:30:15Z</time>
      </trkpt>
      <trkpt lat="43.63873" lon="3.399">
        <ele>188</ele>
        <time>2021-03-09T08:30:19Z</time>
      </trkpt>
      <trkpt lat="43.63873" lon="3.39894">
        <ele>187</ele>
        <time>2021-03-09T08:32:18Z</time>
      </trkpt>
      <trkpt lat="43.63875" lon="3.39891">
        <ele>186</ele>
        <time>2021-03-09T08:32:20Z</time>
      </trkpt>
      <trkpt lat="43.63876" lon="3.39887">
        <ele>186</ele>
        <time>2021-03-09T08:32:22Z</time>
      </trkpt>
      <trkpt lat="43.63878" lon="3.39882">
        <ele>185</ele>
        <time>2021-03-09T08:32:24Z</time>
      </trkpt>
      <trkpt lat="43.6389" lon="3.39866">
        <ele>185</ele>
        <time>2021-03-09T08:32:32Z</time>
      </trkpt>
      <trkpt lat="43.63904" lon="3.39853">
        <ele>188</ele>
        <time>2021-03-09T08:32:40Z</time>
      </trkpt>
      <trkpt lat="43.63907" lon="3.39848">
        <ele>188</ele>
        <time>2021-03-09T08:32:42Z</time>
      </trkpt>
      <trkpt lat="43.63908" lon="3.39842">
        <ele>188</ele>
        <time>2021-03-09T08:32:44Z</time>
      </trkpt>
      <trkpt lat="43.63907" lon="3.39838">
        <ele>189</ele>
        <time>2021-03-09T08:32:46Z</time>
      </trkpt>
      <trkpt lat="43.63902" lon="3.39829">
        <ele>192</ele>
        <time>2021-03-09T08:32:50Z</time>
      </trkpt>
      <trkpt lat="43.63899" lon="3.39825">
        <ele>193</ele>
        <time>2021-03-09T08:32:52Z</time>
      </trkpt>
      <trkpt lat="43.63895" lon="3.39823">
        <ele>194</ele>
        <time>2021-03-09T08:32:54Z</time>
      </trkpt>
      <trkpt lat="43.63891" lon="3.39822">
        <ele>194</ele>
        <time>2021-03-09T08:32:57Z</time>
      </trkpt>
      <trkpt lat="43.63884" lon="3.39827">
        <ele>195</ele>
        <time>2021-03-09T08:33:01Z</time>
      </trkpt>
      <trkpt lat="43.63881" lon="3.39831">
        <ele>196</ele>
        <time>2021-03-09T08:33:03Z</time>
      </trkpt>
      <trkpt lat="43.63876" lon="3.3984">
        <ele>196</ele>
        <time>2021-03-09T08:33:07Z</time>
      </trkpt>
      <trkpt lat="43.63865" lon="3.39855">
        <ele>198</ele>
        <time>2021-03-09T08:33:15Z</time>
      </trkpt>
      <trkpt lat="43.63862" lon="3.39858">
        <ele>198</ele>
        <time>2021-03-09T08:33:17Z</time>
      </trkpt>
      <trkpt lat="43.63857" lon="3.39863">
        <ele>197</ele>
        <time>2021-03-09T08:33:21Z</time>
      </trkpt>
      <trkpt lat="43.6385" lon="3.39864">
        <ele>197</ele>
        <time>2021-03-09T08:33:25Z</time>
      </trkpt>
      <trkpt lat="43.63824" lon="3.39863">
        <ele>197</ele>
        <time>2021-03-09T08:33:39Z</time>
      </trkpt>
      <trkpt lat="43.63796" lon="3.39863">
        <ele>199</ele>
        <time>2021-03-09T08:33:53Z</time>
      </trkpt>
      <trkpt lat="43.63792" lon="3.39862">
        <ele>200</ele>
        <time>2021-03-09T08:33:55Z</time>
      </trkpt>
      <trkpt lat="43.63789" lon="3.39858">
        <ele>200</ele>
        <time>2021-03-09T08:33:57Z</time>
      </trkpt>
      <trkpt lat="43.63788" lon="3.39852">
        <ele>201</ele>
        <time>2021-03-09T08:34:00Z</time>
      </trkpt>
      <trkpt lat="43.6379" lon="3.39848">
        <ele>203</ele>
        <time>2021-03-09T08:34:02Z</time>
      </trkpt>
      <trkpt lat="43.63823" lon="3.39845">
        <ele>207</ele>
        <time>2021-03-09T08:34:19Z</time>
      </trkpt>
      <trkpt lat="43.63832" lon="3.3984">
        <ele>206</ele>
        <time>2021-03-09T08:34:24Z</time>
      </trkpt>
      <trkpt lat="43.63835" lon="3.39838">
        <ele>206</ele>
        <time>2021-03-09T08:34:26Z</time>
      </trkpt>
      <trkpt lat="43.63845" lon="3.39825">
        <ele>205</ele>
        <time>2021-03-09T08:34:32Z</time>
      </trkpt>
      <trkpt lat="43.63849" lon="3.39816">
        <ele>205</ele>
        <time>2021-03-09T08:34:36Z</time>
      </trkpt>
      <trkpt lat="43.63858" lon="3.39784">
        <ele>208</ele>
        <time>2021-03-09T08:34:48Z</time>
      </trkpt>
      <trkpt lat="43.63861" lon="3.39738">
        <ele>211</ele>
        <time>2021-03-09T08:35:05Z</time>
      </trkpt>
      <trkpt lat="43.63864" lon="3.39727">
        <ele>212</ele>
        <time>2021-03-09T08:35:09Z</time>
      </trkpt>
      <trkpt lat="43.63874" lon="3.39707">
        <ele>217</ele>
        <time>2021-03-09T08:35:17Z</time>
      </trkpt>
      <trkpt lat="43.63879" lon="3.39691">
        <ele>216</ele>
        <time>2021-03-09T08:35:23Z</time>
      </trkpt>
      <trkpt lat="43.63879" lon="3.39679">
        <ele>216</ele>
        <time>2021-03-09T08:35:27Z</time>
      </trkpt>
      <trkpt lat="43.63874" lon="3.39657">
        <ele>218</ele>
        <time>2021-03-09T08:35:35Z</time>
      </trkpt>
      <trkpt lat="43.63873" lon="3.39652">
        <ele>219</ele>
        <time>2021-03-09T08:35:37Z</time>
      </trkpt>
      <trkpt lat="43.63869" lon="3.39646">
        <ele>218</ele>
        <time>2021-03-09T08:35:40Z</time>
      </trkpt>
      <trkpt lat="43.63865" lon="3.39642">
        <ele>218</ele>
        <time>2021-03-09T08:35:42Z</time>
      </trkpt>
      <trkpt lat="43.63814" lon="3.39591">
        <ele>221</ele>
        <time>2021-03-09T08:36:10Z</time>
      </trkpt>
      <trkpt lat="43.63782" lon="3.39572">
        <ele>224</ele>
        <time>2021-03-09T08:36:26Z</time>
      </trkpt>
      <trkpt lat="43.63731" lon="3.39523">
        <ele>231</ele>
        <time>2021-03-09T08:36:56Z</time>
      </trkpt>
      <trkpt lat="43.63723" lon="3.39508">
        <ele>233</ele>
        <time>2021-03-09T08:37:02Z</time>
      </trkpt>
      <trkpt lat="43.63703" lon="3.39421">
        <ele>243</ele>
        <time>2021-03-09T08:37:33Z</time>
      </trkpt>
      <trkpt lat="43.63696" lon="3.39387">
        <ele>244</ele>
        <time>2021-03-09T08:37:45Z</time>
      </trkpt>
      <trkpt lat="43.63695" lon="3.39379">
        <ele>245</ele>
        <time>2021-03-09T08:37:48Z</time>
      </trkpt>
      <trkpt lat="43.63694" lon="3.39374">
        <ele>245</ele>
        <time>2021-03-09T08:37:50Z</time>
      </trkpt>
      <trkpt lat="43.63683" lon="3.39359">
        <ele>244</ele>
        <time>2021-03-09T08:37:56Z</time>
      </trkpt>
      <trkpt lat="43.63673" lon="3.3935">
        <ele>245</ele>
        <time>2021-03-09T08:38:02Z</time>
      </trkpt>
      <trkpt lat="43.63669" lon="3.39347">
        <ele>246</ele>
        <time>2021-03-09T08:38:04Z</time>
      </trkpt>
      <trkpt lat="43.63622" lon="3.3933">
        <ele>249</ele>
        <time>2021-03-09T08:38:26Z</time>
      </trkpt>
      <trkpt lat="43.63612" lon="3.39321">
        <ele>250</ele>
        <time>2021-03-09T08:38:31Z</time>
      </trkpt>
      <trkpt lat="43.63602" lon="3.39296">
        <ele>252</ele>
        <time>2021-03-09T08:38:41Z</time>
      </trkpt>
      <trkpt lat="43.63601" lon="3.3929">
        <ele>253</ele>
        <time>2021-03-09T08:38:43Z</time>
      </trkpt>
      <trkpt lat="43.636" lon="3.39273">
        <ele>254</ele>
        <time>2021-03-09T08:38:48Z</time>
      </trkpt>
      <trkpt lat="43.63599" lon="3.39259">
        <ele>255</ele>
        <time>2021-03-09T08:38:53Z</time>
      </trkpt>
      <trkpt lat="43.63594" lon="3.39218">
        <ele>259</ele>
        <time>2021-03-09T08:39:04Z</time>
      </trkpt>
      <trkpt lat="43.6359" lon="3.39207">
        <ele>259</ele>
        <time>2021-03-09T08:39:07Z</time>
      </trkpt>
      <trkpt lat="43.63587" lon="3.39202">
        <ele>259</ele>
        <time>2021-03-09T08:39:09Z</time>
      </trkpt>
      <trkpt lat="43.63574" lon="3.39188">
        <ele>259</ele>
        <time>2021-03-09T08:39:16Z</time>
      </trkpt>
      <trkpt lat="43.6357" lon="3.39184">
        <ele>259</ele>
        <time>2021-03-09T08:39:18Z</time>
      </trkpt>
      <trkpt lat="43.63569" lon="3.3918">
        <ele>259</ele>
        <time>2021-03-09T08:39:20Z</time>
      </trkpt>
      <trkpt lat="43.63571" lon="3.39176">
        <ele>259</ele>
        <time>2021-03-09T08:39:22Z</time>
      </trkpt>
      <trkpt lat="43.63592" lon="3.39188">
        <ele>264</ele>
        <time>2021-03-09T08:39:34Z</time>
      </trkpt>
      <trkpt lat="43.63596" lon="3.39191">
        <ele>265</ele>
        <time>2021-03-09T08:39:36Z</time>
      </trkpt>
      <trkpt lat="43.6362" lon="3.39249">
        <ele>264</ele>
        <time>2021-03-09T08:39:56Z</time>
      </trkpt>
      <trkpt lat="43.63623" lon="3.39253">
        <ele>264</ele>
        <time>2021-03-09T08:39:58Z</time>
      </trkpt>
      <trkpt lat="43.63631" lon="3.3926">
        <ele>266</ele>
        <time>2021-03-09T08:40:02Z</time>
      </trkpt>
      <trkpt lat="43.6364" lon="3.39262">
        <ele>266</ele>
        <time>2021-03-09T08:40:06Z</time>
      </trkpt>
      <trkpt lat="43.6367" lon="3.39259">
        <ele>270</ele>
        <time>2021-03-09T08:40:20Z</time>
      </trkpt>
      <trkpt lat="43.63683" lon="3.39255">
        <ele>272</ele>
        <time>2021-03-09T08:40:26Z</time>
      </trkpt>
      <trkpt lat="43.63687" lon="3.39255">
        <ele>273</ele>
        <time>2021-03-09T08:40:28Z</time>
      </trkpt>
      <trkpt lat="43.63693" lon="3.39253">
        <ele>273</ele>
        <time>2021-03-09T08:40:31Z</time>
      </trkpt>
      <trkpt lat="43.63707" lon="3.39252">
        <ele>272</ele>
        <time>2021-03-09T08:40:37Z</time>
      </trkpt>
      <trkpt lat="43.63711" lon="3.39252">
        <ele>272</ele>
        <time>2021-03-09T08:40:39Z</time>
      </trkpt>
      <trkpt lat="43.63715" lon="3.39253">
        <ele>271</ele>
        <time>2021-03-09T08:40:41Z</time>
      </trkpt>
      <trkpt lat="43.63719" lon="3.39251">
        <ele>272</ele>
        <time>2021-03-09T08:40:43Z</time>
      </trkpt>
      <trkpt lat="43.63722" lon="3.39247">
        <ele>273</ele>
        <time>2021-03-09T08:40:45Z</time>
      </trkpt>
      <trkpt lat="43.63724" lon="3.39242">
        <ele>274</ele>
        <time>2021-03-09T08:40:47Z</time>
      </trkpt>
      <trkpt lat="43.6372" lon="3.39184">
        <ele>278</ele>
        <time>2021-03-09T08:41:07Z</time>
      </trkpt>
      <trkpt lat="43.6372" lon="3.39173">
        <ele>279</ele>
        <time>2021-03-09T08:41:11Z</time>
      </trkpt>
      <trkpt lat="43.6372" lon="3.39167">
        <ele>280</ele>
        <time>2021-03-09T08:41:13Z</time>
      </trkpt>
      <trkpt lat="43.63717" lon="3.39151">
        <ele>282</ele>
        <time>2021-03-09T08:41:19Z</time>
      </trkpt>
      <trkpt lat="43.63711" lon="3.39124">
        <ele>283</ele>
        <time>2021-03-09T08:41:29Z</time>
      </trkpt>
      <trkpt lat="43.63706" lon="3.39107">
        <ele>286</ele>
        <time>2021-03-09T08:41:35Z</time>
      </trkpt>
      <trkpt lat="43.63703" lon="3.39088">
        <ele>285</ele>
        <time>2021-03-09T08:41:42Z</time>
      </trkpt>
      <trkpt lat="43.63702" lon="3.39082">
        <ele>285</ele>
        <time>2021-03-09T08:41:44Z</time>
      </trkpt>
      <trkpt lat="43.63701" lon="3.39057">
        <ele>286</ele>
        <time>2021-03-09T08:41:52Z</time>
      </trkpt>
      <trkpt lat="43.63699" lon="3.39049">
        <ele>286</ele>
        <time>2021-03-09T08:41:55Z</time>
      </trkpt>
      <trkpt lat="43.63697" lon="3.39044">
        <ele>287</ele>
        <time>2021-03-09T08:41:57Z</time>
      </trkpt>
      <trkpt lat="43.63695" lon="3.39034">
        <ele>288</ele>
        <time>2021-03-09T08:42:01Z</time>
      </trkpt>
      <trkpt lat="43.63693" lon="3.3903">
        <ele>289</ele>
        <time>2021-03-09T08:42:03Z</time>
      </trkpt>
      <trkpt lat="43.63684" lon="3.3902">
        <ele>289</ele>
        <time>2021-03-09T08:42:09Z</time>
      </trkpt>
      <trkpt lat="43.63631" lon="3.39018">
        <ele>294</ele>
        <time>2021-03-09T08:42:34Z</time>
      </trkpt>
      <trkpt lat="43.63615" lon="3.3901">
        <ele>296</ele>
        <time>2021-03-09T08:42:42Z</time>
      </trkpt>
      <trkpt lat="43.63578" lon="3.38975">
        <ele>300</ele>
        <time>2021-03-09T08:43:04Z</time>
      </trkpt>
      <trkpt lat="43.63558" lon="3.38965">
        <ele>302</ele>
        <time>2021-03-09T08:43:14Z</time>
      </trkpt>
      <trkpt lat="43.63544" lon="3.38954">
        <ele>306</ele>
        <time>2021-03-09T08:43:22Z</time>
      </trkpt>
      <trkpt lat="43.63534" lon="3.38941">
        <ele>308</ele>
        <time>2021-03-09T08:43:28Z</time>
      </trkpt>
      <trkpt lat="43.63525" lon="3.38914">
        <ele>311</ele>
        <time>2021-03-09T08:43:38Z</time>
      </trkpt>
      <trkpt lat="43.63524" lon="3.38902">
        <ele>312</ele>
        <time>2021-03-09T08:43:42Z</time>
      </trkpt>
      <trkpt lat="43.63521" lon="3.38884">
        <ele>312</ele>
        <time>2021-03-09T08:43:48Z</time>
      </trkpt>
      <trkpt lat="43.63519" lon="3.38873">
        <ele>313</ele>
        <time>2021-03-09T08:43:52Z</time>
      </trkpt>
      <trkpt lat="43.63511" lon="3.38858">
        <ele>312</ele>
        <time>2021-03-09T08:43:58Z</time>
      </trkpt>
      <trkpt lat="43.63504" lon="3.3885">
        <ele>313</ele>
        <time>2021-03-09T08:44:02Z</time>
      </trkpt>
      <trkpt lat="43.635" lon="3.38847">
        <ele>314</ele>
        <time>2021-03-09T08:44:04Z</time>
      </trkpt>
      <trkpt lat="43.63495" lon="3.38847">
        <ele>316</ele>
        <time>2021-03-09T08:44:06Z</time>
      </trkpt>
      <trkpt lat="43.63491" lon="3.38849">
        <ele>316</ele>
        <time>2021-03-09T08:44:08Z</time>
      </trkpt>
      <trkpt lat="43.6349" lon="3.38854">
        <ele>317</ele>
        <time>2021-03-09T08:44:10Z</time>
      </trkpt>
      <trkpt lat="43.63492" lon="3.38859">
        <ele>317</ele>
        <time>2021-03-09T08:44:12Z</time>
      </trkpt>
      <trkpt lat="43.63496" lon="3.38864">
        <ele>318</ele>
        <time>2021-03-09T08:44:14Z</time>
      </trkpt>
      <trkpt lat="43.63499" lon="3.38868">
        <ele>318</ele>
        <time>2021-03-09T08:44:16Z</time>
      </trkpt>
      <trkpt lat="43.63502" lon="3.3887">
        <ele>319</ele>
        <time>2021-03-09T08:44:18Z</time>
      </trkpt>
      <trkpt lat="43.63505" lon="3.38867">
        <ele>320</ele>
        <time>2021-03-09T08:44:21Z</time>
      </trkpt>
      <trkpt lat="43.63505" lon="3.38863">
        <ele>321</ele>
        <time>2021-03-09T08:50:34Z</time>
      </trkpt>
      <trkpt lat="43.63502" lon="3.38862">
        <ele>321</ele>
        <time>2021-03-09T08:50:37Z</time>
      </trkpt>
      <trkpt lat="43.63498" lon="3.38862">
        <ele>320</ele>
        <time>2021-03-09T08:50:39Z</time>
      </trkpt>
      <trkpt lat="43.63494" lon="3.38859">
        <ele>320</ele>
        <time>2021-03-09T08:50:41Z</time>
      </trkpt>
      <trkpt lat="43.63492" lon="3.38854">
        <ele>319</ele>
        <time>2021-03-09T08:50:43Z</time>
      </trkpt>
      <trkpt lat="43.63492" lon="3.38844">
        <ele>319</ele>
        <time>2021-03-09T08:50:47Z</time>
      </trkpt>
      <trkpt lat="43.63492" lon="3.38839">
        <ele>318</ele>
        <time>2021-03-09T08:50:49Z</time>
      </trkpt>
      <trkpt lat="43.63491" lon="3.38835">
        <ele>318</ele>
        <time>2021-03-09T08:50:52Z</time>
      </trkpt>
      <trkpt lat="43.63488" lon="3.38832">
        <ele>317</ele>
        <time>2021-03-09T08:50:57Z</time>
      </trkpt>
      <trkpt lat="43.63484" lon="3.3883">
        <ele>316</ele>
        <time>2021-03-09T08:51:00Z</time>
      </trkpt>
      <trkpt lat="43.63482" lon="3.38827">
        <ele>315</ele>
        <time>2021-03-09T08:51:02Z</time>
      </trkpt>
      <trkpt lat="43.6348" lon="3.38822">
        <ele>314</ele>
        <time>2021-03-09T08:51:04Z</time>
      </trkpt>
      <trkpt lat="43.63475" lon="3.38809">
        <ele>313</ele>
        <time>2021-03-09T08:51:10Z</time>
      </trkpt>
      <trkpt lat="43.63473" lon="3.38803">
        <ele>311</ele>
        <time>2021-03-09T08:51:12Z</time>
      </trkpt>
      <trkpt lat="43.63471" lon="3.38799">
        <ele>310</ele>
        <time>2021-03-09T08:51:14Z</time>
      </trkpt>
      <trkpt lat="43.6347" lon="3.38795">
        <ele>309</ele>
        <time>2021-03-09T08:51:16Z</time>
      </trkpt>
      <trkpt lat="43.63468" lon="3.38788">
        <ele>308</ele>
        <time>2021-03-09T08:51:19Z</time>
      </trkpt>
      <trkpt lat="43.63466" lon="3.38782">
        <ele>305</ele>
        <time>2021-03-09T08:51:21Z</time>
      </trkpt>
      <trkpt lat="43.63465" lon="3.38769">
        <ele>303</ele>
        <time>2021-03-09T08:51:25Z</time>
      </trkpt>
      <trkpt lat="43.63464" lon="3.38764">
        <ele>302</ele>
        <time>2021-03-09T08:51:27Z</time>
      </trkpt>
      <trkpt lat="43.63464" lon="3.3876">
        <ele>302</ele>
        <time>2021-03-09T08:51:29Z</time>
      </trkpt>
      <trkpt lat="43.63464" lon="3.38755">
        <ele>301</ele>
        <time>2021-03-09T08:51:31Z</time>
      </trkpt>
      <trkpt lat="43.63465" lon="3.3875">
        <ele>301</ele>
        <time>2021-03-09T08:51:33Z</time>
      </trkpt>
      <trkpt lat="43.63464" lon="3.38737">
        <ele>298</ele>
        <time>2021-03-09T08:51:37Z</time>
      </trkpt>
      <trkpt lat="43.63464" lon="3.38732">
        <ele>297</ele>
        <time>2021-03-09T08:51:39Z</time>
      </trkpt>
      <trkpt lat="43.63454" lon="3.38719">
        <ele>292</ele>
        <time>2021-03-09T08:51:45Z</time>
      </trkpt>
      <trkpt lat="43.63449" lon="3.38715">
        <ele>291</ele>
        <time>2021-03-09T08:51:48Z</time>
      </trkpt>
      <trkpt lat="43.63445" lon="3.38712">
        <ele>289</ele>
        <time>2021-03-09T08:51:51Z</time>
      </trkpt>
      <trkpt lat="43.63436" lon="3.38694">
        <ele>282</ele>
        <time>2021-03-09T08:51:58Z</time>
      </trkpt>
      <trkpt lat="43.63432" lon="3.38688">
        <ele>281</ele>
        <time>2021-03-09T08:52:01Z</time>
      </trkpt>
      <trkpt lat="43.63428" lon="3.38684">
        <ele>281</ele>
        <time>2021-03-09T08:52:03Z</time>
      </trkpt>
      <trkpt lat="43.63424" lon="3.38679">
        <ele>280</ele>
        <time>2021-03-09T08:52:05Z</time>
      </trkpt>
      <trkpt lat="43.63419" lon="3.38671">
        <ele>278</ele>
        <time>2021-03-09T08:52:08Z</time>
      </trkpt>
      <trkpt lat="43.63416" lon="3.38667">
        <ele>278</ele>
        <time>2021-03-09T08:52:10Z</time>
      </trkpt>
      <trkpt lat="43.63408" lon="3.38645">
        <ele>278</ele>
        <time>2021-03-09T08:52:18Z</time>
      </trkpt>
      <trkpt lat="43.63408" lon="3.3864">
        <ele>277</ele>
        <time>2021-03-09T08:52:20Z</time>
      </trkpt>
      <trkpt lat="43.6341" lon="3.38635">
        <ele>275</ele>
        <time>2021-03-09T08:52:22Z</time>
      </trkpt>
      <trkpt lat="43.63411" lon="3.38631">
        <ele>274</ele>
        <time>2021-03-09T08:52:24Z</time>
      </trkpt>
      <trkpt lat="43.63416" lon="3.38622">
        <ele>271</ele>
        <time>2021-03-09T08:52:28Z</time>
      </trkpt>
      <trkpt lat="43.63417" lon="3.38618">
        <ele>269</ele>
        <time>2021-03-09T08:52:31Z</time>
      </trkpt>
      <trkpt lat="43.63415" lon="3.38613">
        <ele>267</ele>
        <time>2021-03-09T08:52:34Z</time>
      </trkpt>
      <trkpt lat="43.63416" lon="3.386">
        <ele>266</ele>
        <time>2021-03-09T08:52:38Z</time>
      </trkpt>
      <trkpt lat="43.6342" lon="3.38592">
        <ele>265</ele>
        <time>2021-03-09T08:52:41Z</time>
      </trkpt>
      <trkpt lat="43.63422" lon="3.38587">
        <ele>264</ele>
        <time>2021-03-09T08:52:43Z</time>
      </trkpt>
      <trkpt lat="43.63423" lon="3.38581">
        <ele>263</ele>
        <time>2021-03-09T08:52:45Z</time>
      </trkpt>
      <trkpt lat="43.63424" lon="3.38574">
        <ele>261</ele>
        <time>2021-03-09T08:52:47Z</time>
      </trkpt>
      <trkpt lat="43.63423" lon="3.38569">
        <ele>260</ele>
        <time>2021-03-09T08:52:49Z</time>
      </trkpt>
      <trkpt lat="43.63422" lon="3.38564">
        <ele>259</ele>
        <time>2021-03-09T08:52:51Z</time>
      </trkpt>
      <trkpt lat="43.63419" lon="3.38561">
        <ele>256</ele>
        <time>2021-03-09T08:52:54Z</time>
      </trkpt>
      <trkpt lat="43.63412" lon="3.38564">
        <ele>256</ele>
        <time>2021-03-09T08:52:58Z</time>
      </trkpt>
      <trkpt lat="43.63403" lon="3.38561">
        <ele>253</ele>
        <time>2021-03-09T08:53:02Z</time>
      </trkpt>
      <trkpt lat="43.634" lon="3.38558">
        <ele>250</ele>
        <time>2021-03-09T08:53:04Z</time>
      </trkpt>
      <trkpt lat="43.63399" lon="3.38553">
        <ele>250</ele>
        <time>2021-03-09T08:53:06Z</time>
      </trkpt>
      <trkpt lat="43.63399" lon="3.38547">
        <ele>248</ele>
        <time>2021-03-09T08:53:08Z</time>
      </trkpt>
      <trkpt lat="43.63396" lon="3.38541">
        <ele>247</ele>
        <time>2021-03-09T08:53:10Z</time>
      </trkpt>
      <trkpt lat="43.63393" lon="3.38539">
        <ele>246</ele>
        <time>2021-03-09T08:53:11Z</time>
      </trkpt>
      <trkpt lat="43.63391" lon="3.38536">
        <ele>245</ele>
        <time>2021-03-09T08:53:13Z</time>
      </trkpt>
      <trkpt lat="43.63394" lon="3.38522">
        <ele>241</ele>
        <time>2021-03-09T08:53:19Z</time>
      </trkpt>
      <trkpt lat="43.63395" lon="3.38516">
        <ele>239</ele>
        <time>2021-03-09T08:53:21Z</time>
      </trkpt>
      <trkpt lat="43.63399" lon="3.38512">
        <ele>238</ele>
        <time>2021-03-09T08:53:23Z</time>
      </trkpt>
      <trkpt lat="43.634" lon="3.38507">
        <ele>237</ele>
        <time>2021-03-09T08:53:25Z</time>
      </trkpt>
      <trkpt lat="43.63398" lon="3.38497">
        <ele>235</ele>
        <time>2021-03-09T08:53:29Z</time>
      </trkpt>
      <trkpt lat="43.63398" lon="3.38492">
        <ele>235</ele>
        <time>2021-03-09T08:53:31Z</time>
      </trkpt>
      <trkpt lat="43.63398" lon="3.38488">
        <ele>234</ele>
        <time>2021-03-09T08:53:33Z</time>
      </trkpt>
      <trkpt lat="43.63397" lon="3.38484">
        <ele>233</ele>
        <time>2021-03-09T08:53:35Z</time>
      </trkpt>
      <trkpt lat="43.63397" lon="3.3848">
        <ele>231</ele>
        <time>2021-03-09T08:53:37Z</time>
      </trkpt>
      <trkpt lat="43.634" lon="3.38475">
        <ele>230</ele>
        <time>2021-03-09T08:53:39Z</time>
      </trkpt>
      <trkpt lat="43.63404" lon="3.38473">
        <ele>229</ele>
        <time>2021-03-09T08:53:41Z</time>
      </trkpt>
      <trkpt lat="43.63408" lon="3.3847">
        <ele>228</ele>
        <time>2021-03-09T08:53:43Z</time>
      </trkpt>
      <trkpt lat="43.6341" lon="3.38464">
        <ele>226</ele>
        <time>2021-03-09T08:53:45Z</time>
      </trkpt>
      <trkpt lat="43.63412" lon="3.38458">
        <ele>224</ele>
        <time>2021-03-09T08:53:47Z</time>
      </trkpt>
      <trkpt lat="43.63416" lon="3.38453">
        <ele>223</ele>
        <time>2021-03-09T08:53:49Z</time>
      </trkpt>
      <trkpt lat="43.6342" lon="3.38451">
        <ele>222</ele>
        <time>2021-03-09T08:53:51Z</time>
      </trkpt>
      <trkpt lat="43.63422" lon="3.38446">
        <ele>219</ele>
        <time>2021-03-09T08:53:53Z</time>
      </trkpt>
      <trkpt lat="43.63425" lon="3.38443">
        <ele>218</ele>
        <time>2021-03-09T08:53:55Z</time>
      </trkpt>
      <trkpt lat="43.63442" lon="3.38446">
        <ele>218</ele>
        <time>2021-03-09T08:54:03Z</time>
      </trkpt>
      <trkpt lat="43.63444" lon="3.38444">
        <ele>218</ele>
        <time>2021-03-09T08:54:10Z</time>
      </trkpt>
      <trkpt lat="43.63445" lon="3.3844">
        <ele>219</ele>
        <time>2021-03-09T08:54:14Z</time>
      </trkpt>
      <trkpt lat="43.63448" lon="3.38438">
        <ele>221</ele>
        <time>2021-03-09T08:54:17Z</time>
      </trkpt>
      <trkpt lat="43.63454" lon="3.3843">
        <ele>221</ele>
        <time>2021-03-09T08:54:25Z</time>
      </trkpt>
      <trkpt lat="43.63457" lon="3.38427">
        <ele>221</ele>
        <time>2021-03-09T08:54:27Z</time>
      </trkpt>
      <trkpt lat="43.63469" lon="3.38428">
        <ele>219</ele>
        <time>2021-03-09T08:54:32Z</time>
      </trkpt>
      <trkpt lat="43.63471" lon="3.38428">
        <ele>218</ele>
        <time>2021-03-09T08:54:33Z</time>
      </trkpt>
      <trkpt lat="43.63503" lon="3.38434">
        <ele>214</ele>
        <time>2021-03-09T08:54:45Z</time>
      </trkpt>
      <trkpt lat="43.63509" lon="3.38438">
        <ele>211</ele>
        <time>2021-03-09T08:54:47Z</time>
      </trkpt>
      <trkpt lat="43.63514" lon="3.38447">
        <ele>209</ele>
        <time>2021-03-09T08:54:50Z</time>
      </trkpt>
      <trkpt lat="43.63525" lon="3.38455">
        <ele>207</ele>
        <time>2021-03-09T08:54:54Z</time>
      </trkpt>
      <trkpt lat="43.63558" lon="3.38458">
        <ele>207</ele>
        <time>2021-03-09T08:55:05Z</time>
      </trkpt>
      <trkpt lat="43.63579" lon="3.38481">
        <ele>204</ele>
        <time>2021-03-09T08:55:15Z</time>
      </trkpt>
      <trkpt lat="43.63583" lon="3.38487">
        <ele>202</ele>
        <time>2021-03-09T08:55:17Z</time>
      </trkpt>
      <trkpt lat="43.63602" lon="3.38518">
        <ele>198</ele>
        <time>2021-03-09T08:55:25Z</time>
      </trkpt>
      <trkpt lat="43.63616" lon="3.38535">
        <ele>195</ele>
        <time>2021-03-09T08:55:31Z</time>
      </trkpt>
      <trkpt lat="43.63619" lon="3.38549">
        <ele>193</ele>
        <time>2021-03-09T08:55:35Z</time>
      </trkpt>
      <trkpt lat="43.63629" lon="3.38565">
        <ele>193</ele>
        <time>2021-03-09T08:55:39Z</time>
      </trkpt>
      <trkpt lat="43.63654" lon="3.38612">
        <ele>190</ele>
        <time>2021-03-09T08:55:51Z</time>
      </trkpt>
      <trkpt lat="43.63662" lon="3.38625">
        <ele>194</ele>
        <time>2021-03-09T08:55:55Z</time>
      </trkpt>
      <trkpt lat="43.63666" lon="3.38632">
        <ele>195</ele>
        <time>2021-03-09T08:55:57Z</time>
      </trkpt>
      <trkpt lat="43.63676" lon="3.3866">
        <ele>195</ele>
        <time>2021-03-09T08:56:03Z</time>
      </trkpt>
      <trkpt lat="43.63696" lon="3.38683">
        <ele>196</ele>
        <time>2021-03-09T08:56:09Z</time>
      </trkpt>
      <trkpt lat="43.63713" lon="3.38701">
        <ele>196</ele>
        <time>2021-03-09T08:56:13Z</time>
      </trkpt>
      <trkpt lat="43.63714" lon="3.3871">
        <ele>196</ele>
        <time>2021-03-09T08:56:15Z</time>
      </trkpt>
      <trkpt lat="43.63717" lon="3.38714">
        <ele>195</ele>
        <time>2021-03-09T08:56:16Z</time>
      </trkpt>
      <trkpt lat="43.63721" lon="3.38717">
        <ele>196</ele>
        <time>2021-03-09T08:56:17Z</time>
      </trkpt>
      <trkpt lat="43.63725" lon="3.38717">
        <ele>197</ele>
        <time>2021-03-09T08:56:18Z</time>
      </trkpt>
      <trkpt lat="43.6373" lon="3.38717">
        <ele>198</ele>
        <time>2021-03-09T08:56:19Z</time>
      </trkpt>
      <trkpt lat="43.63735" lon="3.38718">
        <ele>200</ele>
        <time>2021-03-09T08:56:20Z</time>
      </trkpt>
      <trkpt lat="43.63741" lon="3.38718">
        <ele>201</ele>
        <time>2021-03-09T08:56:22Z</time>
      </trkpt>
      <trkpt lat="43.63748" lon="3.38719">
        <ele>201</ele>
        <time>2021-03-09T08:56:24Z</time>
      </trkpt>
      <trkpt lat="43.63752" lon="3.38719">
        <ele>198</ele>
        <time>2021-03-09T08:56:26Z</time>
      </trkpt>
      <trkpt lat="43.63756" lon="3.38716">
        <ele>195</ele>
        <time>2021-03-09T08:56:28Z</time>
      </trkpt>
      <trkpt lat="43.63759" lon="3.38714">
        <ele>194</ele>
        <time>2021-03-09T08:56:30Z</time>
      </trkpt>
      <trkpt lat="43.63762" lon="3.38715">
        <ele>193</ele>
        <time>2021-03-09T08:56:32Z</time>
      </trkpt>
      <trkpt lat="43.63766" lon="3.3872">
        <ele>192</ele>
        <time>2021-03-09T08:56:34Z</time>
      </trkpt>
      <trkpt lat="43.63771" lon="3.3872">
        <ele>192</ele>
        <time>2021-03-09T08:56:37Z</time>
      </trkpt>
      <trkpt lat="43.63774" lon="3.38715">
        <ele>192</ele>
        <time>2021-03-09T08:56:40Z</time>
      </trkpt>
      <trkpt lat="43.63777" lon="3.38711">
        <ele>190</ele>
        <time>2021-03-09T08:56:42Z</time>
      </trkpt>
      <trkpt lat="43.63781" lon="3.38707">
        <ele>189</ele>
        <time>2021-03-09T08:56:44Z</time>
      </trkpt>
      <trkpt lat="43.6379" lon="3.38701">
        <ele>186</ele>
        <time>2021-03-09T08:56:48Z</time>
      </trkpt>
      <trkpt lat="43.63794" lon="3.38699">
        <ele>185</ele>
        <time>2021-03-09T08:56:50Z</time>
      </trkpt>
      <trkpt lat="43.638" lon="3.38689">
        <ele>183</ele>
        <time>2021-03-09T08:56:54Z</time>
      </trkpt>
      <trkpt lat="43.63812" lon="3.38681">
        <ele>180</ele>
        <time>2021-03-09T08:56:59Z</time>
      </trkpt>
      <trkpt lat="43.63816" lon="3.38672">
        <ele>179</ele>
        <time>2021-03-09T08:57:03Z</time>
      </trkpt>
      <trkpt lat="43.63815" lon="3.38666">
        <ele>179</ele>
        <time>2021-03-09T08:57:05Z</time>
      </trkpt>
      <trkpt lat="43.63814" lon="3.38656">
        <ele>180</ele>
        <time>2021-03-09T08:57:08Z</time>
      </trkpt>
      <trkpt lat="43.63816" lon="3.38652">
        <ele>180</ele>
        <time>2021-03-09T08:57:10Z</time>
      </trkpt>
      <trkpt lat="43.6382" lon="3.38651">
        <ele>180</ele>
        <time>2021-03-09T08:57:12Z</time>
      </trkpt>
      <trkpt lat="43.63825" lon="3.38649">
        <ele>180</ele>
        <time>2021-03-09T08:57:14Z</time>
      </trkpt>
      <trkpt lat="43.6383" lon="3.38651">
        <ele>180</ele>
        <time>2021-03-09T08:57:16Z</time>
      </trkpt>
      <trkpt lat="43.63841" lon="3.38665">
        <ele>179</ele>
        <time>2021-03-09T08:57:20Z</time>
      </trkpt>
      <trkpt lat="43.63847" lon="3.38669">
        <ele>179</ele>
        <time>2021-03-09T08:57:22Z</time>
      </trkpt>
      <trkpt lat="43.63852" lon="3.38669">
        <ele>179</ele>
        <time>2021-03-09T08:57:24Z</time>
      </trkpt>
      <trkpt lat="43.63866" lon="3.38662">
        <ele>176</ele>
        <time>2021-03-09T08:57:28Z</time>
      </trkpt>
      <trkpt lat="43.63869" lon="3.38657">
        <ele>174</ele>
        <time>2021-03-09T08:57:30Z</time>
      </trkpt>
      <trkpt lat="43.63869" lon="3.38653">
        <ele>173</ele>
        <time>2021-03-09T08:57:31Z</time>
      </trkpt>
      <trkpt lat="43.63867" lon="3.38647">
        <ele>172</ele>
        <time>2021-03-09T08:57:33Z</time>
      </trkpt>
      <trkpt lat="43.63869" lon="3.38644">
        <ele>171</ele>
        <time>2021-03-09T08:57:35Z</time>
      </trkpt>
      <trkpt lat="43.63877" lon="3.38643">
        <ele>170</ele>
        <time>2021-03-09T08:57:38Z</time>
      </trkpt>
      <trkpt lat="43.63888" lon="3.38655">
        <ele>170</ele>
        <time>2021-03-09T08:57:43Z</time>
      </trkpt>
      <trkpt lat="43.63897" lon="3.3866">
        <ele>170</ele>
        <time>2021-03-09T08:57:46Z</time>
      </trkpt>
      <trkpt lat="43.63899" lon="3.38666">
        <ele>170</ele>
        <time>2021-03-09T08:57:48Z</time>
      </trkpt>
      <trkpt lat="43.63899" lon="3.38672">
        <ele>170</ele>
        <time>2021-03-09T08:57:50Z</time>
      </trkpt>
      <trkpt lat="43.63902" lon="3.38678">
        <ele>169</ele>
        <time>2021-03-09T08:57:52Z</time>
      </trkpt>
      <trkpt lat="43.63906" lon="3.38681">
        <ele>168</ele>
        <time>2021-03-09T08:57:54Z</time>
      </trkpt>
      <trkpt lat="43.63932" lon="3.38662">
        <ele>163</ele>
        <time>2021-03-09T08:58:04Z</time>
      </trkpt>
      <trkpt lat="43.63937" lon="3.3866">
        <ele>162</ele>
        <time>2021-03-09T08:58:06Z</time>
      </trkpt>
      <trkpt lat="43.63947" lon="3.38653">
        <ele>163</ele>
        <time>2021-03-09T08:58:09Z</time>
      </trkpt>
      <trkpt lat="43.63949" lon="3.3865">
        <ele>164</ele>
        <time>2021-03-09T08:58:10Z</time>
      </trkpt>
      <trkpt lat="43.63953" lon="3.38643">
        <ele>163</ele>
        <time>2021-03-09T08:58:12Z</time>
      </trkpt>
      <trkpt lat="43.63957" lon="3.3863">
        <ele>163</ele>
        <time>2021-03-09T08:58:15Z</time>
      </trkpt>
      <trkpt lat="43.63956" lon="3.38601">
        <ele>164</ele>
        <time>2021-03-09T08:58:22Z</time>
      </trkpt>
      <trkpt lat="43.63955" lon="3.38597">
        <ele>164</ele>
        <time>2021-03-09T08:58:23Z</time>
      </trkpt>
      <trkpt lat="43.63951" lon="3.3858">
        <ele>161</ele>
        <time>2021-03-09T08:58:29Z</time>
      </trkpt>
      <trkpt lat="43.63952" lon="3.38576">
        <ele>161</ele>
        <time>2021-03-09T08:58:31Z</time>
      </trkpt>
      <trkpt lat="43.63963" lon="3.38572">
        <ele>161</ele>
        <time>2021-03-09T08:58:35Z</time>
      </trkpt>
      <trkpt lat="43.63975" lon="3.38573">
        <ele>160</ele>
        <time>2021-03-09T08:58:38Z</time>
      </trkpt>
      <trkpt lat="43.63978" lon="3.38574">
        <ele>160</ele>
        <time>2021-03-09T08:58:39Z</time>
      </trkpt>
      <trkpt lat="43.63983" lon="3.38594">
        <ele>160</ele>
        <time>2021-03-09T08:58:44Z</time>
      </trkpt>
      <trkpt lat="43.63984" lon="3.38614">
        <ele>160</ele>
        <time>2021-03-09T08:58:48Z</time>
      </trkpt>
      <trkpt lat="43.63986" lon="3.3862">
        <ele>160</ele>
        <time>2021-03-09T08:58:50Z</time>
      </trkpt>
      <trkpt lat="43.63989" lon="3.38622">
        <ele>159</ele>
        <time>2021-03-09T08:58:51Z</time>
      </trkpt>
      <trkpt lat="43.63994" lon="3.38621">
        <ele>158</ele>
        <time>2021-03-09T08:58:53Z</time>
      </trkpt>
      <trkpt lat="43.63997" lon="3.38618">
        <ele>158</ele>
        <time>2021-03-09T08:58:54Z</time>
      </trkpt>
      <trkpt lat="43.63999" lon="3.38614">
        <ele>158</ele>
        <time>2021-03-09T08:58:55Z</time>
      </trkpt>
      <trkpt lat="43.64" lon="3.38599">
        <ele>157</ele>
        <time>2021-03-09T08:58:57Z</time>
      </trkpt>
      <trkpt lat="43.64" lon="3.38588">
        <ele>157</ele>
        <time>2021-03-09T08:58:59Z</time>
      </trkpt>
      <trkpt lat="43.64002" lon="3.38583">
        <ele>157</ele>
        <time>2021-03-09T08:59:00Z</time>
      </trkpt>
      <trkpt lat="43.64004" lon="3.38581">
        <ele>157</ele>
        <time>2021-03-09T08:59:01Z</time>
      </trkpt>
      <trkpt lat="43.6401" lon="3.38579">
        <ele>157</ele>
        <time>2021-03-09T08:59:03Z</time>
      </trkpt>
      <trkpt lat="43.64013" lon="3.38578">
        <ele>157</ele>
        <time>2021-03-09T08:59:06Z</time>
      </trkpt>
      <trkpt lat="43.64015" lon="3.38576">
        <ele>156</ele>
        <time>2021-03-09T08:59:11Z</time>
      </trkpt>
      <trkpt lat="43.64018" lon="3.38575">
        <ele>157</ele>
        <time>2021-03-09T08:59:16Z</time>
      </trkpt>
      <trkpt lat="43.64021" lon="3.38573">
        <ele>157</ele>
        <time>2021-03-09T08:59:19Z</time>
      </trkpt>
      <trkpt lat="43.64023" lon="3.38571">
        <ele>157</ele>
        <time>2021-03-09T08:59:26Z</time>
      </trkpt>
      <trkpt lat="43.64034" lon="3.38573">
        <ele>156</ele>
        <time>2021-03-09T08:59:33Z</time>
      </trkpt>
      <trkpt lat="43.64038" lon="3.38574">
        <ele>156</ele>
        <time>2021-03-09T08:59:35Z</time>
      </trkpt>
      <trkpt lat="43.64041" lon="3.38575">
        <ele>154</ele>
        <time>2021-03-09T08:59:42Z</time>
      </trkpt>
      <trkpt lat="43.64042" lon="3.38565">
        <ele>152</ele>
        <time>2021-03-09T08:59:45Z</time>
      </trkpt>
      <trkpt lat="43.6404" lon="3.38539">
        <ele>151</ele>
        <time>2021-03-09T08:59:55Z</time>
      </trkpt>
      <trkpt lat="43.64047" lon="3.38516">
        <ele>151</ele>
        <time>2021-03-09T09:00:00Z</time>
      </trkpt>
      <trkpt lat="43.64048" lon="3.38512">
        <ele>151</ele>
        <time>2021-03-09T09:00:01Z</time>
      </trkpt>
      <trkpt lat="43.64051" lon="3.38508">
        <ele>151</ele>
        <time>2021-03-09T09:00:03Z</time>
      </trkpt>
      <trkpt lat="43.64068" lon="3.3851">
        <ele>152</ele>
        <time>2021-03-09T09:00:08Z</time>
      </trkpt>
      <trkpt lat="43.64079" lon="3.38506">
        <ele>151</ele>
        <time>2021-03-09T09:00:11Z</time>
      </trkpt>
      <trkpt lat="43.64088" lon="3.38497">
        <ele>151</ele>
        <time>2021-03-09T09:00:13Z</time>
      </trkpt>
      <trkpt lat="43.64092" lon="3.38493">
        <ele>151</ele>
        <time>2021-03-09T09:00:14Z</time>
      </trkpt>
      <trkpt lat="43.64094" lon="3.38489">
        <ele>151</ele>
        <time>2021-03-09T09:00:15Z</time>
      </trkpt>
      <trkpt lat="43.64093" lon="3.3848">
        <ele>151</ele>
        <time>2021-03-09T09:00:18Z</time>
      </trkpt>
      <trkpt lat="43.64094" lon="3.38476">
        <ele>150</ele>
        <time>2021-03-09T09:00:20Z</time>
      </trkpt>
      <trkpt lat="43.64097" lon="3.38468">
        <ele>148</ele>
        <time>2021-03-09T09:00:37Z</time>
      </trkpt>
      <trkpt lat="43.64099" lon="3.38465">
        <ele>147</ele>
        <time>2021-03-09T09:00:50Z</time>
      </trkpt>
      <trkpt lat="43.64101" lon="3.38462">
        <ele>147</ele>
        <time>2021-03-09T09:01:28Z</time>
      </trkpt>
      <trkpt lat="43.64107" lon="3.38457">
        <ele>147</ele>
        <time>2021-03-09T09:01:32Z</time>
      </trkpt>
      <trkpt lat="43.6411" lon="3.38452">
        <ele>147</ele>
        <time>2021-03-09T09:01:34Z</time>
      </trkpt>
      <trkpt lat="43.64111" lon="3.38445">
        <ele>147</ele>
        <time>2021-03-09T09:01:36Z</time>
      </trkpt>
      <trkpt lat="43.64109" lon="3.38439">
        <ele>147</ele>
        <time>2021-03-09T09:01:38Z</time>
      </trkpt>
      <trkpt lat="43.64108" lon="3.38434">
        <ele>146</ele>
        <time>2021-03-09T09:01:40Z</time>
      </trkpt>
      <trkpt lat="43.64109" lon="3.38431">
        <ele>146</ele>
        <time>2021-03-09T09:01:43Z</time>
      </trkpt>
      <trkpt lat="43.64112" lon="3.38428">
        <ele>147</ele>
        <time>2021-03-09T09:02:21Z</time>
      </trkpt>
      <trkpt lat="43.64118" lon="3.38421">
        <ele>147</ele>
        <time>2021-03-09T09:02:25Z</time>
      </trkpt>
      <trkpt lat="43.64119" lon="3.38419">
        <ele>147</ele>
        <time>2021-03-09T09:02:27Z</time>
      </trkpt>
      <trkpt lat="43.64122" lon="3.38422">
        <ele>147</ele>
        <time>2021-03-09T09:02:35Z</time>
      </trkpt>
      <trkpt lat="43.64125" lon="3.38424">
        <ele>148</ele>
        <time>2021-03-09T09:04:14Z</time>
      </trkpt>
      <trkpt lat="43.64153" lon="3.3844">
        <ele>149</ele>
        <time>2021-03-09T09:04:24Z</time>
      </trkpt>
      <trkpt lat="43.64165" lon="3.38439">
        <ele>148</ele>
        <time>2021-03-09T09:04:27Z</time>
      </trkpt>
      <trkpt lat="43.6417" lon="3.38433">
        <ele>148</ele>
        <time>2021-03-09T09:04:30Z</time>
      </trkpt>
      <trkpt lat="43.64172" lon="3.3843">
        <ele>149</ele>
        <time>2021-03-09T09:04:42Z</time>
      </trkpt>
      <trkpt lat="43.64186" lon="3.38428">
        <ele>149</ele>
        <time>2021-03-09T09:04:46Z</time>
      </trkpt>
      <trkpt lat="43.64189" lon="3.38424">
        <ele>150</ele>
        <time>2021-03-09T09:04:48Z</time>
      </trkpt>
      <trkpt lat="43.64189" lon="3.38417">
        <ele>150</ele>
        <time>2021-03-09T09:04:50Z</time>
      </trkpt>
      <trkpt lat="43.64186" lon="3.38406">
        <ele>152</ele>
        <time>2021-03-09T09:04:54Z</time>
      </trkpt>
      <trkpt lat="43.64181" lon="3.38396">
        <ele>153</ele>
        <time>2021-03-09T09:04:57Z</time>
      </trkpt>
      <trkpt lat="43.64162" lon="3.38379">
        <ele>154</ele>
        <time>2021-03-09T09:05:06Z</time>
      </trkpt>
      <trkpt lat="43.64155" lon="3.38374">
        <ele>154</ele>
        <time>2021-03-09T09:05:09Z</time>
      </trkpt>
      <trkpt lat="43.64151" lon="3.38371">
        <ele>155</ele>
        <time>2021-03-09T09:05:11Z</time>
      </trkpt>
      <trkpt lat="43.64149" lon="3.38356">
        <ele>156</ele>
        <time>2021-03-09T09:05:15Z</time>
      </trkpt>
      <trkpt lat="43.64149" lon="3.38347">
        <ele>157</ele>
        <time>2021-03-09T09:05:18Z</time>
      </trkpt>
      <trkpt lat="43.64138" lon="3.38332">
        <ele>159</ele>
        <time>2021-03-09T09:05:24Z</time>
      </trkpt>
      <trkpt lat="43.64136" lon="3.3833">
        <ele>159</ele>
        <time>2021-03-09T09:05:25Z</time>
      </trkpt>
      <trkpt lat="43.6412" lon="3.38332">
        <ele>159</ele>
        <time>2021-03-09T09:05:30Z</time>
      </trkpt>
      <trkpt lat="43.64114" lon="3.3833">
        <ele>159</ele>
        <time>2021-03-09T09:05:32Z</time>
      </trkpt>
      <trkpt lat="43.64096" lon="3.38318">
        <ele>160</ele>
        <time>2021-03-09T09:05:38Z</time>
      </trkpt>
      <trkpt lat="43.64092" lon="3.38314">
        <ele>161</ele>
        <time>2021-03-09T09:05:40Z</time>
      </trkpt>
      <trkpt lat="43.64085" lon="3.38309">
        <ele>161</ele>
        <time>2021-03-09T09:05:43Z</time>
      </trkpt>
      <trkpt lat="43.64082" lon="3.38306">
        <ele>162</ele>
        <time>2021-03-09T09:05:45Z</time>
      </trkpt>
      <trkpt lat="43.64079" lon="3.38301">
        <ele>161</ele>
        <time>2021-03-09T09:05:47Z</time>
      </trkpt>
      <trkpt lat="43.64076" lon="3.38298">
        <ele>161</ele>
        <time>2021-03-09T09:05:49Z</time>
      </trkpt>
      <trkpt lat="43.64065" lon="3.38298">
        <ele>160</ele>
        <time>2021-03-09T09:05:55Z</time>
      </trkpt>
      <trkpt lat="43.64055" lon="3.38302">
        <ele>160</ele>
        <time>2021-03-09T09:05:59Z</time>
      </trkpt>
      <trkpt lat="43.64052" lon="3.38304">
        <ele>160</ele>
        <time>2021-03-09T09:06:00Z</time>
      </trkpt>
      <trkpt lat="43.64042" lon="3.38303">
        <ele>161</ele>
        <time>2021-03-09T09:06:03Z</time>
      </trkpt>
      <trkpt lat="43.64018" lon="3.38291">
        <ele>164</ele>
        <time>2021-03-09T09:06:11Z</time>
      </trkpt>
      <trkpt lat="43.64008" lon="3.38291">
        <ele>164</ele>
        <time>2021-03-09T09:06:14Z</time>
      </trkpt>
      <trkpt lat="43.63992" lon="3.38283">
        <ele>165</ele>
        <time>2021-03-09T09:06:19Z</time>
      </trkpt>
      <trkpt lat="43.63984" lon="3.38284">
        <ele>166</ele>
        <time>2021-03-09T09:06:22Z</time>
      </trkpt>
      <trkpt lat="43.63971" lon="3.38289">
        <ele>166</ele>
        <time>2021-03-09T09:06:26Z</time>
      </trkpt>
      <trkpt lat="43.63952" lon="3.38311">
        <ele>167</ele>
        <time>2021-03-09T09:06:33Z</time>
      </trkpt>
      <trkpt lat="43.63944" lon="3.38315">
        <ele>166</ele>
        <time>2021-03-09T09:06:35Z</time>
      </trkpt>
      <trkpt lat="43.6394" lon="3.38316">
        <ele>166</ele>
        <time>2021-03-09T09:06:36Z</time>
      </trkpt>
      <trkpt lat="43.63936" lon="3.38318">
        <ele>165</ele>
        <time>2021-03-09T09:06:37Z</time>
      </trkpt>
      <trkpt lat="43.63929" lon="3.38332">
        <ele>164</ele>
        <time>2021-03-09T09:06:40Z</time>
      </trkpt>
      <trkpt lat="43.63927" lon="3.38335">
        <ele>164</ele>
        <time>2021-03-09T09:06:41Z</time>
      </trkpt>
      <trkpt lat="43.6389" lon="3.38341">
        <ele>165</ele>
        <time>2021-03-09T09:06:51Z</time>
      </trkpt>
      <trkpt lat="43.63865" lon="3.38338">
        <ele>163</ele>
        <time>2021-03-09T09:06:56Z</time>
      </trkpt>
      <trkpt lat="43.63855" lon="3.38339">
        <ele>162</ele>
        <time>2021-03-09T09:06:59Z</time>
      </trkpt>
      <trkpt lat="43.63849" lon="3.38335">
        <ele>162</ele>
        <time>2021-03-09T09:07:01Z</time>
      </trkpt>
      <trkpt lat="43.63846" lon="3.38335">
        <ele>162</ele>
        <time>2021-03-09T09:07:02Z</time>
      </trkpt>
      <trkpt lat="43.63842" lon="3.38337">
        <ele>162</ele>
        <time>2021-03-09T09:07:04Z</time>
      </trkpt>
      <trkpt lat="43.6384" lon="3.38348">
        <ele>163</ele>
        <time>2021-03-09T09:07:07Z</time>
      </trkpt>
      <trkpt lat="43.63839" lon="3.38352">
        <ele>164</ele>
        <time>2021-03-09T09:07:08Z</time>
      </trkpt>
      <trkpt lat="43.63835" lon="3.38354">
        <ele>165</ele>
        <time>2021-03-09T09:07:10Z</time>
      </trkpt>
      <trkpt lat="43.63829" lon="3.38352">
        <ele>166</ele>
        <time>2021-03-09T09:07:12Z</time>
      </trkpt>
      <trkpt lat="43.63824" lon="3.38351">
        <ele>167</ele>
        <time>2021-03-09T09:07:14Z</time>
      </trkpt>
      <trkpt lat="43.63817" lon="3.38347">
        <ele>168</ele>
        <time>2021-03-09T09:07:17Z</time>
      </trkpt>
      <trkpt lat="43.63813" lon="3.38346">
        <ele>168</ele>
        <time>2021-03-09T09:07:19Z</time>
      </trkpt>
      <trkpt lat="43.63811" lon="3.38348">
        <ele>168</ele>
        <time>2021-03-09T09:07:21Z</time>
      </trkpt>
      <trkpt lat="43.63802" lon="3.3835">
        <ele>166</ele>
        <time>2021-03-09T09:07:24Z</time>
      </trkpt>
      <trkpt lat="43.63798" lon="3.38349">
        <ele>165</ele>
        <time>2021-03-09T09:07:25Z</time>
      </trkpt>
      <trkpt lat="43.63776" lon="3.38328">
        <ele>164</ele>
        <time>2021-03-09T09:07:33Z</time>
      </trkpt>
      <trkpt lat="43.63773" lon="3.38328">
        <ele>165</ele>
        <time>2021-03-09T09:07:36Z</time>
      </trkpt>
      <trkpt lat="43.63765" lon="3.38332">
        <ele>165</ele>
        <time>2021-03-09T09:07:40Z</time>
      </trkpt>
      <trkpt lat="43.63762" lon="3.38332">
        <ele>167</ele>
        <time>2021-03-09T09:07:42Z</time>
      </trkpt>
      <trkpt lat="43.63759" lon="3.38329">
        <ele>168</ele>
        <time>2021-03-09T09:07:44Z</time>
      </trkpt>
      <trkpt lat="43.63748" lon="3.3832">
        <ele>168</ele>
        <time>2021-03-09T09:07:49Z</time>
      </trkpt>
      <trkpt lat="43.63745" lon="3.38316">
        <ele>168</ele>
        <time>2021-03-09T09:07:51Z</time>
      </trkpt>
      <trkpt lat="43.63743" lon="3.38311">
        <ele>168</ele>
        <time>2021-03-09T09:07:53Z</time>
      </trkpt>
      <trkpt lat="43.63736" lon="3.38302">
        <ele>169</ele>
        <time>2021-03-09T09:07:57Z</time>
      </trkpt>
      <trkpt lat="43.63735" lon="3.38297">
        <ele>169</ele>
        <time>2021-03-09T09:07:59Z</time>
      </trkpt>
      <trkpt lat="43.6373" lon="3.38291">
        <ele>172</ele>
        <time>2021-03-09T09:08:04Z</time>
      </trkpt>
      <trkpt lat="43.63729" lon="3.38281">
        <ele>172</ele>
        <time>2021-03-09T09:08:08Z</time>
      </trkpt>
      <trkpt lat="43.63732" lon="3.3828">
        <ele>172</ele>
        <time>2021-03-09T09:08:15Z</time>
      </trkpt>
      <trkpt lat="43.63736" lon="3.38278">
        <ele>171</ele>
        <time>2021-03-09T09:08:17Z</time>
      </trkpt>
      <trkpt lat="43.63738" lon="3.38275">
        <ele>170</ele>
        <time>2021-03-09T09:08:19Z</time>
      </trkpt>
      <trkpt lat="43.6374" lon="3.38272">
        <ele>170</ele>
        <time>2021-03-09T09:08:22Z</time>
      </trkpt>
      <trkpt lat="43.63742" lon="3.38269">
        <ele>169</ele>
        <time>2021-03-09T09:08:25Z</time>
      </trkpt>
      <trkpt lat="43.63742" lon="3.3827">
        <ele>168</ele>
        <time>2021-03-09T09:08:48Z</time>
      </trkpt>
      <trkpt lat="43.63739" lon="3.38277">
        <ele>170</ele>
        <time>2021-03-09T09:09:02Z</time>
      </trkpt>
      <trkpt lat="43.6374" lon="3.38281">
        <ele>170</ele>
        <time>2021-03-09T09:09:05Z</time>
      </trkpt>
      <trkpt lat="43.63746" lon="3.3828">
        <ele>169</ele>
        <time>2021-03-09T09:09:08Z</time>
      </trkpt>
      <trkpt lat="43.6377" lon="3.38289">
        <ele>167</ele>
        <time>2021-03-09T09:09:17Z</time>
      </trkpt>
      <trkpt lat="43.63773" lon="3.38291">
        <ele>166</ele>
        <time>2021-03-09T09:09:18Z</time>
      </trkpt>
      <trkpt lat="43.63776" lon="3.38296">
        <ele>167</ele>
        <time>2021-03-09T09:09:20Z</time>
      </trkpt>
      <trkpt lat="43.63775" lon="3.383">
        <ele>167</ele>
        <time>2021-03-09T09:09:23Z</time>
      </trkpt>
      <trkpt lat="43.63774" lon="3.38305">
        <ele>166</ele>
        <time>2021-03-09T09:09:25Z</time>
      </trkpt>
      <trkpt lat="43.63775" lon="3.3831">
        <ele>165</ele>
        <time>2021-03-09T09:09:27Z</time>
      </trkpt>
      <trkpt lat="43.63779" lon="3.38312">
        <ele>164</ele>
        <time>2021-03-09T09:09:29Z</time>
      </trkpt>
      <trkpt lat="43.63783" lon="3.38312">
        <ele>165</ele>
        <time>2021-03-09T09:09:31Z</time>
      </trkpt>
      <trkpt lat="43.63788" lon="3.38313">
        <ele>164</ele>
        <time>2021-03-09T09:09:33Z</time>
      </trkpt>
      <trkpt lat="43.63799" lon="3.38318">
        <ele>165</ele>
        <time>2021-03-09T09:09:37Z</time>
      </trkpt>
      <trkpt lat="43.63812" lon="3.38319">
        <ele>165</ele>
        <time>2021-03-09T09:09:41Z</time>
      </trkpt>
      <trkpt lat="43.63819" lon="3.38318">
        <ele>165</ele>
        <time>2021-03-09T09:09:46Z</time>
      </trkpt>
      <trkpt lat="43.63821" lon="3.38313">
        <ele>165</ele>
        <time>2021-03-09T09:09:49Z</time>
      </trkpt>
      <trkpt lat="43.63821" lon="3.38308">
        <ele>165</ele>
        <time>2021-03-09T09:09:51Z</time>
      </trkpt>
      <trkpt lat="43.63829" lon="3.383">
        <ele>163</ele>
        <time>2021-03-09T09:09:57Z</time>
      </trkpt>
      <trkpt lat="43.63841" lon="3.38287">
        <ele>164</ele>
        <time>2021-03-09T09:10:03Z</time>
      </trkpt>
      <trkpt lat="43.63843" lon="3.38283">
        <ele>164</ele>
        <time>2021-03-09T09:10:06Z</time>
      </trkpt>
      <trkpt lat="43.63839" lon="3.38281">
        <ele>165</ele>
        <time>2021-03-09T09:10:08Z</time>
      </trkpt>
      <trkpt lat="43.63833" lon="3.38284">
        <ele>166</ele>
        <time>2021-03-09T09:10:10Z</time>
      </trkpt>
      <trkpt lat="43.6383" lon="3.38284">
        <ele>166</ele>
        <time>2021-03-09T09:10:11Z</time>
      </trkpt>
      <trkpt lat="43.63824" lon="3.38279">
        <ele>167</ele>
        <time>2021-03-09T09:10:13Z</time>
      </trkpt>
      <trkpt lat="43.63809" lon="3.38259">
        <ele>170</ele>
        <time>2021-03-09T09:10:22Z</time>
      </trkpt>
      <trkpt lat="43.63804" lon="3.38258">
        <ele>171</ele>
        <time>2021-03-09T09:10:24Z</time>
      </trkpt>
      <trkpt lat="43.63797" lon="3.38257">
        <ele>172</ele>
        <time>2021-03-09T09:10:27Z</time>
      </trkpt>
      <trkpt lat="43.63794" lon="3.38254">
        <ele>172</ele>
        <time>2021-03-09T09:10:29Z</time>
      </trkpt>
      <trkpt lat="43.63789" lon="3.38245">
        <ele>174</ele>
        <time>2021-03-09T09:10:32Z</time>
      </trkpt>
      <trkpt lat="43.63787" lon="3.38241">
        <ele>173</ele>
        <time>2021-03-09T09:10:33Z</time>
      </trkpt>
      <trkpt lat="43.63779" lon="3.38235">
        <ele>173</ele>
        <time>2021-03-09T09:10:36Z</time>
      </trkpt>
      <trkpt lat="43.63777" lon="3.38233">
        <ele>173</ele>
        <time>2021-03-09T09:10:37Z</time>
      </trkpt>
      <trkpt lat="43.63775" lon="3.38228">
        <ele>174</ele>
        <time>2021-03-09T09:10:39Z</time>
      </trkpt>
      <trkpt lat="43.63769" lon="3.38221">
        <ele>175</ele>
        <time>2021-03-09T09:10:42Z</time>
      </trkpt>
      <trkpt lat="43.63764" lon="3.38219">
        <ele>176</ele>
        <time>2021-03-09T09:10:44Z</time>
      </trkpt>
      <trkpt lat="43.63759" lon="3.3822">
        <ele>176</ele>
        <time>2021-03-09T09:10:46Z</time>
      </trkpt>
      <trkpt lat="43.6375" lon="3.38221">
        <ele>177</ele>
        <time>2021-03-09T09:10:49Z</time>
      </trkpt>
      <trkpt lat="43.63748" lon="3.38222">
        <ele>177</ele>
        <time>2021-03-09T09:10:50Z</time>
      </trkpt>
      <trkpt lat="43.63743" lon="3.38225">
        <ele>178</ele>
        <time>2021-03-09T09:10:52Z</time>
      </trkpt>
      <trkpt lat="43.63711" lon="3.38216">
        <ele>178</ele>
        <time>2021-03-09T09:11:02Z</time>
      </trkpt>
      <trkpt lat="43.63701" lon="3.38208">
        <ele>179</ele>
        <time>2021-03-09T09:11:05Z</time>
      </trkpt>
      <trkpt lat="43.63694" lon="3.38206">
        <ele>179</ele>
        <time>2021-03-09T09:11:07Z</time>
      </trkpt>
      <trkpt lat="43.63673" lon="3.38215">
        <ele>183</ele>
        <time>2021-03-09T09:11:14Z</time>
      </trkpt>
      <trkpt lat="43.63666" lon="3.3822">
        <ele>183</ele>
        <time>2021-03-09T09:11:16Z</time>
      </trkpt>
      <trkpt lat="43.63663" lon="3.38225">
        <ele>182</ele>
        <time>2021-03-09T09:11:17Z</time>
      </trkpt>
      <trkpt lat="43.63654" lon="3.38231">
        <ele>182</ele>
        <time>2021-03-09T09:11:20Z</time>
      </trkpt>
      <trkpt lat="43.63652" lon="3.3823">
        <ele>182</ele>
        <time>2021-03-09T09:11:21Z</time>
      </trkpt>
      <trkpt lat="43.63644" lon="3.38224">
        <ele>182</ele>
        <time>2021-03-09T09:11:25Z</time>
      </trkpt>
      <trkpt lat="43.63643" lon="3.38218">
        <ele>182</ele>
        <time>2021-03-09T09:11:27Z</time>
      </trkpt>
      <trkpt lat="43.63646" lon="3.3819">
        <ele>182</ele>
        <time>2021-03-09T09:11:34Z</time>
      </trkpt>
      <trkpt lat="43.63652" lon="3.38177">
        <ele>183</ele>
        <time>2021-03-09T09:11:38Z</time>
      </trkpt>
      <trkpt lat="43.63652" lon="3.38173">
        <ele>183</ele>
        <time>2021-03-09T09:11:39Z</time>
      </trkpt>
      <trkpt lat="43.63652" lon="3.38168">
        <ele>183</ele>
        <time>2021-03-09T09:11:40Z</time>
      </trkpt>
      <trkpt lat="43.63644" lon="3.38122">
        <ele>182</ele>
        <time>2021-03-09T09:11:51Z</time>
      </trkpt>
      <trkpt lat="43.63644" lon="3.38115">
        <ele>182</ele>
        <time>2021-03-09T09:11:53Z</time>
      </trkpt>
      <trkpt lat="43.63643" lon="3.38108">
        <ele>182</ele>
        <time>2021-03-09T09:11:55Z</time>
      </trkpt>
      <trkpt lat="43.6364" lon="3.38102">
        <ele>181</ele>
        <time>2021-03-09T09:11:57Z</time>
      </trkpt>
      <trkpt lat="43.63633" lon="3.38073">
        <ele>183</ele>
        <time>2021-03-09T09:12:05Z</time>
      </trkpt>
      <trkpt lat="43.6363" lon="3.38066">
        <ele>183</ele>
        <time>2021-03-09T09:12:07Z</time>
      </trkpt>
      <trkpt lat="43.63628" lon="3.38061">
        <ele>182</ele>
        <time>2021-03-09T09:12:09Z</time>
      </trkpt>
      <trkpt lat="43.63626" lon="3.3805">
        <ele>183</ele>
        <time>2021-03-09T09:12:12Z</time>
      </trkpt>
      <trkpt lat="43.6362" lon="3.38032">
        <ele>185</ele>
        <time>2021-03-09T09:12:20Z</time>
      </trkpt>
      <trkpt lat="43.63617" lon="3.38028">
        <ele>185</ele>
        <time>2021-03-09T09:12:22Z</time>
      </trkpt>
      <trkpt lat="43.63611" lon="3.38027">
        <ele>185</ele>
        <time>2021-03-09T09:12:24Z</time>
      </trkpt>
      <trkpt lat="43.63608" lon="3.38025">
        <ele>184</ele>
        <time>2021-03-09T09:12:25Z</time>
      </trkpt>
      <trkpt lat="43.63606" lon="3.3802">
        <ele>184</ele>
        <time>2021-03-09T09:12:27Z</time>
      </trkpt>
      <trkpt lat="43.63606" lon="3.38016">
        <ele>184</ele>
        <time>2021-03-09T09:12:28Z</time>
      </trkpt>
      <trkpt lat="43.63608" lon="3.38011">
        <ele>184</ele>
        <time>2021-03-09T09:12:29Z</time>
      </trkpt>
      <trkpt lat="43.63615" lon="3.38">
        <ele>184</ele>
        <time>2021-03-09T09:12:32Z</time>
      </trkpt>
      <trkpt lat="43.63618" lon="3.37991">
        <ele>183</ele>
        <time>2021-03-09T09:12:34Z</time>
      </trkpt>
      <trkpt lat="43.63621" lon="3.37971">
        <ele>184</ele>
        <time>2021-03-09T09:12:39Z</time>
      </trkpt>
      <trkpt lat="43.63652" lon="3.37887">
        <ele>184</ele>
        <time>2021-03-09T09:13:03Z</time>
      </trkpt>
      <trkpt lat="43.63657" lon="3.37854">
        <ele>183</ele>
        <time>2021-03-09T09:13:10Z</time>
      </trkpt>
      <trkpt lat="43.63661" lon="3.37725">
        <ele>188</ele>
        <time>2021-03-09T09:13:40Z</time>
      </trkpt>
      <trkpt lat="43.6366" lon="3.37698">
        <ele>189</ele>
        <time>2021-03-09T09:13:47Z</time>
      </trkpt>
      <trkpt lat="43.63658" lon="3.3769">
        <ele>189</ele>
        <time>2021-03-09T09:13:49Z</time>
      </trkpt>
      <trkpt lat="43.63654" lon="3.37684">
        <ele>190</ele>
        <time>2021-03-09T09:13:51Z</time>
      </trkpt>
      <trkpt lat="43.63647" lon="3.37676">
        <ele>191</ele>
        <time>2021-03-09T09:13:54Z</time>
      </trkpt>
      <trkpt lat="43.63599" lon="3.37648">
        <ele>192</ele>
        <time>2021-03-09T09:14:13Z</time>
      </trkpt>
      <trkpt lat="43.63593" lon="3.37639">
        <ele>194</ele>
        <time>2021-03-09T09:14:17Z</time>
      </trkpt>
      <trkpt lat="43.63589" lon="3.37628">
        <ele>196</ele>
        <time>2021-03-09T09:14:21Z</time>
      </trkpt>
      <trkpt lat="43.63579" lon="3.37543">
        <ele>204</ele>
        <time>2021-03-09T09:14:48Z</time>
      </trkpt>
      <trkpt lat="43.6358" lon="3.37525">
        <ele>206</ele>
        <time>2021-03-09T09:14:54Z</time>
      </trkpt>
      <trkpt lat="43.63579" lon="3.3751">
        <ele>207</ele>
        <time>2021-03-09T09:14:59Z</time>
      </trkpt>
      <trkpt lat="43.63577" lon="3.37503">
        <ele>207</ele>
        <time>2021-03-09T09:15:01Z</time>
      </trkpt>
      <trkpt lat="43.63565" lon="3.37452">
        <ele>212</ele>
        <time>2021-03-09T09:15:17Z</time>
      </trkpt>
      <trkpt lat="43.63548" lon="3.37411">
        <ele>214</ele>
        <time>2021-03-09T09:15:33Z</time>
      </trkpt>
      <trkpt lat="43.63542" lon="3.37377">
        <ele>220</ele>
        <time>2021-03-09T09:15:44Z</time>
      </trkpt>
      <trkpt lat="43.63542" lon="3.37351">
        <ele>219</ele>
        <time>2021-03-09T09:15:52Z</time>
      </trkpt>
      <trkpt lat="43.63542" lon="3.37345">
        <ele>218</ele>
        <time>2021-03-09T09:15:54Z</time>
      </trkpt>
      <trkpt lat="43.63543" lon="3.37339">
        <ele>217</ele>
        <time>2021-03-09T09:15:56Z</time>
      </trkpt>
      <trkpt lat="43.63548" lon="3.37314">
        <ele>217</ele>
        <time>2021-03-09T09:16:04Z</time>
      </trkpt>
      <trkpt lat="43.63549" lon="3.37295">
        <ele>220</ele>
        <time>2021-03-09T09:16:10Z</time>
      </trkpt>
      <trkpt lat="43.63547" lon="3.37283">
        <ele>220</ele>
        <time>2021-03-09T09:16:14Z</time>
      </trkpt>
      <trkpt lat="43.63544" lon="3.37271">
        <ele>221</ele>
        <time>2021-03-09T09:16:18Z</time>
      </trkpt>
      <trkpt lat="43.63528" lon="3.37249">
        <ele>223</ele>
        <time>2021-03-09T09:16:28Z</time>
      </trkpt>
      <trkpt lat="43.63521" lon="3.37231">
        <ele>222</ele>
        <time>2021-03-09T09:16:34Z</time>
      </trkpt>
      <trkpt lat="43.63511" lon="3.37195">
        <ele>222</ele>
        <time>2021-03-09T09:16:46Z</time>
      </trkpt>
      <trkpt lat="43.63509" lon="3.3718">
        <ele>224</ele>
        <time>2021-03-09T09:16:51Z</time>
      </trkpt>
      <trkpt lat="43.63537" lon="3.3709">
        <ele>227</ele>
        <time>2021-03-09T09:17:21Z</time>
      </trkpt>
      <trkpt lat="43.63551" lon="3.37037">
        <ele>229</ele>
        <time>2021-03-09T09:17:37Z</time>
      </trkpt>
      <trkpt lat="43.63553" lon="3.37025">
        <ele>230</ele>
        <time>2021-03-09T09:17:41Z</time>
      </trkpt>
      <trkpt lat="43.63572" lon="3.36971">
        <ele>228</ele>
        <time>2021-03-09T09:17:55Z</time>
      </trkpt>
      <trkpt lat="43.63601" lon="3.36789">
        <ele>223</ele>
        <time>2021-03-09T09:18:20Z</time>
      </trkpt>
      <trkpt lat="43.636" lon="3.36773">
        <ele>223</ele>
        <time>2021-03-09T09:18:22Z</time>
      </trkpt>
      <trkpt lat="43.63581" lon="3.36705">
        <ele>227</ele>
        <time>2021-03-09T09:18:37Z</time>
      </trkpt>
      <trkpt lat="43.6358" lon="3.36693">
        <ele>228</ele>
        <time>2021-03-09T09:18:40Z</time>
      </trkpt>
      <trkpt lat="43.6359" lon="3.36587">
        <ele>226</ele>
        <time>2021-03-09T09:19:06Z</time>
      </trkpt>
      <trkpt lat="43.63589" lon="3.36569">
        <ele>226</ele>
        <time>2021-03-09T09:19:10Z</time>
      </trkpt>
      <trkpt lat="43.63583" lon="3.36544">
        <ele>226</ele>
        <time>2021-03-09T09:19:16Z</time>
      </trkpt>
      <trkpt lat="43.63552" lon="3.36477">
        <ele>222</ele>
        <time>2021-03-09T09:19:32Z</time>
      </trkpt>
      <trkpt lat="43.63549" lon="3.36462">
        <ele>224</ele>
        <time>2021-03-09T09:19:35Z</time>
      </trkpt>
      <trkpt lat="43.63543" lon="3.36413">
        <ele>230</ele>
        <time>2021-03-09T09:19:47Z</time>
      </trkpt>
      <trkpt lat="43.63537" lon="3.36397">
        <ele>232</ele>
        <time>2021-03-09T09:19:53Z</time>
      </trkpt>
      <trkpt lat="43.63535" lon="3.36386">
        <ele>231</ele>
        <time>2021-03-09T09:19:56Z</time>
      </trkpt>
      <trkpt lat="43.63527" lon="3.36365">
        <ele>231</ele>
        <time>2021-03-09T09:20:02Z</time>
      </trkpt>
      <trkpt lat="43.63528" lon="3.36351">
        <ele>232</ele>
        <time>2021-03-09T09:20:06Z</time>
      </trkpt>
      <trkpt lat="43.63529" lon="3.36343">
        <ele>233</ele>
        <time>2021-03-09T09:20:08Z</time>
      </trkpt>
      <trkpt lat="43.63531" lon="3.36336">
        <ele>235</ele>
        <time>2021-03-09T09:20:10Z</time>
      </trkpt>
      <trkpt lat="43.63531" lon="3.36329">
        <ele>236</ele>
        <time>2021-03-09T09:20:12Z</time>
      </trkpt>
      <trkpt lat="43.63527" lon="3.36308">
        <ele>242</ele>
        <time>2021-03-09T09:20:19Z</time>
      </trkpt>
      <trkpt lat="43.63525" lon="3.36301">
        <ele>244</ele>
        <time>2021-03-09T09:20:21Z</time>
      </trkpt>
      <trkpt lat="43.63515" lon="3.3626">
        <ele>241</ele>
        <time>2021-03-09T09:20:33Z</time>
      </trkpt>
      <trkpt lat="43.63502" lon="3.36232">
        <ele>238</ele>
        <time>2021-03-09T09:20:41Z</time>
      </trkpt>
      <trkpt lat="43.63496" lon="3.36224">
        <ele>239</ele>
        <time>2021-03-09T09:20:45Z</time>
      </trkpt>
      <trkpt lat="43.6348" lon="3.36215">
        <ele>242</ele>
        <time>2021-03-09T09:20:53Z</time>
      </trkpt>
      <trkpt lat="43.63475" lon="3.36211">
        <ele>242</ele>
        <time>2021-03-09T09:20:57Z</time>
      </trkpt>
      <trkpt lat="43.63472" lon="3.36206">
        <ele>241</ele>
        <time>2021-03-09T09:20:59Z</time>
      </trkpt>
      <trkpt lat="43.6347" lon="3.362">
        <ele>241</ele>
        <time>2021-03-09T09:21:01Z</time>
      </trkpt>
      <trkpt lat="43.63467" lon="3.36105">
        <ele>243</ele>
        <time>2021-03-09T09:21:25Z</time>
      </trkpt>
      <trkpt lat="43.63464" lon="3.36087">
        <ele>241</ele>
        <time>2021-03-09T09:21:30Z</time>
      </trkpt>
      <trkpt lat="43.63468" lon="3.36065">
        <ele>242</ele>
        <time>2021-03-09T09:21:38Z</time>
      </trkpt>
      <trkpt lat="43.6347" lon="3.36062">
        <ele>243</ele>
        <time>2021-03-09T09:21:40Z</time>
      </trkpt>
      <trkpt lat="43.63476" lon="3.36057">
        <ele>243</ele>
        <time>2021-03-09T09:21:44Z</time>
      </trkpt>
      <trkpt lat="43.63479" lon="3.36055">
        <ele>242</ele>
        <time>2021-03-09T09:21:46Z</time>
      </trkpt>
      <trkpt lat="43.63483" lon="3.36052">
        <ele>244</ele>
        <time>2021-03-09T09:21:48Z</time>
      </trkpt>
      <trkpt lat="43.63488" lon="3.3605">
        <ele>246</ele>
        <time>2021-03-09T09:21:50Z</time>
      </trkpt>
      <trkpt lat="43.63491" lon="3.36048">
        <ele>247</ele>
        <time>2021-03-09T09:21:52Z</time>
      </trkpt>
      <trkpt lat="43.63495" lon="3.36044">
        <ele>249</ele>
        <time>2021-03-09T09:21:54Z</time>
      </trkpt>
      <trkpt lat="43.63499" lon="3.36037">
        <ele>250</ele>
        <time>2021-03-09T09:21:57Z</time>
      </trkpt>
      <trkpt lat="43.63499" lon="3.36032">
        <ele>249</ele>
        <time>2021-03-09T09:21:59Z</time>
      </trkpt>
      <trkpt lat="43.63499" lon="3.36026">
        <ele>251</ele>
        <time>2021-03-09T09:22:02Z</time>
      </trkpt>
      <trkpt lat="43.63499" lon="3.36021">
        <ele>252</ele>
        <time>2021-03-09T09:22:05Z</time>
      </trkpt>
      <trkpt lat="43.63493" lon="3.36013">
        <ele>250</ele>
        <time>2021-03-09T09:22:10Z</time>
      </trkpt>
      <trkpt lat="43.63488" lon="3.36008">
        <ele>251</ele>
        <time>2021-03-09T09:22:19Z</time>
      </trkpt>
      <trkpt lat="43.63486" lon="3.36007">
        <ele>252</ele>
        <time>2021-03-09T09:22:23Z</time>
      </trkpt>
      <trkpt lat="43.63483" lon="3.36003">
        <ele>253</ele>
        <time>2021-03-09T09:22:30Z</time>
      </trkpt>
      <trkpt lat="43.63478" lon="3.35994">
        <ele>254</ele>
        <time>2021-03-09T09:22:43Z</time>
      </trkpt>
      <trkpt lat="43.63477" lon="3.35991">
        <ele>255</ele>
        <time>2021-03-09T09:22:47Z</time>
      </trkpt>
      <trkpt lat="43.63475" lon="3.35987">
        <ele>256</ele>
        <time>2021-03-09T09:22:55Z</time>
      </trkpt>
      <trkpt lat="43.63476" lon="3.35977">
        <ele>257</ele>
        <time>2021-03-09T09:23:03Z</time>
      </trkpt>
      <trkpt lat="43.63475" lon="3.3595">
        <ele>259</ele>
        <time>2021-03-09T09:23:15Z</time>
      </trkpt>
      <trkpt lat="43.63474" lon="3.35945">
        <ele>260</ele>
        <time>2021-03-09T09:23:20Z</time>
      </trkpt>
      <trkpt lat="43.63474" lon="3.35939">
        <ele>261</ele>
        <time>2021-03-09T09:23:25Z</time>
      </trkpt>
      <trkpt lat="43.63471" lon="3.35931">
        <ele>259</ele>
        <time>2021-03-09T09:23:32Z</time>
      </trkpt>
      <trkpt lat="43.6347" lon="3.35926">
        <ele>259</ele>
        <time>2021-03-09T09:23:36Z</time>
      </trkpt>
      <trkpt lat="43.63469" lon="3.35921">
        <ele>260</ele>
        <time>2021-03-09T09:23:42Z</time>
      </trkpt>
      <trkpt lat="43.63471" lon="3.3591">
        <ele>263</ele>
        <time>2021-03-09T09:23:47Z</time>
      </trkpt>
      <trkpt lat="43.63468" lon="3.35885">
        <ele>267</ele>
        <time>2021-03-09T09:23:57Z</time>
      </trkpt>
      <trkpt lat="43.6347" lon="3.35876">
        <ele>269</ele>
        <time>2021-03-09T09:24:01Z</time>
      </trkpt>
      <trkpt lat="43.63469" lon="3.3586">
        <ele>273</ele>
        <time>2021-03-09T09:24:07Z</time>
      </trkpt>
      <trkpt lat="43.63469" lon="3.35855">
        <ele>274</ele>
        <time>2021-03-09T09:24:09Z</time>
      </trkpt>
      <trkpt lat="43.6347" lon="3.3585">
        <ele>275</ele>
        <time>2021-03-09T09:24:11Z</time>
      </trkpt>
      <trkpt lat="43.63471" lon="3.35834">
        <ele>275</ele>
        <time>2021-03-09T09:24:17Z</time>
      </trkpt>
      <trkpt lat="43.63472" lon="3.35824">
        <ele>274</ele>
        <time>2021-03-09T09:24:21Z</time>
      </trkpt>
      <trkpt lat="43.63472" lon="3.35818">
        <ele>275</ele>
        <time>2021-03-09T09:24:23Z</time>
      </trkpt>
      <trkpt lat="43.6347" lon="3.35813">
        <ele>276</ele>
        <time>2021-03-09T09:24:25Z</time>
      </trkpt>
      <trkpt lat="43.63467" lon="3.35808">
        <ele>276</ele>
        <time>2021-03-09T09:24:27Z</time>
      </trkpt>
      <trkpt lat="43.63443" lon="3.35796">
        <ele>276</ele>
        <time>2021-03-09T09:24:57Z</time>
      </trkpt>
      <trkpt lat="43.63439" lon="3.35793">
        <ele>278</ele>
        <time>2021-03-09T09:24:59Z</time>
      </trkpt>
      <trkpt lat="43.63431" lon="3.35783">
        <ele>279</ele>
        <time>2021-03-09T09:25:04Z</time>
      </trkpt>
      <trkpt lat="43.63417" lon="3.35779">
        <ele>284</ele>
        <time>2021-03-09T09:25:10Z</time>
      </trkpt>
      <trkpt lat="43.63409" lon="3.35773">
        <ele>286</ele>
        <time>2021-03-09T09:25:14Z</time>
      </trkpt>
      <trkpt lat="43.63406" lon="3.3577">
        <ele>287</ele>
        <time>2021-03-09T09:25:16Z</time>
      </trkpt>
      <trkpt lat="43.63398" lon="3.35763">
        <ele>289</ele>
        <time>2021-03-09T09:25:20Z</time>
      </trkpt>
      <trkpt lat="43.63391" lon="3.3575">
        <ele>290</ele>
        <time>2021-03-09T09:25:26Z</time>
      </trkpt>
      <trkpt lat="43.63389" lon="3.35746">
        <ele>290</ele>
        <time>2021-03-09T09:25:28Z</time>
      </trkpt>
      <trkpt lat="43.63378" lon="3.3574">
        <ele>293</ele>
        <time>2021-03-09T09:25:33Z</time>
      </trkpt>
      <trkpt lat="43.63365" lon="3.35722">
        <ele>296</ele>
        <time>2021-03-09T09:25:43Z</time>
      </trkpt>
      <trkpt lat="43.63341" lon="3.35702">
        <ele>302</ele>
        <time>2021-03-09T09:25:57Z</time>
      </trkpt>
      <trkpt lat="43.63337" lon="3.35694">
        <ele>304</ele>
        <time>2021-03-09T09:26:01Z</time>
      </trkpt>
      <trkpt lat="43.63313" lon="3.35676">
        <ele>305</ele>
        <time>2021-03-09T09:26:14Z</time>
      </trkpt>
      <trkpt lat="43.63309" lon="3.35671">
        <ele>304</ele>
        <time>2021-03-09T09:26:17Z</time>
      </trkpt>
      <trkpt lat="43.63302" lon="3.35667">
        <ele>304</ele>
        <time>2021-03-09T09:26:21Z</time>
      </trkpt>
      <trkpt lat="43.63293" lon="3.35663">
        <ele>303</ele>
        <time>2021-03-09T09:26:25Z</time>
      </trkpt>
      <trkpt lat="43.63285" lon="3.35664">
        <ele>306</ele>
        <time>2021-03-09T09:26:30Z</time>
      </trkpt>
      <trkpt lat="43.63279" lon="3.35668">
        <ele>307</ele>
        <time>2021-03-09T09:26:34Z</time>
      </trkpt>
      <trkpt lat="43.63276" lon="3.35671">
        <ele>307</ele>
        <time>2021-03-09T09:26:37Z</time>
      </trkpt>
      <trkpt lat="43.63275" lon="3.35675">
        <ele>309</ele>
        <time>2021-03-09T09:26:53Z</time>
      </trkpt>
      <trkpt lat="43.63264" lon="3.35692">
        <ele>307</ele>
        <time>2021-03-09T09:27:01Z</time>
      </trkpt>
      <trkpt lat="43.63262" lon="3.35696">
        <ele>308</ele>
        <time>2021-03-09T09:27:03Z</time>
      </trkpt>
      <trkpt lat="43.63257" lon="3.35706">
        <ele>310</ele>
        <time>2021-03-09T09:27:07Z</time>
      </trkpt>
      <trkpt lat="43.63243" lon="3.35728">
        <ele>314</ele>
        <time>2021-03-09T09:27:17Z</time>
      </trkpt>
      <trkpt lat="43.63236" lon="3.35742">
        <ele>315</ele>
        <time>2021-03-09T09:27:23Z</time>
      </trkpt>
      <trkpt lat="43.63234" lon="3.35749">
        <ele>316</ele>
        <time>2021-03-09T09:27:25Z</time>
      </trkpt>
      <trkpt lat="43.63233" lon="3.35755">
        <ele>319</ele>
        <time>2021-03-09T09:27:27Z</time>
      </trkpt>
      <trkpt lat="43.63231" lon="3.35764">
        <ele>324</ele>
        <time>2021-03-09T09:27:31Z</time>
      </trkpt>
      <trkpt lat="43.63229" lon="3.35769">
        <ele>325</ele>
        <time>2021-03-09T09:27:34Z</time>
      </trkpt>
      <trkpt lat="43.63227" lon="3.35765">
        <ele>327</ele>
        <time>2021-03-09T09:27:38Z</time>
      </trkpt>
      <trkpt lat="43.63227" lon="3.35755">
        <ele>329</ele>
        <time>2021-03-09T09:27:42Z</time>
      </trkpt>
      <trkpt lat="43.63224" lon="3.35744">
        <ele>328</ele>
        <time>2021-03-09T09:27:46Z</time>
      </trkpt>
      <trkpt lat="43.63224" lon="3.35739">
        <ele>329</ele>
        <time>2021-03-09T09:27:48Z</time>
      </trkpt>
      <trkpt lat="43.63224" lon="3.35727">
        <ele>329</ele>
        <time>2021-03-09T09:27:52Z</time>
      </trkpt>
      <trkpt lat="43.63223" lon="3.35722">
        <ele>329</ele>
        <time>2021-03-09T09:27:54Z</time>
      </trkpt>
      <trkpt lat="43.63221" lon="3.35673">
        <ele>347</ele>
        <time>2021-03-09T09:28:13Z</time>
      </trkpt>
      <trkpt lat="43.63207" lon="3.35609">
        <ele>353</ele>
        <time>2021-03-09T09:28:37Z</time>
      </trkpt>
      <trkpt lat="43.63187" lon="3.35575">
        <ele>358</ele>
        <time>2021-03-09T09:28:51Z</time>
      </trkpt>
      <trkpt lat="43.63181" lon="3.3556">
        <ele>360</ele>
        <time>2021-03-09T09:28:58Z</time>
      </trkpt>
      <trkpt lat="43.63175" lon="3.35548">
        <ele>364</ele>
        <time>2021-03-09T09:29:04Z</time>
      </trkpt>
      <trkpt lat="43.63174" lon="3.35545">
        <ele>367</ele>
        <time>2021-03-09T09:29:06Z</time>
      </trkpt>
      <trkpt lat="43.6317" lon="3.35533">
        <ele>370</ele>
        <time>2021-03-09T09:29:11Z</time>
      </trkpt>
      <trkpt lat="43.63165" lon="3.35514">
        <ele>375</ele>
        <time>2021-03-09T09:29:20Z</time>
      </trkpt>
      <trkpt lat="43.63165" lon="3.35497">
        <ele>374</ele>
        <time>2021-03-09T09:29:28Z</time>
      </trkpt>
      <trkpt lat="43.63162" lon="3.35497">
        <ele>375</ele>
        <time>2021-03-09T09:29:58Z</time>
      </trkpt>
      <trkpt lat="43.63161" lon="3.35493">
        <ele>373</ele>
        <time>2021-03-09T09:30:45Z</time>
      </trkpt>
      <trkpt lat="43.63158" lon="3.35492">
        <ele>372</ele>
        <time>2021-03-09T09:30:50Z</time>
      </trkpt>
      <trkpt lat="43.63154" lon="3.35498">
        <ele>374</ele>
        <time>2021-03-09T09:31:02Z</time>
      </trkpt>
      <trkpt lat="43.63151" lon="3.35499">
        <ele>375</ele>
        <time>2021-03-09T09:31:12Z</time>
      </trkpt>
      <trkpt lat="43.63149" lon="3.35503">
        <ele>375</ele>
        <time>2021-03-09T09:31:17Z</time>
      </trkpt>
      <trkpt lat="43.63147" lon="3.35503">
        <ele>375</ele>
        <time>2021-03-09T09:31:28Z</time>
      </trkpt>
      <trkpt lat="43.63144" lon="3.355">
        <ele>376</ele>
        <time>2021-03-09T09:31:34Z</time>
      </trkpt>
      <trkpt lat="43.63142" lon="3.35495">
        <ele>377</ele>
        <time>2021-03-09T09:31:37Z</time>
      </trkpt>
      <trkpt lat="43.63134" lon="3.3548">
        <ele>384</ele>
        <time>2021-03-09T09:31:45Z</time>
      </trkpt>
      <trkpt lat="43.63132" lon="3.3547">
        <ele>385</ele>
        <time>2021-03-09T09:31:48Z</time>
      </trkpt>
      <trkpt lat="43.6313" lon="3.35458">
        <ele>386</ele>
        <time>2021-03-09T09:31:52Z</time>
      </trkpt>
      <trkpt lat="43.63129" lon="3.3545">
        <ele>388</ele>
        <time>2021-03-09T09:35:03Z</time>
      </trkpt>
      <trkpt lat="43.63129" lon="3.35446">
        <ele>388</ele>
        <time>2021-03-09T09:35:05Z</time>
      </trkpt>
      <trkpt lat="43.63131" lon="3.35441">
        <ele>388</ele>
        <time>2021-03-09T09:35:07Z</time>
      </trkpt>
      <trkpt lat="43.63135" lon="3.35438">
        <ele>388</ele>
        <time>2021-03-09T09:35:09Z</time>
      </trkpt>
      <trkpt lat="43.63139" lon="3.35437">
        <ele>389</ele>
        <time>2021-03-09T09:35:11Z</time>
      </trkpt>
      <trkpt lat="43.63155" lon="3.35415">
        <ele>388</ele>
        <time>2021-03-09T09:35:40Z</time>
      </trkpt>
      <trkpt lat="43.63158" lon="3.35413">
        <ele>389</ele>
        <time>2021-03-09T09:35:42Z</time>
      </trkpt>
      <trkpt lat="43.63168" lon="3.35414">
        <ele>392</ele>
        <time>2021-03-09T09:35:47Z</time>
      </trkpt>
      <trkpt lat="43.63179" lon="3.35409">
        <ele>396</ele>
        <time>2021-03-09T09:35:52Z</time>
      </trkpt>
      <trkpt lat="43.63183" lon="3.35407">
        <ele>397</ele>
        <time>2021-03-09T09:35:54Z</time>
      </trkpt>
      <trkpt lat="43.63191" lon="3.35407">
        <ele>399</ele>
        <time>2021-03-09T09:35:57Z</time>
      </trkpt>
      <trkpt lat="43.63195" lon="3.35404">
        <ele>400</ele>
        <time>2021-03-09T09:35:59Z</time>
      </trkpt>
      <trkpt lat="43.63205" lon="3.35388">
        <ele>401</ele>
        <time>2021-03-09T09:36:06Z</time>
      </trkpt>
      <trkpt lat="43.63211" lon="3.35375">
        <ele>402</ele>
        <time>2021-03-09T09:36:12Z</time>
      </trkpt>
      <trkpt lat="43.63214" lon="3.3537">
        <ele>402</ele>
        <time>2021-03-09T09:36:14Z</time>
      </trkpt>
      <trkpt lat="43.63217" lon="3.35365">
        <ele>403</ele>
        <time>2021-03-09T09:36:16Z</time>
      </trkpt>
      <trkpt lat="43.63218" lon="3.3536">
        <ele>403</ele>
        <time>2021-03-09T09:36:18Z</time>
      </trkpt>
      <trkpt lat="43.63219" lon="3.35348">
        <ele>404</ele>
        <time>2021-03-09T09:36:22Z</time>
      </trkpt>
      <trkpt lat="43.6322" lon="3.35342">
        <ele>404</ele>
        <time>2021-03-09T09:36:24Z</time>
      </trkpt>
      <trkpt lat="43.63224" lon="3.35314">
        <ele>404</ele>
        <time>2021-03-09T09:36:33Z</time>
      </trkpt>
      <trkpt lat="43.63224" lon="3.35301">
        <ele>405</ele>
        <time>2021-03-09T09:36:37Z</time>
      </trkpt>
      <trkpt lat="43.63224" lon="3.35295">
        <ele>405</ele>
        <time>2021-03-09T09:36:39Z</time>
      </trkpt>
      <trkpt lat="43.63227" lon="3.35284">
        <ele>407</ele>
        <time>2021-03-09T09:36:43Z</time>
      </trkpt>
      <trkpt lat="43.63229" lon="3.35277">
        <ele>407</ele>
        <time>2021-03-09T09:36:45Z</time>
      </trkpt>
      <trkpt lat="43.63229" lon="3.35271">
        <ele>406</ele>
        <time>2021-03-09T09:36:47Z</time>
      </trkpt>
      <trkpt lat="43.63231" lon="3.35259">
        <ele>408</ele>
        <time>2021-03-09T09:36:51Z</time>
      </trkpt>
      <trkpt lat="43.63232" lon="3.35253">
        <ele>409</ele>
        <time>2021-03-09T09:36:53Z</time>
      </trkpt>
      <trkpt lat="43.63229" lon="3.35246">
        <ele>409</ele>
        <time>2021-03-09T09:36:56Z</time>
      </trkpt>
      <trkpt lat="43.63228" lon="3.35234">
        <ele>410</ele>
        <time>2021-03-09T09:37:00Z</time>
      </trkpt>
      <trkpt lat="43.63229" lon="3.35229">
        <ele>410</ele>
        <time>2021-03-09T09:37:02Z</time>
      </trkpt>
      <trkpt lat="43.6323" lon="3.35223">
        <ele>410</ele>
        <time>2021-03-09T09:37:04Z</time>
      </trkpt>
      <trkpt lat="43.63232" lon="3.35196">
        <ele>419</ele>
        <time>2021-03-09T09:37:14Z</time>
      </trkpt>
      <trkpt lat="43.63238" lon="3.35156">
        <ele>422</ele>
        <time>2021-03-09T09:37:28Z</time>
      </trkpt>
      <trkpt lat="43.63239" lon="3.3515">
        <ele>423</ele>
        <time>2021-03-09T09:37:30Z</time>
      </trkpt>
      <trkpt lat="43.63239" lon="3.3514">
        <ele>423</ele>
        <time>2021-03-09T09:37:34Z</time>
      </trkpt>
      <trkpt lat="43.63243" lon="3.35124">
        <ele>425</ele>
        <time>2021-03-09T09:37:40Z</time>
      </trkpt>
      <trkpt lat="43.63244" lon="3.35119">
        <ele>426</ele>
        <time>2021-03-09T09:37:42Z</time>
      </trkpt>
      <trkpt lat="43.6325" lon="3.35099">
        <ele>430</ele>
        <time>2021-03-09T09:37:50Z</time>
      </trkpt>
      <trkpt lat="43.63251" lon="3.35095">
        <ele>432</ele>
        <time>2021-03-09T09:37:52Z</time>
      </trkpt>
      <trkpt lat="43.63252" lon="3.3509">
        <ele>434</ele>
        <time>2021-03-09T09:37:57Z</time>
      </trkpt>
      <trkpt lat="43.63254" lon="3.35072">
        <ele>436</ele>
        <time>2021-03-09T09:38:06Z</time>
      </trkpt>
      <trkpt lat="43.63255" lon="3.35068">
        <ele>437</ele>
        <time>2021-03-09T09:38:08Z</time>
      </trkpt>
      <trkpt lat="43.63257" lon="3.35063">
        <ele>439</ele>
        <time>2021-03-09T09:38:10Z</time>
      </trkpt>
      <trkpt lat="43.63258" lon="3.35058">
        <ele>439</ele>
        <time>2021-03-09T09:38:12Z</time>
      </trkpt>
      <trkpt lat="43.63257" lon="3.35054">
        <ele>439</ele>
        <time>2021-03-09T09:38:14Z</time>
      </trkpt>
      <trkpt lat="43.63262" lon="3.35041">
        <ele>441</ele>
        <time>2021-03-09T09:38:20Z</time>
      </trkpt>
      <trkpt lat="43.63264" lon="3.35032">
        <ele>439</ele>
        <time>2021-03-09T09:38:24Z</time>
      </trkpt>
      <trkpt lat="43.63263" lon="3.35016">
        <ele>443</ele>
        <time>2021-03-09T09:38:31Z</time>
      </trkpt>
      <trkpt lat="43.63266" lon="3.35">
        <ele>447</ele>
        <time>2021-03-09T09:38:37Z</time>
      </trkpt>
      <trkpt lat="43.63267" lon="3.34977">
        <ele>449</ele>
        <time>2021-03-09T09:38:45Z</time>
      </trkpt>
      <trkpt lat="43.63269" lon="3.34966">
        <ele>450</ele>
        <time>2021-03-09T09:38:49Z</time>
      </trkpt>
      <trkpt lat="43.63271" lon="3.34934">
        <ele>450</ele>
        <time>2021-03-09T09:39:01Z</time>
      </trkpt>
      <trkpt lat="43.63272" lon="3.34928">
        <ele>452</ele>
        <time>2021-03-09T09:39:03Z</time>
      </trkpt>
      <trkpt lat="43.63282" lon="3.34901">
        <ele>454</ele>
        <time>2021-03-09T09:39:13Z</time>
      </trkpt>
      <trkpt lat="43.63284" lon="3.34894">
        <ele>454</ele>
        <time>2021-03-09T09:39:16Z</time>
      </trkpt>
      <trkpt lat="43.63285" lon="3.34877">
        <ele>454</ele>
        <time>2021-03-09T09:39:22Z</time>
      </trkpt>
      <trkpt lat="43.63285" lon="3.34871">
        <ele>454</ele>
        <time>2021-03-09T09:39:24Z</time>
      </trkpt>
      <trkpt lat="43.63287" lon="3.34866">
        <ele>455</ele>
        <time>2021-03-09T09:39:26Z</time>
      </trkpt>
      <trkpt lat="43.63288" lon="3.34862">
        <ele>455</ele>
        <time>2021-03-09T09:39:28Z</time>
      </trkpt>
      <trkpt lat="43.63289" lon="3.3485">
        <ele>456</ele>
        <time>2021-03-09T09:39:32Z</time>
      </trkpt>
      <trkpt lat="43.63292" lon="3.34838">
        <ele>456</ele>
        <time>2021-03-09T09:39:36Z</time>
      </trkpt>
      <trkpt lat="43.63293" lon="3.34834">
        <ele>456</ele>
        <time>2021-03-09T09:39:38Z</time>
      </trkpt>
      <trkpt lat="43.63294" lon="3.34828">
        <ele>457</ele>
        <time>2021-03-09T09:39:40Z</time>
      </trkpt>
      <trkpt lat="43.63296" lon="3.34823">
        <ele>456</ele>
        <time>2021-03-09T09:39:42Z</time>
      </trkpt>
      <trkpt lat="43.63298" lon="3.34818">
        <ele>457</ele>
        <time>2021-03-09T09:39:44Z</time>
      </trkpt>
      <trkpt lat="43.63301" lon="3.34813">
        <ele>458</ele>
        <time>2021-03-09T09:39:46Z</time>
      </trkpt>
      <trkpt lat="43.63301" lon="3.34799">
        <ele>458</ele>
        <time>2021-03-09T09:39:51Z</time>
      </trkpt>
      <trkpt lat="43.63303" lon="3.34794">
        <ele>459</ele>
        <time>2021-03-09T09:39:54Z</time>
      </trkpt>
      <trkpt lat="43.63306" lon="3.34787">
        <ele>461</ele>
        <time>2021-03-09T09:39:57Z</time>
      </trkpt>
      <trkpt lat="43.63308" lon="3.34783">
        <ele>463</ele>
        <time>2021-03-09T09:39:59Z</time>
      </trkpt>
      <trkpt lat="43.63309" lon="3.34778">
        <ele>463</ele>
        <time>2021-03-09T09:40:01Z</time>
      </trkpt>
      <trkpt lat="43.63312" lon="3.3477">
        <ele>465</ele>
        <time>2021-03-09T09:40:04Z</time>
      </trkpt>
      <trkpt lat="43.63313" lon="3.34766">
        <ele>466</ele>
        <time>2021-03-09T09:40:06Z</time>
      </trkpt>
      <trkpt lat="43.63315" lon="3.34761">
        <ele>468</ele>
        <time>2021-03-09T09:40:08Z</time>
      </trkpt>
      <trkpt lat="43.63317" lon="3.34758">
        <ele>468</ele>
        <time>2021-03-09T09:40:10Z</time>
      </trkpt>
      <trkpt lat="43.63317" lon="3.34752">
        <ele>467</ele>
        <time>2021-03-09T09:40:12Z</time>
      </trkpt>
      <trkpt lat="43.63319" lon="3.34747">
        <ele>467</ele>
        <time>2021-03-09T09:40:14Z</time>
      </trkpt>
      <trkpt lat="43.63325" lon="3.34738">
        <ele>468</ele>
        <time>2021-03-09T09:40:18Z</time>
      </trkpt>
      <trkpt lat="43.63328" lon="3.34732">
        <ele>468</ele>
        <time>2021-03-09T09:40:20Z</time>
      </trkpt>
      <trkpt lat="43.63337" lon="3.34714">
        <ele>468</ele>
        <time>2021-03-09T09:40:28Z</time>
      </trkpt>
      <trkpt lat="43.63337" lon="3.3471">
        <ele>468</ele>
        <time>2021-03-09T09:40:37Z</time>
      </trkpt>
      <trkpt lat="43.63338" lon="3.34707">
        <ele>467</ele>
        <time>2021-03-09T09:40:45Z</time>
      </trkpt>
      <trkpt lat="43.63341" lon="3.34706">
        <ele>468</ele>
        <time>2021-03-09T09:40:54Z</time>
      </trkpt>
      <trkpt lat="43.63341" lon="3.34701">
        <ele>468</ele>
        <time>2021-03-09T09:47:12Z</time>
      </trkpt>
      <trkpt lat="43.63344" lon="3.34688">
        <ele>469</ele>
        <time>2021-03-09T09:47:18Z</time>
      </trkpt>
      <trkpt lat="43.63345" lon="3.34682">
        <ele>468</ele>
        <time>2021-03-09T09:47:20Z</time>
      </trkpt>
      <trkpt lat="43.63347" lon="3.34676">
        <ele>468</ele>
        <time>2021-03-09T09:47:22Z</time>
      </trkpt>
      <trkpt lat="43.63349" lon="3.34658">
        <ele>469</ele>
        <time>2021-03-09T09:47:28Z</time>
      </trkpt>
      <trkpt lat="43.63349" lon="3.34645">
        <ele>470</ele>
        <time>2021-03-09T09:47:32Z</time>
      </trkpt>
      <trkpt lat="43.6335" lon="3.34638">
        <ele>470</ele>
        <time>2021-03-09T09:47:34Z</time>
      </trkpt>
      <trkpt lat="43.6335" lon="3.34625">
        <ele>472</ele>
        <time>2021-03-09T09:47:40Z</time>
      </trkpt>
      <trkpt lat="43.63352" lon="3.3461">
        <ele>474</ele>
        <time>2021-03-09T09:47:46Z</time>
      </trkpt>
      <trkpt lat="43.63352" lon="3.34595">
        <ele>475</ele>
        <time>2021-03-09T09:47:52Z</time>
      </trkpt>
      <trkpt lat="43.63352" lon="3.3459">
        <ele>475</ele>
        <time>2021-03-09T09:47:54Z</time>
      </trkpt>
      <trkpt lat="43.63351" lon="3.34585">
        <ele>476</ele>
        <time>2021-03-09T09:47:56Z</time>
      </trkpt>
      <trkpt lat="43.63351" lon="3.3458">
        <ele>479</ele>
        <time>2021-03-09T09:47:58Z</time>
      </trkpt>
      <trkpt lat="43.63351" lon="3.34566">
        <ele>482</ele>
        <time>2021-03-09T09:48:04Z</time>
      </trkpt>
      <trkpt lat="43.6335" lon="3.34556">
        <ele>480</ele>
        <time>2021-03-09T09:48:08Z</time>
      </trkpt>
      <trkpt lat="43.6335" lon="3.3454">
        <ele>477</ele>
        <time>2021-03-09T09:48:14Z</time>
      </trkpt>
      <trkpt lat="43.6335" lon="3.34535">
        <ele>476</ele>
        <time>2021-03-09T09:48:16Z</time>
      </trkpt>
      <trkpt lat="43.6335" lon="3.34525">
        <ele>477</ele>
        <time>2021-03-09T09:48:20Z</time>
      </trkpt>
      <trkpt lat="43.63349" lon="3.34512">
        <ele>481</ele>
        <time>2021-03-09T09:48:25Z</time>
      </trkpt>
      <trkpt lat="43.6335" lon="3.34502">
        <ele>482</ele>
        <time>2021-03-09T09:48:29Z</time>
      </trkpt>
      <trkpt lat="43.63349" lon="3.34482">
        <ele>486</ele>
        <time>2021-03-09T09:48:37Z</time>
      </trkpt>
      <trkpt lat="43.63354" lon="3.34451">
        <ele>486</ele>
        <time>2021-03-09T09:48:49Z</time>
      </trkpt>
      <trkpt lat="43.63362" lon="3.34433">
        <ele>485</ele>
        <time>2021-03-09T09:48:56Z</time>
      </trkpt>
      <trkpt lat="43.63367" lon="3.34415">
        <ele>484</ele>
        <time>2021-03-09T09:49:02Z</time>
      </trkpt>
      <trkpt lat="43.63369" lon="3.34409">
        <ele>485</ele>
        <time>2021-03-09T09:49:04Z</time>
      </trkpt>
      <trkpt lat="43.63372" lon="3.34405">
        <ele>486</ele>
        <time>2021-03-09T09:49:06Z</time>
      </trkpt>
      <trkpt lat="43.63379" lon="3.34394">
        <ele>488</ele>
        <time>2021-03-09T09:49:11Z</time>
      </trkpt>
      <trkpt lat="43.63387" lon="3.34381">
        <ele>489</ele>
        <time>2021-03-09T09:49:17Z</time>
      </trkpt>
      <trkpt lat="43.63402" lon="3.34371">
        <ele>489</ele>
        <time>2021-03-09T09:49:24Z</time>
      </trkpt>
      <trkpt lat="43.63405" lon="3.34367">
        <ele>488</ele>
        <time>2021-03-09T09:49:26Z</time>
      </trkpt>
      <trkpt lat="43.63406" lon="3.34364">
        <ele>486</ele>
        <time>2021-03-09T09:49:28Z</time>
      </trkpt>
      <trkpt lat="43.63407" lon="3.34358">
        <ele>486</ele>
        <time>2021-03-09T09:49:31Z</time>
      </trkpt>
      <trkpt lat="43.63406" lon="3.34353">
        <ele>485</ele>
        <time>2021-03-09T09:49:33Z</time>
      </trkpt>
      <trkpt lat="43.63406" lon="3.34343">
        <ele>481</ele>
        <time>2021-03-09T09:49:37Z</time>
      </trkpt>
      <trkpt lat="43.63405" lon="3.34339">
        <ele>480</ele>
        <time>2021-03-09T09:49:39Z</time>
      </trkpt>
      <trkpt lat="43.63404" lon="3.34334">
        <ele>479</ele>
        <time>2021-03-09T09:49:41Z</time>
      </trkpt>
      <trkpt lat="43.63403" lon="3.34329">
        <ele>478</ele>
        <time>2021-03-09T09:49:43Z</time>
      </trkpt>
      <trkpt lat="43.63407" lon="3.34321">
        <ele>476</ele>
        <time>2021-03-09T09:49:47Z</time>
      </trkpt>
      <trkpt lat="43.6341" lon="3.34317">
        <ele>476</ele>
        <time>2021-03-09T09:49:49Z</time>
      </trkpt>
      <trkpt lat="43.63414" lon="3.34314">
        <ele>475</ele>
        <time>2021-03-09T09:49:51Z</time>
      </trkpt>
      <trkpt lat="43.63421" lon="3.34309">
        <ele>473</ele>
        <time>2021-03-09T09:49:55Z</time>
      </trkpt>
      <trkpt lat="43.63423" lon="3.34307">
        <ele>472</ele>
        <time>2021-03-09T09:49:57Z</time>
      </trkpt>
      <trkpt lat="43.63426" lon="3.34303">
        <ele>470</ele>
        <time>2021-03-09T09:50:00Z</time>
      </trkpt>
      <trkpt lat="43.63429" lon="3.34301">
        <ele>469</ele>
        <time>2021-03-09T09:50:02Z</time>
      </trkpt>
      <trkpt lat="43.63432" lon="3.34299">
        <ele>468</ele>
        <time>2021-03-09T09:50:04Z</time>
      </trkpt>
      <trkpt lat="43.63443" lon="3.34285">
        <ele>464</ele>
        <time>2021-03-09T09:50:12Z</time>
      </trkpt>
      <trkpt lat="43.6345" lon="3.34278">
        <ele>465</ele>
        <time>2021-03-09T09:50:16Z</time>
      </trkpt>
      <trkpt lat="43.63452" lon="3.34275">
        <ele>466</ele>
        <time>2021-03-09T09:50:18Z</time>
      </trkpt>
      <trkpt lat="43.63451" lon="3.34268">
        <ele>465</ele>
        <time>2021-03-09T09:50:22Z</time>
      </trkpt>
      <trkpt lat="43.63451" lon="3.34264">
        <ele>463</ele>
        <time>2021-03-09T09:50:24Z</time>
      </trkpt>
      <trkpt lat="43.63452" lon="3.34258">
        <ele>461</ele>
        <time>2021-03-09T09:50:26Z</time>
      </trkpt>
      <trkpt lat="43.6345" lon="3.34248">
        <ele>459</ele>
        <time>2021-03-09T09:50:30Z</time>
      </trkpt>
      <trkpt lat="43.63449" lon="3.34243">
        <ele>459</ele>
        <time>2021-03-09T09:50:32Z</time>
      </trkpt>
      <trkpt lat="43.63448" lon="3.34237">
        <ele>457</ele>
        <time>2021-03-09T09:50:34Z</time>
      </trkpt>
      <trkpt lat="43.63443" lon="3.3423">
        <ele>454</ele>
        <time>2021-03-09T09:50:37Z</time>
      </trkpt>
      <trkpt lat="43.63433" lon="3.34209">
        <ele>450</ele>
        <time>2021-03-09T09:50:44Z</time>
      </trkpt>
      <trkpt lat="43.63425" lon="3.34198">
        <ele>448</ele>
        <time>2021-03-09T09:50:48Z</time>
      </trkpt>
      <trkpt lat="43.63422" lon="3.34194">
        <ele>446</ele>
        <time>2021-03-09T09:50:50Z</time>
      </trkpt>
      <trkpt lat="43.63421" lon="3.34191">
        <ele>445</ele>
        <time>2021-03-09T09:50:52Z</time>
      </trkpt>
      <trkpt lat="43.63419" lon="3.34176">
        <ele>441</ele>
        <time>2021-03-09T09:50:56Z</time>
      </trkpt>
      <trkpt lat="43.63418" lon="3.34171">
        <ele>441</ele>
        <time>2021-03-09T09:50:58Z</time>
      </trkpt>
      <trkpt lat="43.63416" lon="3.34168">
        <ele>436</ele>
        <time>2021-03-09T09:51:14Z</time>
      </trkpt>
      <trkpt lat="43.63413" lon="3.34166">
        <ele>435</ele>
        <time>2021-03-09T09:51:33Z</time>
      </trkpt>
      <trkpt lat="43.63391" lon="3.3414">
        <ele>430</ele>
        <time>2021-03-09T09:51:41Z</time>
      </trkpt>
      <trkpt lat="43.63385" lon="3.34131">
        <ele>428</ele>
        <time>2021-03-09T09:51:43Z</time>
      </trkpt>
      <trkpt lat="43.63382" lon="3.34118">
        <ele>426</ele>
        <time>2021-03-09T09:51:45Z</time>
      </trkpt>
      <trkpt lat="43.63377" lon="3.34095">
        <ele>422</ele>
        <time>2021-03-09T09:51:48Z</time>
      </trkpt>
      <trkpt lat="43.63347" lon="3.34034">
        <ele>414</ele>
        <time>2021-03-09T09:51:58Z</time>
      </trkpt>
      <trkpt lat="43.63341" lon="3.34025">
        <ele>413</ele>
        <time>2021-03-09T09:52:01Z</time>
      </trkpt>
      <trkpt lat="43.6334" lon="3.34022">
        <ele>412</ele>
        <time>2021-03-09T09:52:02Z</time>
      </trkpt>
      <trkpt lat="43.63338" lon="3.34011">
        <ele>410</ele>
        <time>2021-03-09T09:52:05Z</time>
      </trkpt>
      <trkpt lat="43.63329" lon="3.34004">
        <ele>406</ele>
        <time>2021-03-09T09:52:09Z</time>
      </trkpt>
      <trkpt lat="43.63297" lon="3.33998">
        <ele>402</ele>
        <time>2021-03-09T09:52:17Z</time>
      </trkpt>
      <trkpt lat="43.63273" lon="3.34003">
        <ele>400</ele>
        <time>2021-03-09T09:52:23Z</time>
      </trkpt>
      <trkpt lat="43.63257" lon="3.33994">
        <ele>400</ele>
        <time>2021-03-09T09:52:27Z</time>
      </trkpt>
      <trkpt lat="43.63254" lon="3.33991">
        <ele>400</ele>
        <time>2021-03-09T09:52:28Z</time>
      </trkpt>
      <trkpt lat="43.63251" lon="3.3398">
        <ele>399</ele>
        <time>2021-03-09T09:52:31Z</time>
      </trkpt>
      <trkpt lat="43.63249" lon="3.33974">
        <ele>397</ele>
        <time>2021-03-09T09:52:33Z</time>
      </trkpt>
      <trkpt lat="43.63247" lon="3.33968">
        <ele>396</ele>
        <time>2021-03-09T09:52:35Z</time>
      </trkpt>
      <trkpt lat="43.63236" lon="3.33958">
        <ele>395</ele>
        <time>2021-03-09T09:52:40Z</time>
      </trkpt>
      <trkpt lat="43.63231" lon="3.33948">
        <ele>394</ele>
        <time>2021-03-09T09:52:42Z</time>
      </trkpt>
      <trkpt lat="43.63225" lon="3.33934">
        <ele>392</ele>
        <time>2021-03-09T09:52:45Z</time>
      </trkpt>
      <trkpt lat="43.63224" lon="3.3393">
        <ele>391</ele>
        <time>2021-03-09T09:52:47Z</time>
      </trkpt>
      <trkpt lat="43.63226" lon="3.33925">
        <ele>390</ele>
        <time>2021-03-09T09:52:49Z</time>
      </trkpt>
      <trkpt lat="43.63227" lon="3.3392">
        <ele>389</ele>
        <time>2021-03-09T09:52:51Z</time>
      </trkpt>
      <trkpt lat="43.63202" lon="3.33889">
        <ele>381</ele>
        <time>2021-03-09T09:53:01Z</time>
      </trkpt>
      <trkpt lat="43.63199" lon="3.33882">
        <ele>379</ele>
        <time>2021-03-09T09:53:03Z</time>
      </trkpt>
      <trkpt lat="43.63198" lon="3.33869">
        <ele>376</ele>
        <time>2021-03-09T09:53:06Z</time>
      </trkpt>
      <trkpt lat="43.63196" lon="3.33866">
        <ele>376</ele>
        <time>2021-03-09T09:53:08Z</time>
      </trkpt>
      <trkpt lat="43.63192" lon="3.33865">
        <ele>376</ele>
        <time>2021-03-09T09:53:10Z</time>
      </trkpt>
      <trkpt lat="43.63188" lon="3.33862">
        <ele>375</ele>
        <time>2021-03-09T09:53:12Z</time>
      </trkpt>
      <trkpt lat="43.63185" lon="3.33861">
        <ele>374</ele>
        <time>2021-03-09T09:53:14Z</time>
      </trkpt>
      <trkpt lat="43.63181" lon="3.3386">
        <ele>374</ele>
        <time>2021-03-09T09:53:16Z</time>
      </trkpt>
      <trkpt lat="43.63179" lon="3.33855">
        <ele>374</ele>
        <time>2021-03-09T09:53:18Z</time>
      </trkpt>
      <trkpt lat="43.63179" lon="3.3385">
        <ele>371</ele>
        <time>2021-03-09T09:53:20Z</time>
      </trkpt>
      <trkpt lat="43.63178" lon="3.33846">
        <ele>370</ele>
        <time>2021-03-09T09:53:22Z</time>
      </trkpt>
      <trkpt lat="43.6316" lon="3.33833">
        <ele>365</ele>
        <time>2021-03-09T09:53:30Z</time>
      </trkpt>
      <trkpt lat="43.63155" lon="3.33826">
        <ele>363</ele>
        <time>2021-03-09T09:53:32Z</time>
      </trkpt>
      <trkpt lat="43.63153" lon="3.33817">
        <ele>362</ele>
        <time>2021-03-09T09:53:34Z</time>
      </trkpt>
      <trkpt lat="43.63152" lon="3.33812">
        <ele>361</ele>
        <time>2021-03-09T09:53:36Z</time>
      </trkpt>
      <trkpt lat="43.63152" lon="3.33807">
        <ele>360</ele>
        <time>2021-03-09T09:54:35Z</time>
      </trkpt>
      <trkpt lat="43.63153" lon="3.33802">
        <ele>360</ele>
        <time>2021-03-09T09:54:37Z</time>
      </trkpt>
      <trkpt lat="43.63168" lon="3.33792">
        <ele>359</ele>
        <time>2021-03-09T09:54:44Z</time>
      </trkpt>
      <trkpt lat="43.63178" lon="3.33791">
        <ele>361</ele>
        <time>2021-03-09T09:54:48Z</time>
      </trkpt>
      <trkpt lat="43.63214" lon="3.33797">
        <ele>369</ele>
        <time>2021-03-09T09:55:03Z</time>
      </trkpt>
      <trkpt lat="43.63218" lon="3.33794">
        <ele>371</ele>
        <time>2021-03-09T09:55:05Z</time>
      </trkpt>
      <trkpt lat="43.6322" lon="3.33789">
        <ele>371</ele>
        <time>2021-03-09T09:55:07Z</time>
      </trkpt>
      <trkpt lat="43.63222" lon="3.33784">
        <ele>372</ele>
        <time>2021-03-09T09:55:09Z</time>
      </trkpt>
      <trkpt lat="43.63225" lon="3.33765">
        <ele>371</ele>
        <time>2021-03-09T09:55:15Z</time>
      </trkpt>
      <trkpt lat="43.6323" lon="3.33754">
        <ele>371</ele>
        <time>2021-03-09T09:55:19Z</time>
      </trkpt>
      <trkpt lat="43.63244" lon="3.33698">
        <ele>372</ele>
        <time>2021-03-09T09:55:36Z</time>
      </trkpt>
      <trkpt lat="43.63244" lon="3.3369">
        <ele>373</ele>
        <time>2021-03-09T09:55:38Z</time>
      </trkpt>
      <trkpt lat="43.63242" lon="3.33682">
        <ele>373</ele>
        <time>2021-03-09T09:55:40Z</time>
      </trkpt>
      <trkpt lat="43.63245" lon="3.33644">
        <ele>371</ele>
        <time>2021-03-09T09:55:48Z</time>
      </trkpt>
      <trkpt lat="43.63248" lon="3.33635">
        <ele>371</ele>
        <time>2021-03-09T09:55:50Z</time>
      </trkpt>
      <trkpt lat="43.63254" lon="3.33626">
        <ele>373</ele>
        <time>2021-03-09T09:55:53Z</time>
      </trkpt>
      <trkpt lat="43.63285" lon="3.33588">
        <ele>377</ele>
        <time>2021-03-09T09:56:08Z</time>
      </trkpt>
      <trkpt lat="43.63372" lon="3.33514">
        <ele>374</ele>
        <time>2021-03-09T09:56:37Z</time>
      </trkpt>
      <trkpt lat="43.63397" lon="3.33487">
        <ele>377</ele>
        <time>2021-03-09T09:56:47Z</time>
      </trkpt>
      <trkpt lat="43.63399" lon="3.33484">
        <ele>377</ele>
        <time>2021-03-09T09:56:48Z</time>
      </trkpt>
      <trkpt lat="43.63399" lon="3.33479">
        <ele>377</ele>
        <time>2021-03-09T09:56:49Z</time>
      </trkpt>
      <trkpt lat="43.63399" lon="3.33474">
        <ele>376</ele>
        <time>2021-03-09T09:56:50Z</time>
      </trkpt>
      <trkpt lat="43.63398" lon="3.33468">
        <ele>375</ele>
        <time>2021-03-09T09:56:51Z</time>
      </trkpt>
      <trkpt lat="43.63388" lon="3.33444">
        <ele>371</ele>
        <time>2021-03-09T09:56:55Z</time>
      </trkpt>
      <trkpt lat="43.63376" lon="3.33401">
        <ele>365</ele>
        <time>2021-03-09T09:57:04Z</time>
      </trkpt>
      <trkpt lat="43.63376" lon="3.33397">
        <ele>363</ele>
        <time>2021-03-09T09:57:06Z</time>
      </trkpt>
      <trkpt lat="43.63379" lon="3.33395">
        <ele>365</ele>
        <time>2021-03-09T09:57:32Z</time>
      </trkpt>
      <trkpt lat="43.63383" lon="3.33395">
        <ele>366</ele>
        <time>2021-03-09T09:58:10Z</time>
      </trkpt>
      <trkpt lat="43.63399" lon="3.334">
        <ele>366</ele>
        <time>2021-03-09T09:58:40Z</time>
      </trkpt>
      <trkpt lat="43.63506" lon="3.33431">
        <ele>364</ele>
        <time>2021-03-09T09:59:11Z</time>
      </trkpt>
      <trkpt lat="43.63514" lon="3.33429">
        <ele>364</ele>
        <time>2021-03-09T09:59:13Z</time>
      </trkpt>
      <trkpt lat="43.63523" lon="3.33423">
        <ele>363</ele>
        <time>2021-03-09T09:59:15Z</time>
      </trkpt>
      <trkpt lat="43.63528" lon="3.33422">
        <ele>363</ele>
        <time>2021-03-09T09:59:16Z</time>
      </trkpt>
      <trkpt lat="43.6355" lon="3.33434">
        <ele>363</ele>
        <time>2021-03-09T09:59:22Z</time>
      </trkpt>
      <trkpt lat="43.6361" lon="3.33459">
        <ele>369</ele>
        <time>2021-03-09T09:59:40Z</time>
      </trkpt>
      <trkpt lat="43.63615" lon="3.3346">
        <ele>369</ele>
        <time>2021-03-09T09:59:42Z</time>
      </trkpt>
      <trkpt lat="43.63624" lon="3.33462">
        <ele>369</ele>
        <time>2021-03-09T09:59:46Z</time>
      </trkpt>
      <trkpt lat="43.63647" lon="3.33477">
        <ele>367</ele>
        <time>2021-03-09T09:59:54Z</time>
      </trkpt>
      <trkpt lat="43.63677" lon="3.33482">
        <ele>367</ele>
        <time>2021-03-09T10:00:02Z</time>
      </trkpt>
      <trkpt lat="43.63693" lon="3.33497">
        <ele>368</ele>
        <time>2021-03-09T10:00:09Z</time>
      </trkpt>
      <trkpt lat="43.63714" lon="3.33511">
        <ele>369</ele>
        <time>2021-03-09T10:00:18Z</time>
      </trkpt>
      <trkpt lat="43.63773" lon="3.33588">
        <ele>362</ele>
        <time>2021-03-09T10:00:43Z</time>
      </trkpt>
      <trkpt lat="43.63796" lon="3.33604">
        <ele>361</ele>
        <time>2021-03-09T10:00:50Z</time>
      </trkpt>
      <trkpt lat="43.63805" lon="3.33607">
        <ele>361</ele>
        <time>2021-03-09T10:00:52Z</time>
      </trkpt>
      <trkpt lat="43.63813" lon="3.33606">
        <ele>363</ele>
        <time>2021-03-09T10:00:54Z</time>
      </trkpt>
      <trkpt lat="43.63816" lon="3.33607">
        <ele>363</ele>
        <time>2021-03-09T10:00:55Z</time>
      </trkpt>
      <trkpt lat="43.6385" lon="3.33636">
        <ele>365</ele>
        <time>2021-03-09T10:01:07Z</time>
      </trkpt>
      <trkpt lat="43.63864" lon="3.3364">
        <ele>365</ele>
        <time>2021-03-09T10:01:11Z</time>
      </trkpt>
      <trkpt lat="43.63867" lon="3.33643">
        <ele>365</ele>
        <time>2021-03-09T10:01:12Z</time>
      </trkpt>
      <trkpt lat="43.63873" lon="3.33651">
        <ele>365</ele>
        <time>2021-03-09T10:01:14Z</time>
      </trkpt>
      <trkpt lat="43.6388" lon="3.33666">
        <ele>364</ele>
        <time>2021-03-09T10:01:17Z</time>
      </trkpt>
      <trkpt lat="43.63911" lon="3.33708">
        <ele>362</ele>
        <time>2021-03-09T10:01:27Z</time>
      </trkpt>
      <trkpt lat="43.63917" lon="3.33721">
        <ele>362</ele>
        <time>2021-03-09T10:01:30Z</time>
      </trkpt>
      <trkpt lat="43.63919" lon="3.33728">
        <ele>361</ele>
        <time>2021-03-09T10:01:32Z</time>
      </trkpt>
      <trkpt lat="43.63922" lon="3.3373">
        <ele>361</ele>
        <time>2021-03-09T10:01:34Z</time>
      </trkpt>
      <trkpt lat="43.63922" lon="3.33735">
        <ele>362</ele>
        <time>2021-03-09T10:06:00Z</time>
      </trkpt>
      <trkpt lat="43.63924" lon="3.33742">
        <ele>363</ele>
        <time>2021-03-09T10:06:02Z</time>
      </trkpt>
      <trkpt lat="43.63931" lon="3.33757">
        <ele>367</ele>
        <time>2021-03-09T10:06:08Z</time>
      </trkpt>
      <trkpt lat="43.63933" lon="3.33762">
        <ele>368</ele>
        <time>2021-03-09T10:06:10Z</time>
      </trkpt>
      <trkpt lat="43.63935" lon="3.33769">
        <ele>369</ele>
        <time>2021-03-09T10:06:12Z</time>
      </trkpt>
      <trkpt lat="43.63935" lon="3.33779">
        <ele>369</ele>
        <time>2021-03-09T10:06:16Z</time>
      </trkpt>
      <trkpt lat="43.63936" lon="3.33784">
        <ele>370</ele>
        <time>2021-03-09T10:06:18Z</time>
      </trkpt>
      <trkpt lat="43.6394" lon="3.33788">
        <ele>369</ele>
        <time>2021-03-09T10:06:20Z</time>
      </trkpt>
      <trkpt lat="43.63946" lon="3.33798">
        <ele>369</ele>
        <time>2021-03-09T10:06:24Z</time>
      </trkpt>
      <trkpt lat="43.6395" lon="3.33812">
        <ele>369</ele>
        <time>2021-03-09T10:06:28Z</time>
      </trkpt>
      <trkpt lat="43.6395" lon="3.33817">
        <ele>369</ele>
        <time>2021-03-09T10:06:30Z</time>
      </trkpt>
      <trkpt lat="43.63929" lon="3.33892">
        <ele>382</ele>
        <time>2021-03-09T10:06:57Z</time>
      </trkpt>
      <trkpt lat="43.6393" lon="3.33908">
        <ele>386</ele>
        <time>2021-03-09T10:07:03Z</time>
      </trkpt>
      <trkpt lat="43.6393" lon="3.33914">
        <ele>389</ele>
        <time>2021-03-09T10:07:05Z</time>
      </trkpt>
      <trkpt lat="43.63929" lon="3.3392">
        <ele>388</ele>
        <time>2021-03-09T10:07:07Z</time>
      </trkpt>
      <trkpt lat="43.63931" lon="3.33927">
        <ele>388</ele>
        <time>2021-03-09T10:07:09Z</time>
      </trkpt>
      <trkpt lat="43.63934" lon="3.33931">
        <ele>389</ele>
        <time>2021-03-09T10:07:11Z</time>
      </trkpt>
      <trkpt lat="43.63943" lon="3.33937">
        <ele>389</ele>
        <time>2021-03-09T10:07:15Z</time>
      </trkpt>
      <trkpt lat="43.63946" lon="3.33942">
        <ele>388</ele>
        <time>2021-03-09T10:07:17Z</time>
      </trkpt>
      <trkpt lat="43.63947" lon="3.33988">
        <ele>390</ele>
        <time>2021-03-09T10:07:31Z</time>
      </trkpt>
      <trkpt lat="43.63948" lon="3.33995">
        <ele>391</ele>
        <time>2021-03-09T10:07:34Z</time>
      </trkpt>
      <trkpt lat="43.6395" lon="3.34">
        <ele>391</ele>
        <time>2021-03-09T10:07:36Z</time>
      </trkpt>
      <trkpt lat="43.63952" lon="3.34009">
        <ele>391</ele>
        <time>2021-03-09T10:07:40Z</time>
      </trkpt>
      <trkpt lat="43.63962" lon="3.34031">
        <ele>392</ele>
        <time>2021-03-09T10:07:48Z</time>
      </trkpt>
      <trkpt lat="43.63966" lon="3.34044">
        <ele>378</ele>
        <time>2021-03-09T10:07:52Z</time>
      </trkpt>
      <trkpt lat="43.63968" lon="3.34049">
        <ele>380</ele>
        <time>2021-03-09T10:07:54Z</time>
      </trkpt>
      <trkpt lat="43.63971" lon="3.34054">
        <ele>384</ele>
        <time>2021-03-09T10:07:56Z</time>
      </trkpt>
      <trkpt lat="43.63973" lon="3.34058">
        <ele>386</ele>
        <time>2021-03-09T10:07:58Z</time>
      </trkpt>
      <trkpt lat="43.63978" lon="3.34065">
        <ele>385</ele>
        <time>2021-03-09T10:08:02Z</time>
      </trkpt>
      <trkpt lat="43.63981" lon="3.3407">
        <ele>387</ele>
        <time>2021-03-09T10:08:04Z</time>
      </trkpt>
      <trkpt lat="43.63984" lon="3.34081">
        <ele>389</ele>
        <time>2021-03-09T10:08:08Z</time>
      </trkpt>
      <trkpt lat="43.63986" lon="3.34093">
        <ele>391</ele>
        <time>2021-03-09T10:08:14Z</time>
      </trkpt>
      <trkpt lat="43.63986" lon="3.34098">
        <ele>391</ele>
        <time>2021-03-09T10:08:16Z</time>
      </trkpt>
      <trkpt lat="43.63986" lon="3.34106">
        <ele>392</ele>
        <time>2021-03-09T10:08:19Z</time>
      </trkpt>
      <trkpt lat="43.63991" lon="3.34115">
        <ele>393</ele>
        <time>2021-03-09T10:08:22Z</time>
      </trkpt>
      <trkpt lat="43.63994" lon="3.3412">
        <ele>393</ele>
        <time>2021-03-09T10:08:24Z</time>
      </trkpt>
      <trkpt lat="43.64002" lon="3.34167">
        <ele>389</ele>
        <time>2021-03-09T10:08:37Z</time>
      </trkpt>
      <trkpt lat="43.64001" lon="3.34177">
        <ele>388</ele>
        <time>2021-03-09T10:08:40Z</time>
      </trkpt>
      <trkpt lat="43.64001" lon="3.34189">
        <ele>389</ele>
        <time>2021-03-09T10:08:43Z</time>
      </trkpt>
      <trkpt lat="43.64009" lon="3.34204">
        <ele>390</ele>
        <time>2021-03-09T10:08:48Z</time>
      </trkpt>
      <trkpt lat="43.6401" lon="3.34215">
        <ele>393</ele>
        <time>2021-03-09T10:08:52Z</time>
      </trkpt>
      <trkpt lat="43.6401" lon="3.3422">
        <ele>394</ele>
        <time>2021-03-09T10:08:54Z</time>
      </trkpt>
      <trkpt lat="43.64012" lon="3.34229">
        <ele>395</ele>
        <time>2021-03-09T10:08:57Z</time>
      </trkpt>
      <trkpt lat="43.64025" lon="3.34277">
        <ele>391</ele>
        <time>2021-03-09T10:09:13Z</time>
      </trkpt>
      <trkpt lat="43.64027" lon="3.34282">
        <ele>390</ele>
        <time>2021-03-09T10:09:15Z</time>
      </trkpt>
      <trkpt lat="43.64026" lon="3.34292">
        <ele>390</ele>
        <time>2021-03-09T10:09:19Z</time>
      </trkpt>
      <trkpt lat="43.64026" lon="3.34303">
        <ele>384</ele>
        <time>2021-03-09T10:09:23Z</time>
      </trkpt>
      <trkpt lat="43.64025" lon="3.34309">
        <ele>383</ele>
        <time>2021-03-09T10:09:26Z</time>
      </trkpt>
      <trkpt lat="43.64019" lon="3.34318">
        <ele>384</ele>
        <time>2021-03-09T10:09:30Z</time>
      </trkpt>
      <trkpt lat="43.64017" lon="3.3433">
        <ele>387</ele>
        <time>2021-03-09T10:09:35Z</time>
      </trkpt>
      <trkpt lat="43.64015" lon="3.34335">
        <ele>387</ele>
        <time>2021-03-09T10:09:37Z</time>
      </trkpt>
      <trkpt lat="43.64012" lon="3.34346">
        <ele>389</ele>
        <time>2021-03-09T10:09:41Z</time>
      </trkpt>
      <trkpt lat="43.64011" lon="3.3435">
        <ele>389</ele>
        <time>2021-03-09T10:09:43Z</time>
      </trkpt>
      <trkpt lat="43.64001" lon="3.34374">
        <ele>388</ele>
        <time>2021-03-09T10:09:51Z</time>
      </trkpt>
      <trkpt lat="43.64" lon="3.3438">
        <ele>387</ele>
        <time>2021-03-09T10:09:54Z</time>
      </trkpt>
      <trkpt lat="43.63998" lon="3.34387">
        <ele>386</ele>
        <time>2021-03-09T10:09:57Z</time>
      </trkpt>
      <trkpt lat="43.63989" lon="3.34397">
        <ele>387</ele>
        <time>2021-03-09T10:10:01Z</time>
      </trkpt>
      <trkpt lat="43.63977" lon="3.34413">
        <ele>388</ele>
        <time>2021-03-09T10:10:07Z</time>
      </trkpt>
      <trkpt lat="43.63972" lon="3.3442">
        <ele>388</ele>
        <time>2021-03-09T10:10:10Z</time>
      </trkpt>
      <trkpt lat="43.63964" lon="3.34427">
        <ele>389</ele>
        <time>2021-03-09T10:10:14Z</time>
      </trkpt>
      <trkpt lat="43.63954" lon="3.34439">
        <ele>391</ele>
        <time>2021-03-09T10:10:20Z</time>
      </trkpt>
      <trkpt lat="43.63949" lon="3.34443">
        <ele>392</ele>
        <time>2021-03-09T10:10:23Z</time>
      </trkpt>
      <trkpt lat="43.63945" lon="3.34442">
        <ele>391</ele>
        <time>2021-03-09T10:10:25Z</time>
      </trkpt>
      <trkpt lat="43.63936" lon="3.34447">
        <ele>454</ele>
        <time>2021-03-09T10:10:29Z</time>
      </trkpt>
      <trkpt lat="43.63934" lon="3.34449">
        <ele>448</ele>
        <time>2021-03-09T10:10:30Z</time>
      </trkpt>
      <trkpt lat="43.63917" lon="3.34472">
        <ele>402</ele>
        <time>2021-03-09T10:10:40Z</time>
      </trkpt>
      <trkpt lat="43.63907" lon="3.34494">
        <ele>398</ele>
        <time>2021-03-09T10:10:47Z</time>
      </trkpt>
      <trkpt lat="43.63893" lon="3.34518">
        <ele>400</ele>
        <time>2021-03-09T10:10:55Z</time>
      </trkpt>
      <trkpt lat="43.6389" lon="3.34524">
        <ele>401</ele>
        <time>2021-03-09T10:10:57Z</time>
      </trkpt>
      <trkpt lat="43.63885" lon="3.34528">
        <ele>401</ele>
        <time>2021-03-09T10:10:59Z</time>
      </trkpt>
      <trkpt lat="43.63861" lon="3.34541">
        <ele>400</ele>
        <time>2021-03-09T10:11:10Z</time>
      </trkpt>
      <trkpt lat="43.63858" lon="3.34544">
        <ele>401</ele>
        <time>2021-03-09T10:11:12Z</time>
      </trkpt>
      <trkpt lat="43.63853" lon="3.34549">
        <ele>403</ele>
        <time>2021-03-09T10:11:15Z</time>
      </trkpt>
      <trkpt lat="43.63852" lon="3.34553">
        <ele>404</ele>
        <time>2021-03-09T10:11:18Z</time>
      </trkpt>
      <trkpt lat="43.63845" lon="3.34558">
        <ele>406</ele>
        <time>2021-03-09T10:11:29Z</time>
      </trkpt>
      <trkpt lat="43.63841" lon="3.34562">
        <ele>406</ele>
        <time>2021-03-09T10:11:31Z</time>
      </trkpt>
      <trkpt lat="43.63839" lon="3.34565">
        <ele>405</ele>
        <time>2021-03-09T10:11:32Z</time>
      </trkpt>
      <trkpt lat="43.63837" lon="3.34571">
        <ele>405</ele>
        <time>2021-03-09T10:11:34Z</time>
      </trkpt>
      <trkpt lat="43.63837" lon="3.34578">
        <ele>404</ele>
        <time>2021-03-09T10:11:36Z</time>
      </trkpt>
      <trkpt lat="43.63836" lon="3.34588">
        <ele>403</ele>
        <time>2021-03-09T10:11:39Z</time>
      </trkpt>
      <trkpt lat="43.63804" lon="3.34629">
        <ele>403</ele>
        <time>2021-03-09T10:11:53Z</time>
      </trkpt>
      <trkpt lat="43.63802" lon="3.34636">
        <ele>403</ele>
        <time>2021-03-09T10:11:55Z</time>
      </trkpt>
      <trkpt lat="43.63799" lon="3.34643">
        <ele>402</ele>
        <time>2021-03-09T10:11:57Z</time>
      </trkpt>
      <trkpt lat="43.63793" lon="3.34649">
        <ele>403</ele>
        <time>2021-03-09T10:12:00Z</time>
      </trkpt>
      <trkpt lat="43.63789" lon="3.34652">
        <ele>403</ele>
        <time>2021-03-09T10:12:02Z</time>
      </trkpt>
      <trkpt lat="43.63787" lon="3.34654">
        <ele>402</ele>
        <time>2021-03-09T10:12:04Z</time>
      </trkpt>
      <trkpt lat="43.63784" lon="3.34657">
        <ele>402</ele>
        <time>2021-03-09T10:12:07Z</time>
      </trkpt>
      <trkpt lat="43.63784" lon="3.34661">
        <ele>401</ele>
        <time>2021-03-09T10:12:09Z</time>
      </trkpt>
      <trkpt lat="43.63787" lon="3.34666">
        <ele>401</ele>
        <time>2021-03-09T10:12:11Z</time>
      </trkpt>
      <trkpt lat="43.63787" lon="3.34673">
        <ele>400</ele>
        <time>2021-03-09T10:12:13Z</time>
      </trkpt>
      <trkpt lat="43.63786" lon="3.34676">
        <ele>400</ele>
        <time>2021-03-09T10:12:14Z</time>
      </trkpt>
      <trkpt lat="43.63783" lon="3.34682">
        <ele>400</ele>
        <time>2021-03-09T10:12:16Z</time>
      </trkpt>
      <trkpt lat="43.63778" lon="3.34683">
        <ele>400</ele>
        <time>2021-03-09T10:12:18Z</time>
      </trkpt>
      <trkpt lat="43.63775" lon="3.34683">
        <ele>400</ele>
        <time>2021-03-09T10:12:19Z</time>
      </trkpt>
      <trkpt lat="43.63763" lon="3.34693">
        <ele>401</ele>
        <time>2021-03-09T10:12:25Z</time>
      </trkpt>
      <trkpt lat="43.6376" lon="3.34696">
        <ele>401</ele>
        <time>2021-03-09T10:12:27Z</time>
      </trkpt>
      <trkpt lat="43.63757" lon="3.34699">
        <ele>402</ele>
        <time>2021-03-09T10:12:29Z</time>
      </trkpt>
      <trkpt lat="43.63756" lon="3.34705">
        <ele>401</ele>
        <time>2021-03-09T10:12:32Z</time>
      </trkpt>
      <trkpt lat="43.63754" lon="3.34713">
        <ele>401</ele>
        <time>2021-03-09T10:12:35Z</time>
      </trkpt>
      <trkpt lat="43.63734" lon="3.34745">
        <ele>400</ele>
        <time>2021-03-09T10:12:44Z</time>
      </trkpt>
      <trkpt lat="43.63731" lon="3.34747">
        <ele>399</ele>
        <time>2021-03-09T10:12:45Z</time>
      </trkpt>
      <trkpt lat="43.63719" lon="3.34748">
        <ele>397</ele>
        <time>2021-03-09T10:12:50Z</time>
      </trkpt>
      <trkpt lat="43.63716" lon="3.34749">
        <ele>397</ele>
        <time>2021-03-09T10:12:51Z</time>
      </trkpt>
      <trkpt lat="43.63712" lon="3.3475">
        <ele>397</ele>
        <time>2021-03-09T10:12:53Z</time>
      </trkpt>
      <trkpt lat="43.63708" lon="3.34751">
        <ele>396</ele>
        <time>2021-03-09T10:12:55Z</time>
      </trkpt>
      <trkpt lat="43.63704" lon="3.34752">
        <ele>395</ele>
        <time>2021-03-09T10:12:57Z</time>
      </trkpt>
      <trkpt lat="43.637" lon="3.34754">
        <ele>394</ele>
        <time>2021-03-09T10:12:59Z</time>
      </trkpt>
      <trkpt lat="43.63691" lon="3.34761">
        <ele>393</ele>
        <time>2021-03-09T10:13:03Z</time>
      </trkpt>
      <trkpt lat="43.63682" lon="3.34771">
        <ele>394</ele>
        <time>2021-03-09T10:13:07Z</time>
      </trkpt>
      <trkpt lat="43.63678" lon="3.34783">
        <ele>394</ele>
        <time>2021-03-09T10:13:11Z</time>
      </trkpt>
      <trkpt lat="43.63675" lon="3.34787">
        <ele>394</ele>
        <time>2021-03-09T10:13:13Z</time>
      </trkpt>
      <trkpt lat="43.63671" lon="3.34788">
        <ele>394</ele>
        <time>2021-03-09T10:13:15Z</time>
      </trkpt>
      <trkpt lat="43.63667" lon="3.34787">
        <ele>394</ele>
        <time>2021-03-09T10:13:17Z</time>
      </trkpt>
      <trkpt lat="43.63664" lon="3.34787">
        <ele>394</ele>
        <time>2021-03-09T10:13:19Z</time>
      </trkpt>
      <trkpt lat="43.63662" lon="3.34791">
        <ele>395</ele>
        <time>2021-03-09T10:13:21Z</time>
      </trkpt>
      <trkpt lat="43.63661" lon="3.34797">
        <ele>395</ele>
        <time>2021-03-09T10:13:23Z</time>
      </trkpt>
      <trkpt lat="43.6366" lon="3.34804">
        <ele>394</ele>
        <time>2021-03-09T10:13:25Z</time>
      </trkpt>
      <trkpt lat="43.63657" lon="3.34813">
        <ele>394</ele>
        <time>2021-03-09T10:13:27Z</time>
      </trkpt>
      <trkpt lat="43.63651" lon="3.34822">
        <ele>394</ele>
        <time>2021-03-09T10:13:30Z</time>
      </trkpt>
      <trkpt lat="43.63625" lon="3.3484">
        <ele>394</ele>
        <time>2021-03-09T10:13:41Z</time>
      </trkpt>
      <trkpt lat="43.63622" lon="3.34844">
        <ele>394</ele>
        <time>2021-03-09T10:13:43Z</time>
      </trkpt>
      <trkpt lat="43.63621" lon="3.3485">
        <ele>396</ele>
        <time>2021-03-09T10:13:45Z</time>
      </trkpt>
      <trkpt lat="43.63616" lon="3.34868">
        <ele>396</ele>
        <time>2021-03-09T10:13:49Z</time>
      </trkpt>
      <trkpt lat="43.63592" lon="3.34905">
        <ele>393</ele>
        <time>2021-03-09T10:13:58Z</time>
      </trkpt>
      <trkpt lat="43.63588" lon="3.34916">
        <ele>392</ele>
        <time>2021-03-09T10:14:01Z</time>
      </trkpt>
      <trkpt lat="43.63579" lon="3.34929">
        <ele>391</ele>
        <time>2021-03-09T10:14:05Z</time>
      </trkpt>
      <trkpt lat="43.63577" lon="3.34933">
        <ele>392</ele>
        <time>2021-03-09T10:14:06Z</time>
      </trkpt>
      <trkpt lat="43.63577" lon="3.34937">
        <ele>391</ele>
        <time>2021-03-09T10:14:07Z</time>
      </trkpt>
      <trkpt lat="43.63578" lon="3.34944">
        <ele>390</ele>
        <time>2021-03-09T10:14:09Z</time>
      </trkpt>
      <trkpt lat="43.63577" lon="3.34951">
        <ele>389</ele>
        <time>2021-03-09T10:14:11Z</time>
      </trkpt>
      <trkpt lat="43.63573" lon="3.34958">
        <ele>387</ele>
        <time>2021-03-09T10:14:13Z</time>
      </trkpt>
      <trkpt lat="43.63566" lon="3.34967">
        <ele>385</ele>
        <time>2021-03-09T10:14:16Z</time>
      </trkpt>
      <trkpt lat="43.63545" lon="3.34978">
        <ele>382</ele>
        <time>2021-03-09T10:14:23Z</time>
      </trkpt>
      <trkpt lat="43.63542" lon="3.34979">
        <ele>381</ele>
        <time>2021-03-09T10:14:24Z</time>
      </trkpt>
      <trkpt lat="43.63537" lon="3.34982">
        <ele>381</ele>
        <time>2021-03-09T10:14:26Z</time>
      </trkpt>
      <trkpt lat="43.63533" lon="3.34989">
        <ele>380</ele>
        <time>2021-03-09T10:14:28Z</time>
      </trkpt>
      <trkpt lat="43.63531" lon="3.34997">
        <ele>378</ele>
        <time>2021-03-09T10:14:30Z</time>
      </trkpt>
      <trkpt lat="43.63531" lon="3.35013">
        <ele>374</ele>
        <time>2021-03-09T10:14:34Z</time>
      </trkpt>
      <trkpt lat="43.63531" lon="3.35019">
        <ele>370</ele>
        <time>2021-03-09T10:14:36Z</time>
      </trkpt>
      <trkpt lat="43.63528" lon="3.35024">
        <ele>369</ele>
        <time>2021-03-09T10:14:38Z</time>
      </trkpt>
      <trkpt lat="43.63524" lon="3.35029">
        <ele>367</ele>
        <time>2021-03-09T10:14:40Z</time>
      </trkpt>
      <trkpt lat="43.63523" lon="3.35038">
        <ele>365</ele>
        <time>2021-03-09T10:14:43Z</time>
      </trkpt>
      <trkpt lat="43.63517" lon="3.35057">
        <ele>362</ele>
        <time>2021-03-09T10:14:48Z</time>
      </trkpt>
      <trkpt lat="43.63517" lon="3.3507">
        <ele>360</ele>
        <time>2021-03-09T10:14:51Z</time>
      </trkpt>
      <trkpt lat="43.63521" lon="3.35099">
        <ele>356</ele>
        <time>2021-03-09T10:14:58Z</time>
      </trkpt>
      <trkpt lat="43.63517" lon="3.35108">
        <ele>356</ele>
        <time>2021-03-09T10:15:01Z</time>
      </trkpt>
      <trkpt lat="43.63514" lon="3.35122">
        <ele>358</ele>
        <time>2021-03-09T10:15:04Z</time>
      </trkpt>
      <trkpt lat="43.63507" lon="3.35134">
        <ele>356</ele>
        <time>2021-03-09T10:15:08Z</time>
      </trkpt>
      <trkpt lat="43.63504" lon="3.35136">
        <ele>356</ele>
        <time>2021-03-09T10:15:09Z</time>
      </trkpt>
      <trkpt lat="43.63496" lon="3.35138">
        <ele>355</ele>
        <time>2021-03-09T10:15:12Z</time>
      </trkpt>
      <trkpt lat="43.6349" lon="3.35138">
        <ele>354</ele>
        <time>2021-03-09T10:15:14Z</time>
      </trkpt>
      <trkpt lat="43.63487" lon="3.35139">
        <ele>354</ele>
        <time>2021-03-09T10:15:15Z</time>
      </trkpt>
      <trkpt lat="43.63481" lon="3.35144">
        <ele>353</ele>
        <time>2021-03-09T10:15:18Z</time>
      </trkpt>
      <trkpt lat="43.63478" lon="3.35147">
        <ele>351</ele>
        <time>2021-03-09T10:15:20Z</time>
      </trkpt>
      <trkpt lat="43.63477" lon="3.35152">
        <ele>349</ele>
        <time>2021-03-09T10:15:23Z</time>
      </trkpt>
      <trkpt lat="43.63469" lon="3.35147">
        <ele>345</ele>
        <time>2021-03-09T10:15:26Z</time>
      </trkpt>
      <trkpt lat="43.63459" lon="3.35143">
        <ele>345</ele>
        <time>2021-03-09T10:15:29Z</time>
      </trkpt>
      <trkpt lat="43.63448" lon="3.35136">
        <ele>343</ele>
        <time>2021-03-09T10:15:33Z</time>
      </trkpt>
      <trkpt lat="43.63442" lon="3.35137">
        <ele>342</ele>
        <time>2021-03-09T10:15:35Z</time>
      </trkpt>
      <trkpt lat="43.63439" lon="3.35139">
        <ele>342</ele>
        <time>2021-03-09T10:15:36Z</time>
      </trkpt>
      <trkpt lat="43.6343" lon="3.35156">
        <ele>338</ele>
        <time>2021-03-09T10:15:41Z</time>
      </trkpt>
      <trkpt lat="43.63423" lon="3.35172">
        <ele>338</ele>
        <time>2021-03-09T10:15:45Z</time>
      </trkpt>
      <trkpt lat="43.63397" lon="3.35218">
        <ele>333</ele>
        <time>2021-03-09T10:15:55Z</time>
      </trkpt>
      <trkpt lat="43.63383" lon="3.35262">
        <ele>330</ele>
        <time>2021-03-09T10:16:02Z</time>
      </trkpt>
      <trkpt lat="43.63368" lon="3.35353">
        <ele>322</ele>
        <time>2021-03-09T10:16:18Z</time>
      </trkpt>
      <trkpt lat="43.63368" lon="3.35382">
        <ele>317</ele>
        <time>2021-03-09T10:16:23Z</time>
      </trkpt>
      <trkpt lat="43.6336" lon="3.35409">
        <ele>317</ele>
        <time>2021-03-09T10:16:29Z</time>
      </trkpt>
      <trkpt lat="43.6336" lon="3.35413">
        <ele>316</ele>
        <time>2021-03-09T10:16:30Z</time>
      </trkpt>
      <trkpt lat="43.63373" lon="3.35448">
        <ele>312</ele>
        <time>2021-03-09T10:16:37Z</time>
      </trkpt>
      <trkpt lat="43.63383" lon="3.35506">
        <ele>306</ele>
        <time>2021-03-09T10:16:48Z</time>
      </trkpt>
      <trkpt lat="43.6339" lon="3.35523">
        <ele>304</ele>
        <time>2021-03-09T10:16:53Z</time>
      </trkpt>
      <trkpt lat="43.6346" lon="3.35643">
        <ele>290</ele>
        <time>2021-03-09T10:17:23Z</time>
      </trkpt>
      <trkpt lat="43.63473" lon="3.35669">
        <ele>283</ele>
        <time>2021-03-09T10:17:31Z</time>
      </trkpt>
      <trkpt lat="43.63475" lon="3.35675">
        <ele>283</ele>
        <time>2021-03-09T10:17:33Z</time>
      </trkpt>
      <trkpt lat="43.63475" lon="3.35692">
        <ele>281</ele>
        <time>2021-03-09T10:17:37Z</time>
      </trkpt>
      <trkpt lat="43.63467" lon="3.35732">
        <ele>279</ele>
        <time>2021-03-09T10:17:49Z</time>
      </trkpt>
      <trkpt lat="43.63461" lon="3.35753">
        <ele>278</ele>
        <time>2021-03-09T10:17:54Z</time>
      </trkpt>
      <trkpt lat="43.63459" lon="3.3577">
        <ele>275</ele>
        <time>2021-03-09T10:17:59Z</time>
      </trkpt>
      <trkpt lat="43.63456" lon="3.35781">
        <ele>273</ele>
        <time>2021-03-09T10:18:03Z</time>
      </trkpt>
      <trkpt lat="43.63457" lon="3.35796">
        <ele>273</ele>
        <time>2021-03-09T10:18:12Z</time>
      </trkpt>
      <trkpt lat="43.63459" lon="3.35799">
        <ele>271</ele>
        <time>2021-03-09T10:20:19Z</time>
      </trkpt>
      <trkpt lat="43.63463" lon="3.35803">
        <ele>271</ele>
        <time>2021-03-09T10:21:02Z</time>
      </trkpt>
      <trkpt lat="43.63467" lon="3.35807">
        <ele>272</ele>
        <time>2021-03-09T10:21:04Z</time>
      </trkpt>
      <trkpt lat="43.6347" lon="3.35812">
        <ele>272</ele>
        <time>2021-03-09T10:21:06Z</time>
      </trkpt>
      <trkpt lat="43.63472" lon="3.35826">
        <ele>272</ele>
        <time>2021-03-09T10:21:10Z</time>
      </trkpt>
      <trkpt lat="43.63468" lon="3.35836">
        <ele>270</ele>
        <time>2021-03-09T10:21:13Z</time>
      </trkpt>
      <trkpt lat="43.63466" lon="3.35841">
        <ele>270</ele>
        <time>2021-03-09T10:21:15Z</time>
      </trkpt>
      <trkpt lat="43.63468" lon="3.35892">
        <ele>270</ele>
        <time>2021-03-09T10:21:29Z</time>
      </trkpt>
      <trkpt lat="43.63464" lon="3.35922">
        <ele>265</ele>
        <time>2021-03-09T10:21:36Z</time>
      </trkpt>
      <trkpt lat="43.63473" lon="3.35973">
        <ele>265</ele>
        <time>2021-03-09T10:21:49Z</time>
      </trkpt>
      <trkpt lat="43.63473" lon="3.35977">
        <ele>266</ele>
        <time>2021-03-09T10:21:50Z</time>
      </trkpt>
      <trkpt lat="43.63473" lon="3.35981">
        <ele>266</ele>
        <time>2021-03-09T10:21:51Z</time>
      </trkpt>
      <trkpt lat="43.63477" lon="3.35993">
        <ele>264</ele>
        <time>2021-03-09T10:21:55Z</time>
      </trkpt>
      <trkpt lat="43.6348" lon="3.35996">
        <ele>263</ele>
        <time>2021-03-09T10:21:57Z</time>
      </trkpt>
      <trkpt lat="43.63483" lon="3.35999">
        <ele>258</ele>
        <time>2021-03-09T10:21:59Z</time>
      </trkpt>
      <trkpt lat="43.63491" lon="3.36007">
        <ele>253</ele>
        <time>2021-03-09T10:22:03Z</time>
      </trkpt>
      <trkpt lat="43.635" lon="3.3602">
        <ele>248</ele>
        <time>2021-03-09T10:22:08Z</time>
      </trkpt>
      <trkpt lat="43.635" lon="3.36025">
        <ele>247</ele>
        <time>2021-03-09T10:22:10Z</time>
      </trkpt>
      <trkpt lat="43.63501" lon="3.36032">
        <ele>247</ele>
        <time>2021-03-09T10:22:12Z</time>
      </trkpt>
      <trkpt lat="43.63499" lon="3.36039">
        <ele>246</ele>
        <time>2021-03-09T10:22:14Z</time>
      </trkpt>
      <trkpt lat="43.63484" lon="3.36056">
        <ele>244</ele>
        <time>2021-03-09T10:22:21Z</time>
      </trkpt>
      <trkpt lat="43.63475" lon="3.36062">
        <ele>244</ele>
        <time>2021-03-09T10:22:24Z</time>
      </trkpt>
      <trkpt lat="43.63471" lon="3.36069">
        <ele>245</ele>
        <time>2021-03-09T10:22:26Z</time>
      </trkpt>
      <trkpt lat="43.63469" lon="3.36071">
        <ele>244</ele>
        <time>2021-03-09T10:22:29Z</time>
      </trkpt>
      <trkpt lat="43.63467" lon="3.36075">
        <ele>240</ele>
        <time>2021-03-09T10:24:31Z</time>
      </trkpt>
      <trkpt lat="43.63466" lon="3.36081">
        <ele>239</ele>
        <time>2021-03-09T10:24:33Z</time>
      </trkpt>
      <trkpt lat="43.63467" lon="3.36103">
        <ele>237</ele>
        <time>2021-03-09T10:24:39Z</time>
      </trkpt>
      <trkpt lat="43.63471" lon="3.36201">
        <ele>240</ele>
        <time>2021-03-09T10:25:02Z</time>
      </trkpt>
      <trkpt lat="43.63473" lon="3.36209">
        <ele>240</ele>
        <time>2021-03-09T10:25:04Z</time>
      </trkpt>
      <trkpt lat="43.63477" lon="3.36214">
        <ele>241</ele>
        <time>2021-03-09T10:25:06Z</time>
      </trkpt>
      <trkpt lat="43.63491" lon="3.36217">
        <ele>243</ele>
        <time>2021-03-09T10:25:10Z</time>
      </trkpt>
      <trkpt lat="43.63504" lon="3.3623">
        <ele>239</ele>
        <time>2021-03-09T10:25:15Z</time>
      </trkpt>
      <trkpt lat="43.63509" lon="3.36239">
        <ele>239</ele>
        <time>2021-03-09T10:25:17Z</time>
      </trkpt>
      <trkpt lat="43.63518" lon="3.36268">
        <ele>238</ele>
        <time>2021-03-09T10:25:23Z</time>
      </trkpt>
      <trkpt lat="43.63528" lon="3.36313">
        <ele>235</ele>
        <time>2021-03-09T10:25:30Z</time>
      </trkpt>
      <trkpt lat="43.63526" lon="3.36347">
        <ele>233</ele>
        <time>2021-03-09T10:25:35Z</time>
      </trkpt>
      <trkpt lat="43.63535" lon="3.36379">
        <ele>229</ele>
        <time>2021-03-09T10:25:40Z</time>
      </trkpt>
      <trkpt lat="43.6354" lon="3.36386">
        <ele>228</ele>
        <time>2021-03-09T10:25:41Z</time>
      </trkpt>
      <trkpt lat="43.63552" lon="3.36426">
        <ele>226</ele>
        <time>2021-03-09T10:25:46Z</time>
      </trkpt>
      <trkpt lat="43.63556" lon="3.36457">
        <ele>225</ele>
        <time>2021-03-09T10:25:51Z</time>
      </trkpt>
      <trkpt lat="43.63555" lon="3.36461">
        <ele>226</ele>
        <time>2021-03-09T10:25:52Z</time>
      </trkpt>
      <trkpt lat="43.63555" lon="3.3647">
        <ele>226</ele>
        <time>2021-03-09T10:25:54Z</time>
      </trkpt>
      <trkpt lat="43.6356" lon="3.36491">
        <ele>225</ele>
        <time>2021-03-09T10:25:57Z</time>
      </trkpt>
      <trkpt lat="43.63588" lon="3.36554">
        <ele>228</ele>
        <time>2021-03-09T10:26:07Z</time>
      </trkpt>
      <trkpt lat="43.63591" lon="3.36561">
        <ele>227</ele>
        <time>2021-03-09T10:26:08Z</time>
      </trkpt>
      <trkpt lat="43.63591" lon="3.36584">
        <ele>227</ele>
        <time>2021-03-09T10:26:12Z</time>
      </trkpt>
      <trkpt lat="43.63591" lon="3.36622">
        <ele>225</ele>
        <time>2021-03-09T10:26:18Z</time>
      </trkpt>
      <trkpt lat="43.63589" lon="3.36632">
        <ele>225</ele>
        <time>2021-03-09T10:26:20Z</time>
      </trkpt>
      <trkpt lat="43.63587" lon="3.36635">
        <ele>224</ele>
        <time>2021-03-09T10:26:21Z</time>
      </trkpt>
      <trkpt lat="43.63581" lon="3.36666">
        <ele>221</ele>
        <time>2021-03-09T10:26:29Z</time>
      </trkpt>
      <trkpt lat="43.63579" lon="3.367">
        <ele>220</ele>
        <time>2021-03-09T10:26:33Z</time>
      </trkpt>
      <trkpt lat="43.63584" lon="3.36729">
        <ele>220</ele>
        <time>2021-03-09T10:26:36Z</time>
      </trkpt>
      <trkpt lat="43.63595" lon="3.36754">
        <ele>222</ele>
        <time>2021-03-09T10:26:39Z</time>
      </trkpt>
      <trkpt lat="43.63601" lon="3.3677">
        <ele>220</ele>
        <time>2021-03-09T10:26:41Z</time>
      </trkpt>
      <trkpt lat="43.6358" lon="3.36946">
        <ele>230</ele>
        <time>2021-03-09T10:27:12Z</time>
      </trkpt>
      <trkpt lat="43.63572" lon="3.3698">
        <ele>233</ele>
        <time>2021-03-09T10:27:20Z</time>
      </trkpt>
      <trkpt lat="43.63572" lon="3.36988">
        <ele>234</ele>
        <time>2021-03-09T10:27:22Z</time>
      </trkpt>
      <trkpt lat="43.63565" lon="3.37008">
        <ele>235</ele>
        <time>2021-03-09T10:27:27Z</time>
      </trkpt>
      <trkpt lat="43.63556" lon="3.37025">
        <ele>236</ele>
        <time>2021-03-09T10:27:31Z</time>
      </trkpt>
      <trkpt lat="43.63523" lon="3.3714">
        <ele>229</ele>
        <time>2021-03-09T10:27:46Z</time>
      </trkpt>
      <trkpt lat="43.6351" lon="3.37174">
        <ele>227</ele>
        <time>2021-03-09T10:27:50Z</time>
      </trkpt>
      <trkpt lat="43.6351" lon="3.37183">
        <ele>228</ele>
        <time>2021-03-09T10:27:51Z</time>
      </trkpt>
      <trkpt lat="43.63519" lon="3.37235">
        <ele>226</ele>
        <time>2021-03-09T10:27:57Z</time>
      </trkpt>
      <trkpt lat="43.63522" lon="3.37244">
        <ele>226</ele>
        <time>2021-03-09T10:27:58Z</time>
      </trkpt>
      <trkpt lat="43.63544" lon="3.37281">
        <ele>222</ele>
        <time>2021-03-09T10:28:03Z</time>
      </trkpt>
      <trkpt lat="43.63548" lon="3.373">
        <ele>220</ele>
        <time>2021-03-09T10:28:05Z</time>
      </trkpt>
      <trkpt lat="43.63539" lon="3.37368">
        <ele>215</ele>
        <time>2021-03-09T10:28:12Z</time>
      </trkpt>
      <trkpt lat="43.63547" lon="3.37409">
        <ele>215</ele>
        <time>2021-03-09T10:28:16Z</time>
      </trkpt>
      <trkpt lat="43.63563" lon="3.37456">
        <ele>211</ele>
        <time>2021-03-09T10:28:21Z</time>
      </trkpt>
      <trkpt lat="43.63574" lon="3.37511">
        <ele>206</ele>
        <time>2021-03-09T10:28:33Z</time>
      </trkpt>
      <trkpt lat="43.63578" lon="3.37558">
        <ele>205</ele>
        <time>2021-03-09T10:28:45Z</time>
      </trkpt>
      <trkpt lat="43.63588" lon="3.37626">
        <ele>196</ele>
        <time>2021-03-09T10:28:55Z</time>
      </trkpt>
      <trkpt lat="43.63595" lon="3.37641">
        <ele>195</ele>
        <time>2021-03-09T10:28:57Z</time>
      </trkpt>
      <trkpt lat="43.63605" lon="3.37655">
        <ele>193</ele>
        <time>2021-03-09T10:28:59Z</time>
      </trkpt>
      <trkpt lat="43.6365" lon="3.37683">
        <ele>192</ele>
        <time>2021-03-09T10:29:06Z</time>
      </trkpt>
      <trkpt lat="43.63655" lon="3.37689">
        <ele>191</ele>
        <time>2021-03-09T10:29:07Z</time>
      </trkpt>
      <trkpt lat="43.63658" lon="3.37696">
        <ele>191</ele>
        <time>2021-03-09T10:29:08Z</time>
      </trkpt>
      <trkpt lat="43.63664" lon="3.37764">
        <ele>190</ele>
        <time>2021-03-09T10:29:16Z</time>
      </trkpt>
      <trkpt lat="43.63659" lon="3.37871">
        <ele>186</ele>
        <time>2021-03-09T10:29:28Z</time>
      </trkpt>
      <trkpt lat="43.63649" lon="3.3791">
        <ele>186</ele>
        <time>2021-03-09T10:29:33Z</time>
      </trkpt>
      <trkpt lat="43.63618" lon="3.37977">
        <ele>186</ele>
        <time>2021-03-09T10:29:44Z</time>
      </trkpt>
      <trkpt lat="43.63616" lon="3.37993">
        <ele>185</ele>
        <time>2021-03-09T10:29:46Z</time>
      </trkpt>
      <trkpt lat="43.63613" lon="3.38001">
        <ele>184</ele>
        <time>2021-03-09T10:29:47Z</time>
      </trkpt>
      <trkpt lat="43.63607" lon="3.38011">
        <ele>183</ele>
        <time>2021-03-09T10:29:49Z</time>
      </trkpt>
      <trkpt lat="43.63605" lon="3.38015">
        <ele>185</ele>
        <time>2021-03-09T10:29:50Z</time>
      </trkpt>
      <trkpt lat="43.63604" lon="3.3802">
        <ele>185</ele>
        <time>2021-03-09T10:29:51Z</time>
      </trkpt>
      <trkpt lat="43.63605" lon="3.38024">
        <ele>185</ele>
        <time>2021-03-09T10:29:52Z</time>
      </trkpt>
      <trkpt lat="43.63608" lon="3.38027">
        <ele>185</ele>
        <time>2021-03-09T10:29:53Z</time>
      </trkpt>
      <trkpt lat="43.63615" lon="3.38027">
        <ele>186</ele>
        <time>2021-03-09T10:29:55Z</time>
      </trkpt>
      <trkpt lat="43.6362" lon="3.38036">
        <ele>185</ele>
        <time>2021-03-09T10:29:58Z</time>
      </trkpt>
      <trkpt lat="43.63651" lon="3.38144">
        <ele>184</ele>
        <time>2021-03-09T10:30:22Z</time>
      </trkpt>
      <trkpt lat="43.63652" lon="3.38156">
        <ele>184</ele>
        <time>2021-03-09T10:30:24Z</time>
      </trkpt>
      <trkpt lat="43.63653" lon="3.38169">
        <ele>183</ele>
        <time>2021-03-09T10:30:26Z</time>
      </trkpt>
      <trkpt lat="43.63653" lon="3.38176">
        <ele>183</ele>
        <time>2021-03-09T10:30:27Z</time>
      </trkpt>
      <trkpt lat="43.63652" lon="3.38181">
        <ele>182</ele>
        <time>2021-03-09T10:30:28Z</time>
      </trkpt>
      <trkpt lat="43.63646" lon="3.38195">
        <ele>182</ele>
        <time>2021-03-09T10:30:31Z</time>
      </trkpt>
      <trkpt lat="43.63643" lon="3.38219">
        <ele>181</ele>
        <time>2021-03-09T10:30:35Z</time>
      </trkpt>
      <trkpt lat="43.63643" lon="3.38224">
        <ele>180</ele>
        <time>2021-03-09T10:30:36Z</time>
      </trkpt>
      <trkpt lat="43.63652" lon="3.3823">
        <ele>180</ele>
        <time>2021-03-09T10:30:39Z</time>
      </trkpt>
      <trkpt lat="43.63656" lon="3.3823">
        <ele>180</ele>
        <time>2021-03-09T10:30:40Z</time>
      </trkpt>
      <trkpt lat="43.63664" lon="3.38228">
        <ele>179</ele>
        <time>2021-03-09T10:30:42Z</time>
      </trkpt>
      <trkpt lat="43.63674" lon="3.38218">
        <ele>180</ele>
        <time>2021-03-09T10:30:45Z</time>
      </trkpt>
      <trkpt lat="43.63699" lon="3.3821">
        <ele>178</ele>
        <time>2021-03-09T10:30:51Z</time>
      </trkpt>
      <trkpt lat="43.63703" lon="3.38211">
        <ele>178</ele>
        <time>2021-03-09T10:30:52Z</time>
      </trkpt>
      <trkpt lat="43.63715" lon="3.3822">
        <ele>177</ele>
        <time>2021-03-09T10:30:55Z</time>
      </trkpt>
      <trkpt lat="43.63739" lon="3.38226">
        <ele>176</ele>
        <time>2021-03-09T10:31:00Z</time>
      </trkpt>
      <trkpt lat="43.63743" lon="3.38226">
        <ele>176</ele>
        <time>2021-03-09T10:31:01Z</time>
      </trkpt>
      <trkpt lat="43.6376" lon="3.38223">
        <ele>172</ele>
        <time>2021-03-09T10:31:06Z</time>
      </trkpt>
      <trkpt lat="43.63765" lon="3.38223">
        <ele>171</ele>
        <time>2021-03-09T10:31:07Z</time>
      </trkpt>
      <trkpt lat="43.63768" lon="3.38226">
        <ele>171</ele>
        <time>2021-03-09T10:31:08Z</time>
      </trkpt>
      <trkpt lat="43.63774" lon="3.38233">
        <ele>171</ele>
        <time>2021-03-09T10:31:10Z</time>
      </trkpt>
      <trkpt lat="43.63777" lon="3.38237">
        <ele>171</ele>
        <time>2021-03-09T10:31:11Z</time>
      </trkpt>
      <trkpt lat="43.63784" lon="3.38242">
        <ele>171</ele>
        <time>2021-03-09T10:31:13Z</time>
      </trkpt>
      <trkpt lat="43.63791" lon="3.38253">
        <ele>172</ele>
        <time>2021-03-09T10:31:16Z</time>
      </trkpt>
      <trkpt lat="43.63794" lon="3.38255">
        <ele>173</ele>
        <time>2021-03-09T10:31:18Z</time>
      </trkpt>
      <trkpt lat="43.63805" lon="3.38261">
        <ele>171</ele>
        <time>2021-03-09T10:31:22Z</time>
      </trkpt>
      <trkpt lat="43.63813" lon="3.38265">
        <ele>171</ele>
        <time>2021-03-09T10:31:24Z</time>
      </trkpt>
      <trkpt lat="43.6382" lon="3.38275">
        <ele>170</ele>
        <time>2021-03-09T10:31:26Z</time>
      </trkpt>
      <trkpt lat="43.63827" lon="3.38285">
        <ele>171</ele>
        <time>2021-03-09T10:31:28Z</time>
      </trkpt>
      <trkpt lat="43.63834" lon="3.3829">
        <ele>170</ele>
        <time>2021-03-09T10:31:30Z</time>
      </trkpt>
      <trkpt lat="43.63838" lon="3.38289">
        <ele>169</ele>
        <time>2021-03-09T10:31:31Z</time>
      </trkpt>
      <trkpt lat="43.63846" lon="3.3829">
        <ele>169</ele>
        <time>2021-03-09T10:31:33Z</time>
      </trkpt>
      <trkpt lat="43.63868" lon="3.38308">
        <ele>166</ele>
        <time>2021-03-09T10:31:40Z</time>
      </trkpt>
      <trkpt lat="43.63871" lon="3.38309">
        <ele>166</ele>
        <time>2021-03-09T10:31:41Z</time>
      </trkpt>
      <trkpt lat="43.63875" lon="3.38309">
        <ele>164</ele>
        <time>2021-03-09T10:31:42Z</time>
      </trkpt>
      <trkpt lat="43.63881" lon="3.38304">
        <ele>162</ele>
        <time>2021-03-09T10:31:44Z</time>
      </trkpt>
      <trkpt lat="43.63893" lon="3.38304">
        <ele>162</ele>
        <time>2021-03-09T10:31:47Z</time>
      </trkpt>
      <trkpt lat="43.63897" lon="3.38307">
        <ele>162</ele>
        <time>2021-03-09T10:31:48Z</time>
      </trkpt>
      <trkpt lat="43.63922" lon="3.3833">
        <ele>161</ele>
        <time>2021-03-09T10:31:55Z</time>
      </trkpt>
      <trkpt lat="43.6393" lon="3.38331">
        <ele>163</ele>
        <time>2021-03-09T10:31:58Z</time>
      </trkpt>
      <trkpt lat="43.63935" lon="3.38321">
        <ele>165</ele>
        <time>2021-03-09T10:32:02Z</time>
      </trkpt>
      <trkpt lat="43.63937" lon="3.38318">
        <ele>165</ele>
        <time>2021-03-09T10:32:03Z</time>
      </trkpt>
      <trkpt lat="43.63943" lon="3.38316">
        <ele>166</ele>
        <time>2021-03-09T10:32:06Z</time>
      </trkpt>
      <trkpt lat="43.63945" lon="3.38319">
        <ele>166</ele>
        <time>2021-03-09T10:32:09Z</time>
      </trkpt>
      <trkpt lat="43.63948" lon="3.38322">
        <ele>167</ele>
        <time>2021-03-09T10:32:17Z</time>
      </trkpt>
      <trkpt lat="43.63951" lon="3.38322">
        <ele>166</ele>
        <time>2021-03-09T10:32:19Z</time>
      </trkpt>
      <trkpt lat="43.63958" lon="3.38311">
        <ele>167</ele>
        <time>2021-03-09T10:32:25Z</time>
      </trkpt>
      <trkpt lat="43.6397" lon="3.38295">
        <ele>167</ele>
        <time>2021-03-09T10:32:31Z</time>
      </trkpt>
      <trkpt lat="43.63977" lon="3.38288">
        <ele>166</ele>
        <time>2021-03-09T10:32:33Z</time>
      </trkpt>
      <trkpt lat="43.63992" lon="3.38287">
        <ele>165</ele>
        <time>2021-03-09T10:32:36Z</time>
      </trkpt>
      <trkpt lat="43.64012" lon="3.38296">
        <ele>163</ele>
        <time>2021-03-09T10:32:40Z</time>
      </trkpt>
      <trkpt lat="43.64022" lon="3.38297">
        <ele>161</ele>
        <time>2021-03-09T10:32:42Z</time>
      </trkpt>
      <trkpt lat="43.64045" lon="3.38303">
        <ele>158</ele>
        <time>2021-03-09T10:32:47Z</time>
      </trkpt>
      <trkpt lat="43.64051" lon="3.38306">
        <ele>158</ele>
        <time>2021-03-09T10:32:48Z</time>
      </trkpt>
      <trkpt lat="43.64059" lon="3.38302">
        <ele>157</ele>
        <time>2021-03-09T10:32:50Z</time>
      </trkpt>
      <trkpt lat="43.64068" lon="3.383">
        <ele>158</ele>
        <time>2021-03-09T10:32:52Z</time>
      </trkpt>
      <trkpt lat="43.64072" lon="3.383">
        <ele>159</ele>
        <time>2021-03-09T10:32:53Z</time>
      </trkpt>
      <trkpt lat="43.64082" lon="3.3831">
        <ele>160</ele>
        <time>2021-03-09T10:32:57Z</time>
      </trkpt>
      <trkpt lat="43.64086" lon="3.38312">
        <ele>160</ele>
        <time>2021-03-09T10:32:58Z</time>
      </trkpt>
      <trkpt lat="43.64089" lon="3.38314">
        <ele>160</ele>
        <time>2021-03-09T10:32:59Z</time>
      </trkpt>
      <trkpt lat="43.64096" lon="3.38321">
        <ele>160</ele>
        <time>2021-03-09T10:33:01Z</time>
      </trkpt>
      <trkpt lat="43.64105" lon="3.38328">
        <ele>160</ele>
        <time>2021-03-09T10:33:03Z</time>
      </trkpt>
      <trkpt lat="43.64118" lon="3.38334">
        <ele>158</ele>
        <time>2021-03-09T10:33:06Z</time>
      </trkpt>
      <trkpt lat="43.64122" lon="3.38335">
        <ele>158</ele>
        <time>2021-03-09T10:33:07Z</time>
      </trkpt>
      <trkpt lat="43.64125" lon="3.38332">
        <ele>158</ele>
        <time>2021-03-09T10:33:08Z</time>
      </trkpt>
      <trkpt lat="43.64129" lon="3.38332">
        <ele>158</ele>
        <time>2021-03-09T10:33:09Z</time>
      </trkpt>
      <trkpt lat="43.64132" lon="3.38333">
        <ele>159</ele>
        <time>2021-03-09T10:33:10Z</time>
      </trkpt>
      <trkpt lat="43.6414" lon="3.38338">
        <ele>158</ele>
        <time>2021-03-09T10:33:12Z</time>
      </trkpt>
      <trkpt lat="43.64147" lon="3.38348">
        <ele>157</ele>
        <time>2021-03-09T10:33:14Z</time>
      </trkpt>
      <trkpt lat="43.6415" lon="3.38353">
        <ele>156</ele>
        <time>2021-03-09T10:33:15Z</time>
      </trkpt>
      <trkpt lat="43.64153" lon="3.38368">
        <ele>156</ele>
        <time>2021-03-09T10:33:18Z</time>
      </trkpt>
      <trkpt lat="43.6416" lon="3.38375">
        <ele>154</ele>
        <time>2021-03-09T10:33:21Z</time>
      </trkpt>
      <trkpt lat="43.64164" lon="3.38377">
        <ele>153</ele>
        <time>2021-03-09T10:33:22Z</time>
      </trkpt>
      <trkpt lat="43.6417" lon="3.38373">
        <ele>153</ele>
        <time>2021-03-09T10:33:24Z</time>
      </trkpt>
      <trkpt lat="43.64173" lon="3.3837">
        <ele>152</ele>
        <time>2021-03-09T10:33:25Z</time>
      </trkpt>
      <trkpt lat="43.64178" lon="3.38368">
        <ele>153</ele>
        <time>2021-03-09T10:33:27Z</time>
      </trkpt>
      <trkpt lat="43.64183" lon="3.38365">
        <ele>154</ele>
        <time>2021-03-09T10:33:29Z</time>
      </trkpt>
      <trkpt lat="43.64186" lon="3.38348">
        <ele>155</ele>
        <time>2021-03-09T10:33:32Z</time>
      </trkpt>
      <trkpt lat="43.64188" lon="3.38342">
        <ele>155</ele>
        <time>2021-03-09T10:33:33Z</time>
      </trkpt>
      <trkpt lat="43.64195" lon="3.3833">
        <ele>155</ele>
        <time>2021-03-09T10:33:36Z</time>
      </trkpt>
      <trkpt lat="43.64199" lon="3.38328">
        <ele>155</ele>
        <time>2021-03-09T10:33:37Z</time>
      </trkpt>
      <trkpt lat="43.64205" lon="3.38329">
        <ele>155</ele>
        <time>2021-03-09T10:33:39Z</time>
      </trkpt>
      <trkpt lat="43.64208" lon="3.38333">
        <ele>155</ele>
        <time>2021-03-09T10:33:40Z</time>
      </trkpt>
      <trkpt lat="43.64215" lon="3.38339">
        <ele>154</ele>
        <time>2021-03-09T10:33:42Z</time>
      </trkpt>
      <trkpt lat="43.6423" lon="3.38356">
        <ele>151</ele>
        <time>2021-03-09T10:33:46Z</time>
      </trkpt>
      <trkpt lat="43.64237" lon="3.38367">
        <ele>150</ele>
        <time>2021-03-09T10:33:48Z</time>
      </trkpt>
      <trkpt lat="43.64242" lon="3.38381">
        <ele>147</ele>
        <time>2021-03-09T10:33:51Z</time>
      </trkpt>
      <trkpt lat="43.64242" lon="3.38396">
        <ele>146</ele>
        <time>2021-03-09T10:33:53Z</time>
      </trkpt>
      <trkpt lat="43.64237" lon="3.38452">
        <ele>144</ele>
        <time>2021-03-09T10:34:02Z</time>
      </trkpt>
      <trkpt lat="43.64238" lon="3.38461">
        <ele>144</ele>
        <time>2021-03-09T10:34:04Z</time>
      </trkpt>
      <trkpt lat="43.64232" lon="3.38558">
        <ele>145</ele>
        <time>2021-03-09T10:34:25Z</time>
      </trkpt>
      <trkpt lat="43.64235" lon="3.38575">
        <ele>146</ele>
        <time>2021-03-09T10:34:29Z</time>
      </trkpt>
      <trkpt lat="43.64239" lon="3.3859">
        <ele>146</ele>
        <time>2021-03-09T10:34:32Z</time>
      </trkpt>
      <trkpt lat="43.64298" lon="3.38715">
        <ele>147</ele>
        <time>2021-03-09T10:34:55Z</time>
      </trkpt>
      <trkpt lat="43.6431" lon="3.38727">
        <ele>147</ele>
        <time>2021-03-09T10:34:58Z</time>
      </trkpt>
      <trkpt lat="43.6433" lon="3.38747">
        <ele>149</ele>
        <time>2021-03-09T10:35:04Z</time>
      </trkpt>
      <trkpt lat="43.64336" lon="3.38756">
        <ele>150</ele>
        <time>2021-03-09T10:35:06Z</time>
      </trkpt>
      <trkpt lat="43.6434" lon="3.38767">
        <ele>149</ele>
        <time>2021-03-09T10:35:08Z</time>
      </trkpt>
      <trkpt lat="43.64341" lon="3.3878">
        <ele>150</ele>
        <time>2021-03-09T10:35:10Z</time>
      </trkpt>
      <trkpt lat="43.64323" lon="3.38891">
        <ele>148</ele>
        <time>2021-03-09T10:35:28Z</time>
      </trkpt>
      <trkpt lat="43.64323" lon="3.38903">
        <ele>147</ele>
        <time>2021-03-09T10:35:30Z</time>
      </trkpt>
      <trkpt lat="43.6433" lon="3.38926">
        <ele>147</ele>
        <time>2021-03-09T10:35:34Z</time>
      </trkpt>
      <trkpt lat="43.64401" lon="3.39051">
        <ele>149</ele>
        <time>2021-03-09T10:36:01Z</time>
      </trkpt>
      <trkpt lat="43.64404" lon="3.39057">
        <ele>149</ele>
        <time>2021-03-09T10:36:03Z</time>
      </trkpt>
      <trkpt lat="43.64404" lon="3.39063">
        <ele>149</ele>
        <time>2021-03-09T10:36:05Z</time>
      </trkpt>
      <trkpt lat="43.64401" lon="3.39066">
        <ele>150</ele>
        <time>2021-03-09T10:36:07Z</time>
      </trkpt>
      <trkpt lat="43.64398" lon="3.39069">
        <ele>150</ele>
        <time>2021-03-09T10:36:09Z</time>
      </trkpt>
      <trkpt lat="43.64397" lon="3.39073">
        <ele>150</ele>
        <time>2021-03-09T10:36:11Z</time>
      </trkpt>
      <trkpt lat="43.64397" lon="3.39078">
        <ele>150</ele>
        <time>2021-03-09T10:36:13Z</time>
      </trkpt>
      <trkpt lat="43.64403" lon="3.39091">
        <ele>151</ele>
        <time>2021-03-09T10:36:20Z</time>
      </trkpt>
      <trkpt lat="43.64406" lon="3.39117">
        <ele>151</ele>
        <time>2021-03-09T10:36:28Z</time>
      </trkpt>
      <trkpt lat="43.64404" lon="3.39129">
        <ele>151</ele>
        <time>2021-03-09T10:36:31Z</time>
      </trkpt>
      <trkpt lat="43.64401" lon="3.39136">
        <ele>151</ele>
        <time>2021-03-09T10:36:33Z</time>
      </trkpt>
      <trkpt lat="43.64386" lon="3.39152">
        <ele>152</ele>
        <time>2021-03-09T10:36:39Z</time>
      </trkpt>
      <trkpt lat="43.64328" lon="3.39184">
        <ele>152</ele>
        <time>2021-03-09T10:37:00Z</time>
      </trkpt>
      <trkpt lat="43.64244" lon="3.39228">
        <ele>159</ele>
        <time>2021-03-09T10:37:31Z</time>
      </trkpt>
      <trkpt lat="43.6418" lon="3.39265">
        <ele>162</ele>
        <time>2021-03-09T10:37:54Z</time>
      </trkpt>
      <trkpt lat="43.64164" lon="3.39272">
        <ele>162</ele>
        <time>2021-03-09T10:38:00Z</time>
      </trkpt>
      <trkpt lat="43.64159" lon="3.39276">
        <ele>163</ele>
        <time>2021-03-09T10:38:02Z</time>
      </trkpt>
      <trkpt lat="43.64153" lon="3.39284">
        <ele>164</ele>
        <time>2021-03-09T10:38:05Z</time>
      </trkpt>
      <trkpt lat="43.6415" lon="3.39291">
        <ele>164</ele>
        <time>2021-03-09T10:38:07Z</time>
      </trkpt>
      <trkpt lat="43.64113" lon="3.39408">
        <ele>166</ele>
        <time>2021-03-09T10:38:37Z</time>
      </trkpt>
      <trkpt lat="43.64078" lon="3.3951">
        <ele>168</ele>
        <time>2021-03-09T10:39:05Z</time>
      </trkpt>
      <trkpt lat="43.64071" lon="3.39521">
        <ele>168</ele>
        <time>2021-03-09T10:39:09Z</time>
      </trkpt>
      <trkpt lat="43.64047" lon="3.39538">
        <ele>167</ele>
        <time>2021-03-09T10:39:25Z</time>
      </trkpt>
      <trkpt lat="43.64043" lon="3.3954">
        <ele>168</ele>
        <time>2021-03-09T10:39:28Z</time>
      </trkpt>
      <trkpt lat="43.6404" lon="3.39538">
        <ele>168</ele>
        <time>2021-03-09T10:39:30Z</time>
      </trkpt>
      <trkpt lat="43.64036" lon="3.39529">
        <ele>169</ele>
        <time>2021-03-09T10:39:34Z</time>
      </trkpt>
      <trkpt lat="43.64013" lon="3.39508">
        <ele>176</ele>
        <time>2021-03-09T10:39:47Z</time>
      </trkpt>
      <trkpt lat="43.64009" lon="3.39505">
        <ele>176</ele>
        <time>2021-03-09T10:39:49Z</time>
      </trkpt>
      <trkpt lat="43.63994" lon="3.39509">
        <ele>177</ele>
        <time>2021-03-09T10:39:57Z</time>
      </trkpt>
      <trkpt lat="43.6399" lon="3.39511">
        <ele>178</ele>
        <time>2021-03-09T10:39:59Z</time>
      </trkpt>
      <trkpt lat="43.63988" lon="3.39515">
        <ele>178</ele>
        <time>2021-03-09T10:40:01Z</time>
      </trkpt>
      <trkpt lat="43.63989" lon="3.39528">
        <ele>179</ele>
        <time>2021-03-09T10:40:09Z</time>
      </trkpt>
      <trkpt lat="43.63988" lon="3.39532">
        <ele>179</ele>
        <time>2021-03-09T10:40:12Z</time>
      </trkpt>
      <trkpt lat="43.63996" lon="3.39578">
        <ele>180</ele>
        <time>2021-03-09T10:40:30Z</time>
      </trkpt>
      <trkpt lat="43.63994" lon="3.39603">
        <ele>183</ele>
        <time>2021-03-09T10:40:40Z</time>
      </trkpt>
      <trkpt lat="43.63991" lon="3.39614">
        <ele>183</ele>
        <time>2021-03-09T10:40:44Z</time>
      </trkpt>
      <trkpt lat="43.6399" lon="3.39623">
        <ele>183</ele>
        <time>2021-03-09T10:40:47Z</time>
      </trkpt>
      <trkpt lat="43.63994" lon="3.39634">
        <ele>182</ele>
        <time>2021-03-09T10:40:50Z</time>
      </trkpt>
      <trkpt lat="43.63995" lon="3.39643">
        <ele>182</ele>
        <time>2021-03-09T10:40:52Z</time>
      </trkpt>
      <trkpt lat="43.63994" lon="3.39658">
        <ele>181</ele>
        <time>2021-03-09T10:40:57Z</time>
      </trkpt>
      <trkpt lat="43.63999" lon="3.39695">
        <ele>182</ele>
        <time>2021-03-09T10:41:10Z</time>
      </trkpt>
      <trkpt lat="43.64" lon="3.39699">
        <ele>182</ele>
        <time>2021-03-09T10:41:11Z</time>
      </trkpt>
      <trkpt lat="43.64006" lon="3.39728">
        <ele>178</ele>
        <time>2021-03-09T10:41:18Z</time>
      </trkpt>
      <trkpt lat="43.64008" lon="3.39753">
        <ele>176</ele>
        <time>2021-03-09T10:41:26Z</time>
      </trkpt>
      <trkpt lat="43.64003" lon="3.3977">
        <ele>176</ele>
        <time>2021-03-09T10:41:32Z</time>
      </trkpt>
      <trkpt lat="43.64" lon="3.39775">
        <ele>176</ele>
        <time>2021-03-09T10:41:34Z</time>
      </trkpt>
      <trkpt lat="43.63978" lon="3.39801">
        <ele>172</ele>
        <time>2021-03-09T10:41:46Z</time>
      </trkpt>
      <trkpt lat="43.63975" lon="3.39804">
        <ele>172</ele>
        <time>2021-03-09T10:41:48Z</time>
      </trkpt>
      <trkpt lat="43.63947" lon="3.39828">
        <ele>173</ele>
        <time>2021-03-09T10:42:02Z</time>
      </trkpt>
      <trkpt lat="43.63942" lon="3.39837">
        <ele>173</ele>
        <time>2021-03-09T10:42:05Z</time>
      </trkpt>
      <trkpt lat="43.63905" lon="3.3988">
        <ele>176</ele>
        <time>2021-03-09T10:42:22Z</time>
      </trkpt>
      <trkpt lat="43.639" lon="3.39884">
        <ele>176</ele>
        <time>2021-03-09T10:42:24Z</time>
      </trkpt>
      <trkpt lat="43.63895" lon="3.39888">
        <ele>175</ele>
        <time>2021-03-09T10:42:26Z</time>
      </trkpt>
      <trkpt lat="43.63889" lon="3.39892">
        <ele>176</ele>
        <time>2021-03-09T10:42:29Z</time>
      </trkpt>
      <trkpt lat="43.63887" lon="3.39896">
        <ele>176</ele>
        <time>2021-03-09T10:42:31Z</time>
      </trkpt>
      <trkpt lat="43.63886" lon="3.39902">
        <ele>177</ele>
        <time>2021-03-09T10:42:33Z</time>
      </trkpt>
      <trkpt lat="43.63884" lon="3.39908">
        <ele>178</ele>
        <time>2021-03-09T10:42:35Z</time>
      </trkpt>
      <trkpt lat="43.63881" lon="3.39913">
        <ele>178</ele>
        <time>2021-03-09T10:42:37Z</time>
      </trkpt>
      <trkpt lat="43.63877" lon="3.39918">
        <ele>178</ele>
        <time>2021-03-09T10:42:39Z</time>
      </trkpt>
      <trkpt lat="43.63854" lon="3.39935">
        <ele>175</ele>
        <time>2021-03-09T10:42:48Z</time>
      </trkpt>
      <trkpt lat="43.63846" lon="3.39939">
        <ele>176</ele>
        <time>2021-03-09T10:42:52Z</time>
      </trkpt>
      <trkpt lat="43.63808" lon="3.39959">
        <ele>184</ele>
        <time>2021-03-09T10:43:04Z</time>
      </trkpt>
      <trkpt lat="43.63794" lon="3.3996">
        <ele>187</ele>
        <time>2021-03-09T10:43:09Z</time>
      </trkpt>
      <trkpt lat="43.63791" lon="3.39958">
        <ele>188</ele>
        <time>2021-03-09T10:43:10Z</time>
      </trkpt>
      <trkpt lat="43.63782" lon="3.3995">
        <ele>192</ele>
        <time>2021-03-09T10:43:14Z</time>
      </trkpt>
      <trkpt lat="43.63774" lon="3.39945">
        <ele>193</ele>
        <time>2021-03-09T10:43:17Z</time>
      </trkpt>
      <trkpt lat="43.63768" lon="3.39943">
        <ele>195</ele>
        <time>2021-03-09T10:43:19Z</time>
      </trkpt>
      <trkpt lat="43.6376" lon="3.39943">
        <ele>196</ele>
        <time>2021-03-09T10:43:22Z</time>
      </trkpt>
      <trkpt lat="43.63752" lon="3.39944">
        <ele>197</ele>
        <time>2021-03-09T10:43:25Z</time>
      </trkpt>
      <trkpt lat="43.63748" lon="3.39947">
        <ele>195</ele>
        <time>2021-03-09T10:43:27Z</time>
      </trkpt>
      <trkpt lat="43.63745" lon="3.39952">
        <ele>195</ele>
        <time>2021-03-09T10:43:29Z</time>
      </trkpt>
      <trkpt lat="43.63748" lon="3.39969">
        <ele>196</ele>
        <time>2021-03-09T10:43:35Z</time>
      </trkpt>
      <trkpt lat="43.6375" lon="3.39981">
        <ele>199</ele>
        <time>2021-03-09T10:43:39Z</time>
      </trkpt>
      <trkpt lat="43.63751" lon="3.39993">
        <ele>201</ele>
        <time>2021-03-09T10:43:43Z</time>
      </trkpt>
      <trkpt lat="43.6375" lon="3.39999">
        <ele>202</ele>
        <time>2021-03-09T10:43:45Z</time>
      </trkpt>
      <trkpt lat="43.63747" lon="3.40015">
        <ele>203</ele>
        <time>2021-03-09T10:43:50Z</time>
      </trkpt>
      <trkpt lat="43.63748" lon="3.40019">
        <ele>203</ele>
        <time>2021-03-09T10:43:51Z</time>
      </trkpt>
      <trkpt lat="43.6375" lon="3.40024">
        <ele>204</ele>
        <time>2021-03-09T10:43:52Z</time>
      </trkpt>
      <trkpt lat="43.63761" lon="3.40048">
        <ele>204</ele>
        <time>2021-03-09T10:43:57Z</time>
      </trkpt>
      <trkpt lat="43.63762" lon="3.40055">
        <ele>205</ele>
        <time>2021-03-09T10:43:59Z</time>
      </trkpt>
      <trkpt lat="43.63761" lon="3.40061">
        <ele>205</ele>
        <time>2021-03-09T10:44:01Z</time>
      </trkpt>
      <trkpt lat="43.63745" lon="3.40087">
        <ele>201</ele>
        <time>2021-03-09T10:44:10Z</time>
      </trkpt>
      <trkpt lat="43.63725" lon="3.40106">
        <ele>201</ele>
        <time>2021-03-09T10:44:17Z</time>
      </trkpt>
      <trkpt lat="43.63714" lon="3.40125">
        <ele>203</ele>
        <time>2021-03-09T10:44:22Z</time>
      </trkpt>
      <trkpt lat="43.63682" lon="3.40163">
        <ele>208</ele>
        <time>2021-03-09T10:44:36Z</time>
      </trkpt>
      <trkpt lat="43.63675" lon="3.40181">
        <ele>211</ele>
        <time>2021-03-09T10:44:41Z</time>
      </trkpt>
      <trkpt lat="43.63669" lon="3.4019">
        <ele>212</ele>
        <time>2021-03-09T10:44:44Z</time>
      </trkpt>
      <trkpt lat="43.6366" lon="3.402">
        <ele>210</ele>
        <time>2021-03-09T10:44:48Z</time>
      </trkpt>
      <trkpt lat="43.63656" lon="3.40204">
        <ele>210</ele>
        <time>2021-03-09T10:44:50Z</time>
      </trkpt>
      <trkpt lat="43.63654" lon="3.40207">
        <ele>210</ele>
        <time>2021-03-09T10:44:51Z</time>
      </trkpt>
      <trkpt lat="43.63649" lon="3.4021">
        <ele>211</ele>
        <time>2021-03-09T10:44:53Z</time>
      </trkpt>
      <trkpt lat="43.63642" lon="3.4021">
        <ele>211</ele>
        <time>2021-03-09T10:44:55Z</time>
      </trkpt>
      <trkpt lat="43.63635" lon="3.40208">
        <ele>211</ele>
        <time>2021-03-09T10:44:58Z</time>
      </trkpt>
      <trkpt lat="43.63631" lon="3.4021">
        <ele>210</ele>
        <time>2021-03-09T10:45:00Z</time>
      </trkpt>
      <trkpt lat="43.63633" lon="3.40224">
        <ele>211</ele>
        <time>2021-03-09T10:45:04Z</time>
      </trkpt>
      <trkpt lat="43.63634" lon="3.4023">
        <ele>212</ele>
        <time>2021-03-09T10:45:06Z</time>
      </trkpt>
      <trkpt lat="43.63634" lon="3.40237">
        <ele>213</ele>
        <time>2021-03-09T10:45:08Z</time>
      </trkpt>
      <trkpt lat="43.63637" lon="3.40249">
        <ele>213</ele>
        <time>2021-03-09T10:45:11Z</time>
      </trkpt>
      <trkpt lat="43.63645" lon="3.40272">
        <ele>212</ele>
        <time>2021-03-09T10:45:19Z</time>
      </trkpt>
      <trkpt lat="43.63647" lon="3.40282">
        <ele>213</ele>
        <time>2021-03-09T10:45:22Z</time>
      </trkpt>
      <trkpt lat="43.63649" lon="3.40288">
        <ele>213</ele>
        <time>2021-03-09T10:45:24Z</time>
      </trkpt>
      <trkpt lat="43.63651" lon="3.40293">
        <ele>213</ele>
        <time>2021-03-09T10:45:26Z</time>
      </trkpt>
      <trkpt lat="43.63656" lon="3.40305">
        <ele>212</ele>
        <time>2021-03-09T10:45:30Z</time>
      </trkpt>
      <trkpt lat="43.63661" lon="3.40321">
        <ele>215</ele>
        <time>2021-03-09T10:45:35Z</time>
      </trkpt>
      <trkpt lat="43.63668" lon="3.40336">
        <ele>215</ele>
        <time>2021-03-09T10:45:40Z</time>
      </trkpt>
      <trkpt lat="43.63672" lon="3.40348">
        <ele>217</ele>
        <time>2021-03-09T10:45:44Z</time>
      </trkpt>
      <trkpt lat="43.63678" lon="3.40361">
        <ele>219</ele>
        <time>2021-03-09T10:45:49Z</time>
      </trkpt>
      <trkpt lat="43.63679" lon="3.40366">
        <ele>220</ele>
        <time>2021-03-09T10:45:51Z</time>
      </trkpt>
      <trkpt lat="43.6368" lon="3.40375">
        <ele>220</ele>
        <time>2021-03-09T10:45:55Z</time>
      </trkpt>
      <trkpt lat="43.6368" lon="3.40379">
        <ele>220</ele>
        <time>2021-03-09T10:45:57Z</time>
      </trkpt>
      <trkpt lat="43.63682" lon="3.40384">
        <ele>221</ele>
        <time>2021-03-09T10:45:59Z</time>
      </trkpt>
      <trkpt lat="43.63687" lon="3.40403">
        <ele>221</ele>
        <time>2021-03-09T10:46:07Z</time>
      </trkpt>
      <trkpt lat="43.63686" lon="3.40418">
        <ele>221</ele>
        <time>2021-03-09T10:46:11Z</time>
      </trkpt>
      <trkpt lat="43.63683" lon="3.40431">
        <ele>223</ele>
        <time>2021-03-09T10:46:15Z</time>
      </trkpt>
      <trkpt lat="43.63679" lon="3.4046">
        <ele>221</ele>
        <time>2021-03-09T10:46:27Z</time>
      </trkpt>
      <trkpt lat="43.63666" lon="3.40492">
        <ele>220</ele>
        <time>2021-03-09T10:46:39Z</time>
      </trkpt>
      <trkpt lat="43.63659" lon="3.40543">
        <ele>224</ele>
        <time>2021-03-09T10:46:55Z</time>
      </trkpt>
      <trkpt lat="43.63641" lon="3.40582">
        <ele>226</ele>
        <time>2021-03-09T10:47:09Z</time>
      </trkpt>
      <trkpt lat="43.63636" lon="3.40592">
        <ele>228</ele>
        <time>2021-03-09T10:47:13Z</time>
      </trkpt>
      <trkpt lat="43.63635" lon="3.40595">
        <ele>228</ele>
        <time>2021-03-09T10:47:15Z</time>
      </trkpt>
      <trkpt lat="43.63599" lon="3.4065">
        <ele>231</ele>
        <time>2021-03-09T10:47:39Z</time>
      </trkpt>
      <trkpt lat="43.63593" lon="3.40656">
        <ele>230</ele>
        <time>2021-03-09T10:47:42Z</time>
      </trkpt>
      <trkpt lat="43.63584" lon="3.40659">
        <ele>232</ele>
        <time>2021-03-09T10:47:46Z</time>
      </trkpt>
      <trkpt lat="43.6358" lon="3.40659">
        <ele>233</ele>
        <time>2021-03-09T10:47:48Z</time>
      </trkpt>
      <trkpt lat="43.63571" lon="3.40656">
        <ele>234</ele>
        <time>2021-03-09T10:47:52Z</time>
      </trkpt>
      <trkpt lat="43.63567" lon="3.40652">
        <ele>235</ele>
        <time>2021-03-09T10:47:55Z</time>
      </trkpt>
      <trkpt lat="43.63563" lon="3.40649">
        <ele>235</ele>
        <time>2021-03-09T10:47:57Z</time>
      </trkpt>
      <trkpt lat="43.63559" lon="3.40649">
        <ele>236</ele>
        <time>2021-03-09T10:47:59Z</time>
      </trkpt>
      <trkpt lat="43.63553" lon="3.40661">
        <ele>236</ele>
        <time>2021-03-09T10:48:03Z</time>
      </trkpt>
      <trkpt lat="43.63552" lon="3.40666">
        <ele>237</ele>
        <time>2021-03-09T10:48:05Z</time>
      </trkpt>
      <trkpt lat="43.63552" lon="3.40671">
        <ele>237</ele>
        <time>2021-03-09T10:48:07Z</time>
      </trkpt>
      <trkpt lat="43.63551" lon="3.40676">
        <ele>238</ele>
        <time>2021-03-09T10:48:09Z</time>
      </trkpt>
      <trkpt lat="43.63544" lon="3.40686">
        <ele>240</ele>
        <time>2021-03-09T10:48:15Z</time>
      </trkpt>
      <trkpt lat="43.63542" lon="3.40691">
        <ele>239</ele>
        <time>2021-03-09T10:48:17Z</time>
      </trkpt>
      <trkpt lat="43.63542" lon="3.40705">
        <ele>239</ele>
        <time>2021-03-09T10:48:23Z</time>
      </trkpt>
      <trkpt lat="43.63541" lon="3.40736">
        <ele>242</ele>
        <time>2021-03-09T10:48:33Z</time>
      </trkpt>
      <trkpt lat="43.63537" lon="3.40747">
        <ele>240</ele>
        <time>2021-03-09T10:48:36Z</time>
      </trkpt>
      <trkpt lat="43.63479" lon="3.40805">
        <ele>237</ele>
        <time>2021-03-09T10:48:51Z</time>
      </trkpt>
      <trkpt lat="43.63446" lon="3.40831">
        <ele>239</ele>
        <time>2021-03-09T10:49:01Z</time>
      </trkpt>
      <trkpt lat="43.63443" lon="3.40831">
        <ele>240</ele>
        <time>2021-03-09T10:49:02Z</time>
      </trkpt>
      <trkpt lat="43.6343" lon="3.40823">
        <ele>242</ele>
        <time>2021-03-09T10:49:07Z</time>
      </trkpt>
      <trkpt lat="43.63415" lon="3.4082">
        <ele>246</ele>
        <time>2021-03-09T10:49:14Z</time>
      </trkpt>
      <trkpt lat="43.63412" lon="3.40822">
        <ele>246</ele>
        <time>2021-03-09T10:49:16Z</time>
      </trkpt>
      <trkpt lat="43.63402" lon="3.40836">
        <ele>250</ele>
        <time>2021-03-09T10:49:24Z</time>
      </trkpt>
      <trkpt lat="43.63395" lon="3.40844">
        <ele>251</ele>
        <time>2021-03-09T10:49:28Z</time>
      </trkpt>
      <trkpt lat="43.63385" lon="3.40848">
        <ele>252</ele>
        <time>2021-03-09T10:49:34Z</time>
      </trkpt>
      <trkpt lat="43.6338" lon="3.40852">
        <ele>254</ele>
        <time>2021-03-09T10:51:43Z</time>
      </trkpt>
      <trkpt lat="43.63314" lon="3.40884">
        <ele>251</ele>
        <time>2021-03-09T10:51:59Z</time>
      </trkpt>
      <trkpt lat="43.63304" lon="3.40885">
        <ele>251</ele>
        <time>2021-03-09T10:52:01Z</time>
      </trkpt>
      <trkpt lat="43.63275" lon="3.40879">
        <ele>252</ele>
        <time>2021-03-09T10:52:08Z</time>
      </trkpt>
      <trkpt lat="43.63238" lon="3.40854">
        <ele>253</ele>
        <time>2021-03-09T10:52:18Z</time>
      </trkpt>
      <trkpt lat="43.63231" lon="3.40851">
        <ele>253</ele>
        <time>2021-03-09T10:52:20Z</time>
      </trkpt>
      <trkpt lat="43.6322" lon="3.40853">
        <ele>254</ele>
        <time>2021-03-09T10:52:22Z</time>
      </trkpt>
      <trkpt lat="43.63178" lon="3.40871">
        <ele>253</ele>
        <time>2021-03-09T10:52:32Z</time>
      </trkpt>
      <trkpt lat="43.63169" lon="3.40871">
        <ele>253</ele>
        <time>2021-03-09T10:52:34Z</time>
      </trkpt>
      <trkpt lat="43.6316" lon="3.40869">
        <ele>252</ele>
        <time>2021-03-09T10:52:36Z</time>
      </trkpt>
      <trkpt lat="43.63154" lon="3.40864">
        <ele>251</ele>
        <time>2021-03-09T10:52:38Z</time>
      </trkpt>
      <trkpt lat="43.63096" lon="3.40788">
        <ele>249</ele>
        <time>2021-03-09T10:52:58Z</time>
      </trkpt>
      <trkpt lat="43.63093" lon="3.40787">
        <ele>249</ele>
        <time>2021-03-09T10:52:59Z</time>
      </trkpt>
      <trkpt lat="43.63082" lon="3.40794">
        <ele>249</ele>
        <time>2021-03-09T10:53:01Z</time>
      </trkpt>
      <trkpt lat="43.63068" lon="3.40807">
        <ele>247</ele>
        <time>2021-03-09T10:53:04Z</time>
      </trkpt>
      <trkpt lat="43.63061" lon="3.40818">
        <ele>246</ele>
        <time>2021-03-09T10:53:06Z</time>
      </trkpt>
      <trkpt lat="43.63059" lon="3.40824">
        <ele>245</ele>
        <time>2021-03-09T10:53:07Z</time>
      </trkpt>
      <trkpt lat="43.63054" lon="3.40863">
        <ele>243</ele>
        <time>2021-03-09T10:53:13Z</time>
      </trkpt>
      <trkpt lat="43.63054" lon="3.40869">
        <ele>243</ele>
        <time>2021-03-09T10:53:14Z</time>
      </trkpt>
      <trkpt lat="43.63066" lon="3.40906">
        <ele>239</ele>
        <time>2021-03-09T10:53:20Z</time>
      </trkpt>
      <trkpt lat="43.6307" lon="3.40918">
        <ele>237</ele>
        <time>2021-03-09T10:53:23Z</time>
      </trkpt>
      <trkpt lat="43.63072" lon="3.40923">
        <ele>236</ele>
        <time>2021-03-09T10:53:25Z</time>
      </trkpt>
      <trkpt lat="43.63073" lon="3.40933">
        <ele>234</ele>
        <time>2021-03-09T10:53:29Z</time>
      </trkpt>
      <trkpt lat="43.63079" lon="3.40951">
        <ele>232</ele>
        <time>2021-03-09T10:53:35Z</time>
      </trkpt>
      <trkpt lat="43.63083" lon="3.4097">
        <ele>226</ele>
        <time>2021-03-09T10:53:41Z</time>
      </trkpt>
      <trkpt lat="43.63083" lon="3.40974">
        <ele>225</ele>
        <time>2021-03-09T10:53:42Z</time>
      </trkpt>
      <trkpt lat="43.63078" lon="3.40989">
        <ele>222</ele>
        <time>2021-03-09T10:53:46Z</time>
      </trkpt>
      <trkpt lat="43.63072" lon="3.41015">
        <ele>220</ele>
        <time>2021-03-09T10:53:52Z</time>
      </trkpt>
      <trkpt lat="43.6307" lon="3.41027">
        <ele>219</ele>
        <time>2021-03-09T10:53:55Z</time>
      </trkpt>
      <trkpt lat="43.63069" lon="3.41035">
        <ele>217</ele>
        <time>2021-03-09T10:53:57Z</time>
      </trkpt>
      <trkpt lat="43.63066" lon="3.41048">
        <ele>215</ele>
        <time>2021-03-09T10:54:01Z</time>
      </trkpt>
      <trkpt lat="43.63066" lon="3.41052">
        <ele>214</ele>
        <time>2021-03-09T10:54:02Z</time>
      </trkpt>
      <trkpt lat="43.63062" lon="3.41074">
        <ele>211</ele>
        <time>2021-03-09T10:54:08Z</time>
      </trkpt>
      <trkpt lat="43.63065" lon="3.41106">
        <ele>208</ele>
        <time>2021-03-09T10:54:17Z</time>
      </trkpt>
      <trkpt lat="43.63069" lon="3.41118">
        <ele>207</ele>
        <time>2021-03-09T10:54:21Z</time>
      </trkpt>
      <trkpt lat="43.63079" lon="3.41168">
        <ele>199</ele>
        <time>2021-03-09T10:54:36Z</time>
      </trkpt>
      <trkpt lat="43.63075" lon="3.41187">
        <ele>197</ele>
        <time>2021-03-09T10:54:42Z</time>
      </trkpt>
      <trkpt lat="43.63075" lon="3.41193">
        <ele>195</ele>
        <time>2021-03-09T10:54:44Z</time>
      </trkpt>
      <trkpt lat="43.63084" lon="3.41212">
        <ele>190</ele>
        <time>2021-03-09T10:54:52Z</time>
      </trkpt>
      <trkpt lat="43.6309" lon="3.41219">
        <ele>188</ele>
        <time>2021-03-09T10:54:56Z</time>
      </trkpt>
      <trkpt lat="43.63094" lon="3.41227">
        <ele>185</ele>
        <time>2021-03-09T10:55:00Z</time>
      </trkpt>
      <trkpt lat="43.63097" lon="3.41232">
        <ele>184</ele>
        <time>2021-03-09T10:55:02Z</time>
      </trkpt>
      <trkpt lat="43.63122" lon="3.41266">
        <ele>177</ele>
        <time>2021-03-09T10:55:16Z</time>
      </trkpt>
      <trkpt lat="43.63119" lon="3.41267">
        <ele>174</ele>
        <time>2021-03-09T10:55:24Z</time>
      </trkpt>
      <trkpt lat="43.63114" lon="3.41269">
        <ele>172</ele>
        <time>2021-03-09T10:55:26Z</time>
      </trkpt>
      <trkpt lat="43.6311" lon="3.41275">
        <ele>170</ele>
        <time>2021-03-09T10:55:28Z</time>
      </trkpt>
      <trkpt lat="43.63104" lon="3.413">
        <ele>168</ele>
        <time>2021-03-09T10:55:34Z</time>
      </trkpt>
      <trkpt lat="43.63095" lon="3.41321">
        <ele>165</ele>
        <time>2021-03-09T10:55:40Z</time>
      </trkpt>
      <trkpt lat="43.63092" lon="3.4133">
        <ele>163</ele>
        <time>2021-03-09T10:55:43Z</time>
      </trkpt>
      <trkpt lat="43.6309" lon="3.41335">
        <ele>163</ele>
        <time>2021-03-09T10:56:21Z</time>
      </trkpt>
      <trkpt lat="43.63033" lon="3.41447">
        <ele>155</ele>
        <time>2021-03-09T10:56:42Z</time>
      </trkpt>
      <trkpt lat="43.63027" lon="3.41462">
        <ele>153</ele>
        <time>2021-03-09T10:56:45Z</time>
      </trkpt>
      <trkpt lat="43.6301" lon="3.41485">
        <ele>151</ele>
        <time>2021-03-09T10:56:50Z</time>
      </trkpt>
      <trkpt lat="43.62971" lon="3.41552">
        <ele>149</ele>
        <time>2021-03-09T10:57:00Z</time>
      </trkpt>
      <trkpt lat="43.62923" lon="3.41602">
        <ele>149</ele>
        <time>2021-03-09T10:57:11Z</time>
      </trkpt>
      <trkpt lat="43.62895" lon="3.41625">
        <ele>146</ele>
        <time>2021-03-09T10:57:18Z</time>
      </trkpt>
      <trkpt lat="43.62884" lon="3.41635">
        <ele>146</ele>
        <time>2021-03-09T10:57:21Z</time>
      </trkpt>
      <trkpt lat="43.62877" lon="3.41648">
        <ele>145</ele>
        <time>2021-03-09T10:57:23Z</time>
      </trkpt>
      <trkpt lat="43.62857" lon="3.41727">
        <ele>137</ele>
        <time>2021-03-09T10:57:30Z</time>
      </trkpt>
      <trkpt lat="43.62801" lon="3.41839">
        <ele>130</ele>
        <time>2021-03-09T10:57:42Z</time>
      </trkpt>
      <trkpt lat="43.62795" lon="3.41846">
        <ele>130</ele>
        <time>2021-03-09T10:57:43Z</time>
      </trkpt>
      <trkpt lat="43.62763" lon="3.41873">
        <ele>128</ele>
        <time>2021-03-09T10:57:48Z</time>
      </trkpt>
      <trkpt lat="43.62736" lon="3.41929">
        <ele>126</ele>
        <time>2021-03-09T10:57:54Z</time>
      </trkpt>
      <trkpt lat="43.62725" lon="3.41964">
        <ele>125</ele>
        <time>2021-03-09T10:57:57Z</time>
      </trkpt>
      <trkpt lat="43.62711" lon="3.42042">
        <ele>122</ele>
        <time>2021-03-09T10:58:09Z</time>
      </trkpt>
      <trkpt lat="43.62696" lon="3.42089">
        <ele>120</ele>
        <time>2021-03-09T10:58:20Z</time>
      </trkpt>
      <trkpt lat="43.62693" lon="3.42092">
        <ele>118</ele>
        <time>2021-03-09T10:58:22Z</time>
      </trkpt>
    </trkseg>
  </trk>
</gpx>